<?xml version="1.0" encoding="UTF-8" standalone="no" ?>
<gpx xmlns="http://www.topografix.com/GPX/1/1" xmlns:xsi="http://www.w3.org/2001/XMLSchema-instance" xsi:schemaLocation="http://www.topografix.com/GPX/1/1 http://www.topografix.com/GPX/1/1/gpx.xsd" version="1.1" creator="VisuGPX - https://www.visugpx.com">
  <metadata>
    <name>rando vtt paulhiac 2014</name>
    <desc><![CDATA[15 août 2014 à Paulhiac (47)]]></desc>
  </metadata>
  <trk>
    <name><![CDATA[Paulhiac2014]]></name>
    <trkseg>
      <trkpt lat="44.582" lon="0.82977">
        <ele>175.58</ele>
        <time>2014-08-15T07:36:31Z</time>
      </trkpt>
      <trkpt lat="44.58204" lon="0.82989">
        <ele>162.6</ele>
        <time>2014-08-15T07:36:55Z</time>
      </trkpt>
      <trkpt lat="44.58205" lon="0.82994">
        <ele>158.75</ele>
        <time>2014-08-15T07:37:20Z</time>
      </trkpt>
      <trkpt lat="44.58203" lon="0.82997">
        <ele>155.39</ele>
        <time>2014-08-15T07:37:45Z</time>
      </trkpt>
      <trkpt lat="44.58203" lon="0.82997">
        <ele>153.95</ele>
        <time>2014-08-15T07:38:06Z</time>
      </trkpt>
      <trkpt lat="44.58202" lon="0.82995">
        <ele>156.35</ele>
        <time>2014-08-15T07:38:36Z</time>
      </trkpt>
      <trkpt lat="44.58204" lon="0.82996">
        <ele>155.39</ele>
        <time>2014-08-15T07:39:09Z</time>
      </trkpt>
      <trkpt lat="44.58204" lon="0.82995">
        <ele>154.91</ele>
        <time>2014-08-15T07:39:38Z</time>
      </trkpt>
      <trkpt lat="44.58204" lon="0.82995">
        <ele>154.91</ele>
        <time>2014-08-15T07:40:05Z</time>
      </trkpt>
      <trkpt lat="44.58204" lon="0.82997">
        <ele>155.39</ele>
        <time>2014-08-15T07:40:26Z</time>
      </trkpt>
      <trkpt lat="44.58203" lon="0.82997">
        <ele>154.43</ele>
        <time>2014-08-15T07:40:47Z</time>
      </trkpt>
      <trkpt lat="44.58204" lon="0.82997">
        <ele>154.43</ele>
        <time>2014-08-15T07:41:00Z</time>
      </trkpt>
      <trkpt lat="44.58204" lon="0.82998">
        <ele>154.43</ele>
        <time>2014-08-15T07:41:14Z</time>
      </trkpt>
      <trkpt lat="44.58204" lon="0.82997">
        <ele>154.43</ele>
        <time>2014-08-15T07:41:35Z</time>
      </trkpt>
      <trkpt lat="44.58203" lon="0.82998">
        <ele>153.47</ele>
        <time>2014-08-15T07:41:49Z</time>
      </trkpt>
      <trkpt lat="44.58202" lon="0.82997">
        <ele>153.47</ele>
        <time>2014-08-15T07:42:08Z</time>
      </trkpt>
      <trkpt lat="44.58202" lon="0.82998">
        <ele>153.47</ele>
        <time>2014-08-15T07:42:27Z</time>
      </trkpt>
      <trkpt lat="44.58201" lon="0.82998">
        <ele>152.99</ele>
        <time>2014-08-15T07:42:46Z</time>
      </trkpt>
      <trkpt lat="44.582" lon="0.82997">
        <ele>153.47</ele>
        <time>2014-08-15T07:43:05Z</time>
      </trkpt>
      <trkpt lat="44.58198" lon="0.82995">
        <ele>154.91</ele>
        <time>2014-08-15T07:43:29Z</time>
      </trkpt>
      <trkpt lat="44.58195" lon="0.82987">
        <ele>153.95</ele>
        <time>2014-08-15T07:43:34Z</time>
      </trkpt>
      <trkpt lat="44.58179" lon="0.82944">
        <ele>152.99</ele>
        <time>2014-08-15T07:43:47Z</time>
      </trkpt>
      <trkpt lat="44.58162" lon="0.82903">
        <ele>153.47</ele>
        <time>2014-08-15T07:44:02Z</time>
      </trkpt>
      <trkpt lat="44.58144" lon="0.82859">
        <ele>152.99</ele>
        <time>2014-08-15T07:44:18Z</time>
      </trkpt>
      <trkpt lat="44.5813" lon="0.8282">
        <ele>153.95</ele>
        <time>2014-08-15T07:44:32Z</time>
      </trkpt>
      <trkpt lat="44.58128" lon="0.82809">
        <ele>153.95</ele>
        <time>2014-08-15T07:44:36Z</time>
      </trkpt>
      <trkpt lat="44.58129" lon="0.82807">
        <ele>153.95</ele>
        <time>2014-08-15T07:44:37Z</time>
      </trkpt>
      <trkpt lat="44.58131" lon="0.82805">
        <ele>153.95</ele>
        <time>2014-08-15T07:44:38Z</time>
      </trkpt>
      <trkpt lat="44.58179" lon="0.82771">
        <ele>153.95</ele>
        <time>2014-08-15T07:44:53Z</time>
      </trkpt>
      <trkpt lat="44.58254" lon="0.82726">
        <ele>152.51</ele>
        <time>2014-08-15T07:45:10Z</time>
      </trkpt>
      <trkpt lat="44.58335" lon="0.82696">
        <ele>152.03</ele>
        <time>2014-08-15T07:45:27Z</time>
      </trkpt>
      <trkpt lat="44.58409" lon="0.82648">
        <ele>152.51</ele>
        <time>2014-08-15T07:45:44Z</time>
      </trkpt>
      <trkpt lat="44.58435" lon="0.82625">
        <ele>152.51</ele>
        <time>2014-08-15T07:45:51Z</time>
      </trkpt>
      <trkpt lat="44.58439" lon="0.82622">
        <ele>152.51</ele>
        <time>2014-08-15T07:45:52Z</time>
      </trkpt>
      <trkpt lat="44.58504" lon="0.8256">
        <ele>152.51</ele>
        <time>2014-08-15T07:46:09Z</time>
      </trkpt>
      <trkpt lat="44.58571" lon="0.82498">
        <ele>153.47</ele>
        <time>2014-08-15T07:46:27Z</time>
      </trkpt>
      <trkpt lat="44.58644" lon="0.82453">
        <ele>153.95</ele>
        <time>2014-08-15T07:46:44Z</time>
      </trkpt>
      <trkpt lat="44.58699" lon="0.82406">
        <ele>154.43</ele>
        <time>2014-08-15T07:46:57Z</time>
      </trkpt>
      <trkpt lat="44.58702" lon="0.82402">
        <ele>154.43</ele>
        <time>2014-08-15T07:46:58Z</time>
      </trkpt>
      <trkpt lat="44.58731" lon="0.82368">
        <ele>151.54</ele>
        <time>2014-08-15T07:47:09Z</time>
      </trkpt>
      <trkpt lat="44.58759" lon="0.82337">
        <ele>150.58</ele>
        <time>2014-08-15T07:47:20Z</time>
      </trkpt>
      <trkpt lat="44.58777" lon="0.8233">
        <ele>149.62</ele>
        <time>2014-08-15T07:47:30Z</time>
      </trkpt>
      <trkpt lat="44.58807" lon="0.82315">
        <ele>150.58</ele>
        <time>2014-08-15T07:47:40Z</time>
      </trkpt>
      <trkpt lat="44.5881" lon="0.8231">
        <ele>150.58</ele>
        <time>2014-08-15T07:47:41Z</time>
      </trkpt>
      <trkpt lat="44.58844" lon="0.82289">
        <ele>146.74</ele>
        <time>2014-08-15T07:47:53Z</time>
      </trkpt>
      <trkpt lat="44.58882" lon="0.82285">
        <ele>142.41</ele>
        <time>2014-08-15T07:48:00Z</time>
      </trkpt>
      <trkpt lat="44.58887" lon="0.82284">
        <ele>141.93</ele>
        <time>2014-08-15T07:48:01Z</time>
      </trkpt>
      <trkpt lat="44.58904" lon="0.82278">
        <ele>140.01</ele>
        <time>2014-08-15T07:48:05Z</time>
      </trkpt>
      <trkpt lat="44.58908" lon="0.82276">
        <ele>140.01</ele>
        <time>2014-08-15T07:48:06Z</time>
      </trkpt>
      <trkpt lat="44.5898" lon="0.82249">
        <ele>137.61</ele>
        <time>2014-08-15T07:48:18Z</time>
      </trkpt>
      <trkpt lat="44.59046" lon="0.82189">
        <ele>136.16</ele>
        <time>2014-08-15T07:48:32Z</time>
      </trkpt>
      <trkpt lat="44.59072" lon="0.82166">
        <ele>135.2</ele>
        <time>2014-08-15T07:48:38Z</time>
      </trkpt>
      <trkpt lat="44.59106" lon="0.82115">
        <ele>127.99</ele>
        <time>2014-08-15T07:48:49Z</time>
      </trkpt>
      <trkpt lat="44.59122" lon="0.82084">
        <ele>126.07</ele>
        <time>2014-08-15T07:48:57Z</time>
      </trkpt>
      <trkpt lat="44.59141" lon="0.8206">
        <ele>124.15</ele>
        <time>2014-08-15T07:49:03Z</time>
      </trkpt>
      <trkpt lat="44.59145" lon="0.82058">
        <ele>123.19</ele>
        <time>2014-08-15T07:49:04Z</time>
      </trkpt>
      <trkpt lat="44.59148" lon="0.82056">
        <ele>122.71</ele>
        <time>2014-08-15T07:49:05Z</time>
      </trkpt>
      <trkpt lat="44.59177" lon="0.82048">
        <ele>121.26</ele>
        <time>2014-08-15T07:49:15Z</time>
      </trkpt>
      <trkpt lat="44.59181" lon="0.82044">
        <ele>120.78</ele>
        <time>2014-08-15T07:49:16Z</time>
      </trkpt>
      <trkpt lat="44.59185" lon="0.8204">
        <ele>120.78</ele>
        <time>2014-08-15T07:49:17Z</time>
      </trkpt>
      <trkpt lat="44.59189" lon="0.82037">
        <ele>120.78</ele>
        <time>2014-08-15T07:49:18Z</time>
      </trkpt>
      <trkpt lat="44.59193" lon="0.82034">
        <ele>120.78</ele>
        <time>2014-08-15T07:49:19Z</time>
      </trkpt>
      <trkpt lat="44.59236" lon="0.81999">
        <ele>120.3</ele>
        <time>2014-08-15T07:49:29Z</time>
      </trkpt>
      <trkpt lat="44.59242" lon="0.81996">
        <ele>120.3</ele>
        <time>2014-08-15T07:49:30Z</time>
      </trkpt>
      <trkpt lat="44.59248" lon="0.81994">
        <ele>120.3</ele>
        <time>2014-08-15T07:49:31Z</time>
      </trkpt>
      <trkpt lat="44.59266" lon="0.81988">
        <ele>119.82</ele>
        <time>2014-08-15T07:49:34Z</time>
      </trkpt>
      <trkpt lat="44.59329" lon="0.81962">
        <ele>119.34</ele>
        <time>2014-08-15T07:49:45Z</time>
      </trkpt>
      <trkpt lat="44.59381" lon="0.81909">
        <ele>118.38</ele>
        <time>2014-08-15T07:49:54Z</time>
      </trkpt>
      <trkpt lat="44.59394" lon="0.81891">
        <ele>117.9</ele>
        <time>2014-08-15T07:49:56Z</time>
      </trkpt>
      <trkpt lat="44.59407" lon="0.81869">
        <ele>116.94</ele>
        <time>2014-08-15T07:49:58Z</time>
      </trkpt>
      <trkpt lat="44.59427" lon="0.81823">
        <ele>114.53</ele>
        <time>2014-08-15T07:50:02Z</time>
      </trkpt>
      <trkpt lat="44.59431" lon="0.81815">
        <ele>113.57</ele>
        <time>2014-08-15T07:50:03Z</time>
      </trkpt>
      <trkpt lat="44.59436" lon="0.8181">
        <ele>113.09</ele>
        <time>2014-08-15T07:50:04Z</time>
      </trkpt>
      <trkpt lat="44.59443" lon="0.818">
        <ele>112.13</ele>
        <time>2014-08-15T07:50:06Z</time>
      </trkpt>
      <trkpt lat="44.59446" lon="0.81797">
        <ele>111.65</ele>
        <time>2014-08-15T07:50:07Z</time>
      </trkpt>
      <trkpt lat="44.5945" lon="0.81793">
        <ele>111.17</ele>
        <time>2014-08-15T07:50:08Z</time>
      </trkpt>
      <trkpt lat="44.59453" lon="0.8179">
        <ele>110.69</ele>
        <time>2014-08-15T07:50:09Z</time>
      </trkpt>
      <trkpt lat="44.59457" lon="0.81787">
        <ele>110.69</ele>
        <time>2014-08-15T07:50:10Z</time>
      </trkpt>
      <trkpt lat="44.59461" lon="0.81784">
        <ele>110.69</ele>
        <time>2014-08-15T07:50:11Z</time>
      </trkpt>
      <trkpt lat="44.59464" lon="0.81782">
        <ele>110.69</ele>
        <time>2014-08-15T07:50:12Z</time>
      </trkpt>
      <trkpt lat="44.59469" lon="0.8178">
        <ele>110.69</ele>
        <time>2014-08-15T07:50:13Z</time>
      </trkpt>
      <trkpt lat="44.59483" lon="0.8177">
        <ele>112.13</ele>
        <time>2014-08-15T07:50:17Z</time>
      </trkpt>
      <trkpt lat="44.59512" lon="0.81727">
        <ele>113.09</ele>
        <time>2014-08-15T07:50:24Z</time>
      </trkpt>
      <trkpt lat="44.59514" lon="0.8172">
        <ele>113.09</ele>
        <time>2014-08-15T07:50:25Z</time>
      </trkpt>
      <trkpt lat="44.59516" lon="0.81713">
        <ele>113.09</ele>
        <time>2014-08-15T07:50:26Z</time>
      </trkpt>
      <trkpt lat="44.59516" lon="0.81705">
        <ele>113.09</ele>
        <time>2014-08-15T07:50:27Z</time>
      </trkpt>
      <trkpt lat="44.59516" lon="0.81697">
        <ele>112.61</ele>
        <time>2014-08-15T07:50:28Z</time>
      </trkpt>
      <trkpt lat="44.59516" lon="0.8169">
        <ele>112.61</ele>
        <time>2014-08-15T07:50:29Z</time>
      </trkpt>
      <trkpt lat="44.59519" lon="0.81646">
        <ele>111.65</ele>
        <time>2014-08-15T07:50:39Z</time>
      </trkpt>
      <trkpt lat="44.59525" lon="0.81608">
        <ele>113.57</ele>
        <time>2014-08-15T07:50:50Z</time>
      </trkpt>
      <trkpt lat="44.59534" lon="0.81564">
        <ele>114.53</ele>
        <time>2014-08-15T07:51:01Z</time>
      </trkpt>
      <trkpt lat="44.59551" lon="0.81501">
        <ele>116.46</ele>
        <time>2014-08-15T07:51:16Z</time>
      </trkpt>
      <trkpt lat="44.59567" lon="0.81445">
        <ele>116.46</ele>
        <time>2014-08-15T07:51:28Z</time>
      </trkpt>
      <trkpt lat="44.59582" lon="0.81384">
        <ele>118.86</ele>
        <time>2014-08-15T07:51:43Z</time>
      </trkpt>
      <trkpt lat="44.59583" lon="0.8135">
        <ele>121.74</ele>
        <time>2014-08-15T07:51:55Z</time>
      </trkpt>
      <trkpt lat="44.59583" lon="0.8134">
        <ele>125.11</ele>
        <time>2014-08-15T07:52:00Z</time>
      </trkpt>
      <trkpt lat="44.59583" lon="0.81316">
        <ele>131.36</ele>
        <time>2014-08-15T07:52:14Z</time>
      </trkpt>
      <trkpt lat="44.59584" lon="0.81311">
        <ele>132.32</ele>
        <time>2014-08-15T07:52:17Z</time>
      </trkpt>
      <trkpt lat="44.59589" lon="0.81291">
        <ele>134.72</ele>
        <time>2014-08-15T07:52:28Z</time>
      </trkpt>
      <trkpt lat="44.59597" lon="0.81278">
        <ele>134.72</ele>
        <time>2014-08-15T07:52:35Z</time>
      </trkpt>
      <trkpt lat="44.59617" lon="0.81239">
        <ele>135.2</ele>
        <time>2014-08-15T07:52:48Z</time>
      </trkpt>
      <trkpt lat="44.59627" lon="0.8122">
        <ele>135.2</ele>
        <time>2014-08-15T07:52:53Z</time>
      </trkpt>
      <trkpt lat="44.5967" lon="0.81143">
        <ele>137.61</ele>
        <time>2014-08-15T07:53:14Z</time>
      </trkpt>
      <trkpt lat="44.59696" lon="0.8108">
        <ele>138.09</ele>
        <time>2014-08-15T07:53:29Z</time>
      </trkpt>
      <trkpt lat="44.59714" lon="0.81024">
        <ele>135.68</ele>
        <time>2014-08-15T07:53:37Z</time>
      </trkpt>
      <trkpt lat="44.59721" lon="0.80989">
        <ele>135.2</ele>
        <time>2014-08-15T07:53:42Z</time>
      </trkpt>
      <trkpt lat="44.59724" lon="0.80977">
        <ele>135.2</ele>
        <time>2014-08-15T07:53:44Z</time>
      </trkpt>
      <trkpt lat="44.5973" lon="0.8096">
        <ele>135.2</ele>
        <time>2014-08-15T07:53:47Z</time>
      </trkpt>
      <trkpt lat="44.59739" lon="0.80933">
        <ele>135.68</ele>
        <time>2014-08-15T07:53:52Z</time>
      </trkpt>
      <trkpt lat="44.59746" lon="0.80904">
        <ele>137.13</ele>
        <time>2014-08-15T07:54:01Z</time>
      </trkpt>
      <trkpt lat="44.59744" lon="0.80896">
        <ele>137.61</ele>
        <time>2014-08-15T07:54:05Z</time>
      </trkpt>
      <trkpt lat="44.59752" lon="0.80846">
        <ele>138.57</ele>
        <time>2014-08-15T07:54:17Z</time>
      </trkpt>
      <trkpt lat="44.59771" lon="0.80774">
        <ele>140.01</ele>
        <time>2014-08-15T07:54:33Z</time>
      </trkpt>
      <trkpt lat="44.59789" lon="0.80732">
        <ele>142.41</ele>
        <time>2014-08-15T07:54:45Z</time>
      </trkpt>
      <trkpt lat="44.59824" lon="0.80681">
        <ele>145.78</ele>
        <time>2014-08-15T07:55:00Z</time>
      </trkpt>
      <trkpt lat="44.59859" lon="0.8063">
        <ele>150.58</ele>
        <time>2014-08-15T07:55:17Z</time>
      </trkpt>
      <trkpt lat="44.59887" lon="0.80588">
        <ele>153.95</ele>
        <time>2014-08-15T07:55:31Z</time>
      </trkpt>
      <trkpt lat="44.59919" lon="0.80533">
        <ele>156.35</ele>
        <time>2014-08-15T07:55:47Z</time>
      </trkpt>
      <trkpt lat="44.59949" lon="0.80483">
        <ele>159.72</ele>
        <time>2014-08-15T07:56:02Z</time>
      </trkpt>
      <trkpt lat="44.59975" lon="0.80436">
        <ele>162.12</ele>
        <time>2014-08-15T07:56:16Z</time>
      </trkpt>
      <trkpt lat="44.59981" lon="0.80427">
        <ele>161.16</ele>
        <time>2014-08-15T07:56:19Z</time>
      </trkpt>
      <trkpt lat="44.59988" lon="0.80391">
        <ele>159.24</ele>
        <time>2014-08-15T07:56:24Z</time>
      </trkpt>
      <trkpt lat="44.59992" lon="0.80373">
        <ele>158.27</ele>
        <time>2014-08-15T07:56:27Z</time>
      </trkpt>
      <trkpt lat="44.59997" lon="0.80362">
        <ele>157.31</ele>
        <time>2014-08-15T07:56:29Z</time>
      </trkpt>
      <trkpt lat="44.60018" lon="0.80325">
        <ele>153.47</ele>
        <time>2014-08-15T07:56:41Z</time>
      </trkpt>
      <trkpt lat="44.60049" lon="0.80299">
        <ele>151.06</ele>
        <time>2014-08-15T07:56:52Z</time>
      </trkpt>
      <trkpt lat="44.60082" lon="0.80265">
        <ele>148.66</ele>
        <time>2014-08-15T07:57:04Z</time>
      </trkpt>
      <trkpt lat="44.60086" lon="0.80257">
        <ele>148.66</ele>
        <time>2014-08-15T07:57:07Z</time>
      </trkpt>
      <trkpt lat="44.60093" lon="0.80228">
        <ele>150.1</ele>
        <time>2014-08-15T07:57:15Z</time>
      </trkpt>
      <trkpt lat="44.60095" lon="0.80185">
        <ele>149.62</ele>
        <time>2014-08-15T07:57:21Z</time>
      </trkpt>
      <trkpt lat="44.60109" lon="0.80152">
        <ele>145.78</ele>
        <time>2014-08-15T07:57:27Z</time>
      </trkpt>
      <trkpt lat="44.60116" lon="0.80136">
        <ele>142.89</ele>
        <time>2014-08-15T07:57:31Z</time>
      </trkpt>
      <trkpt lat="44.60101" lon="0.8009">
        <ele>135.68</ele>
        <time>2014-08-15T07:57:41Z</time>
      </trkpt>
      <trkpt lat="44.60083" lon="0.80048">
        <ele>131.84</ele>
        <time>2014-08-15T07:57:49Z</time>
      </trkpt>
      <trkpt lat="44.60074" lon="0.79991">
        <ele>129.43</ele>
        <time>2014-08-15T07:58:00Z</time>
      </trkpt>
      <trkpt lat="44.60071" lon="0.79971">
        <ele>128.47</ele>
        <time>2014-08-15T07:58:07Z</time>
      </trkpt>
      <trkpt lat="44.60066" lon="0.79919">
        <ele>130.88</ele>
        <time>2014-08-15T07:58:23Z</time>
      </trkpt>
      <trkpt lat="44.6006" lon="0.79881">
        <ele>135.68</ele>
        <time>2014-08-15T07:58:37Z</time>
      </trkpt>
      <trkpt lat="44.60057" lon="0.79844">
        <ele>140.01</ele>
        <time>2014-08-15T07:58:51Z</time>
      </trkpt>
      <trkpt lat="44.60057" lon="0.79809">
        <ele>145.3</ele>
        <time>2014-08-15T07:59:06Z</time>
      </trkpt>
      <trkpt lat="44.60058" lon="0.79778">
        <ele>146.26</ele>
        <time>2014-08-15T07:59:19Z</time>
      </trkpt>
      <trkpt lat="44.60059" lon="0.79774">
        <ele>146.26</ele>
        <time>2014-08-15T07:59:21Z</time>
      </trkpt>
      <trkpt lat="44.60067" lon="0.79757">
        <ele>147.22</ele>
        <time>2014-08-15T07:59:32Z</time>
      </trkpt>
      <trkpt lat="44.60072" lon="0.79742">
        <ele>149.62</ele>
        <time>2014-08-15T07:59:40Z</time>
      </trkpt>
      <trkpt lat="44.60075" lon="0.7973">
        <ele>151.06</ele>
        <time>2014-08-15T07:59:46Z</time>
      </trkpt>
      <trkpt lat="44.60089" lon="0.79691">
        <ele>152.99</ele>
        <time>2014-08-15T08:00:03Z</time>
      </trkpt>
      <trkpt lat="44.60118" lon="0.79647">
        <ele>154.43</ele>
        <time>2014-08-15T08:00:18Z</time>
      </trkpt>
      <trkpt lat="44.60157" lon="0.79597">
        <ele>155.87</ele>
        <time>2014-08-15T08:00:34Z</time>
      </trkpt>
      <trkpt lat="44.60197" lon="0.7955">
        <ele>154.91</ele>
        <time>2014-08-15T08:00:48Z</time>
      </trkpt>
      <trkpt lat="44.60224" lon="0.79522">
        <ele>154.91</ele>
        <time>2014-08-15T08:00:58Z</time>
      </trkpt>
      <trkpt lat="44.60227" lon="0.79523">
        <ele>154.91</ele>
        <time>2014-08-15T08:00:59Z</time>
      </trkpt>
      <trkpt lat="44.60229" lon="0.79524">
        <ele>154.91</ele>
        <time>2014-08-15T08:01:00Z</time>
      </trkpt>
      <trkpt lat="44.60231" lon="0.79527">
        <ele>154.91</ele>
        <time>2014-08-15T08:01:01Z</time>
      </trkpt>
      <trkpt lat="44.60233" lon="0.79529">
        <ele>154.91</ele>
        <time>2014-08-15T08:01:02Z</time>
      </trkpt>
      <trkpt lat="44.60262" lon="0.79574">
        <ele>154.91</ele>
        <time>2014-08-15T08:01:14Z</time>
      </trkpt>
      <trkpt lat="44.60285" lon="0.79605">
        <ele>154.91</ele>
        <time>2014-08-15T08:01:21Z</time>
      </trkpt>
      <trkpt lat="44.60289" lon="0.7961">
        <ele>154.91</ele>
        <time>2014-08-15T08:01:22Z</time>
      </trkpt>
      <trkpt lat="44.6033" lon="0.79655">
        <ele>151.06</ele>
        <time>2014-08-15T08:01:33Z</time>
      </trkpt>
      <trkpt lat="44.60338" lon="0.7966">
        <ele>150.1</ele>
        <time>2014-08-15T08:01:35Z</time>
      </trkpt>
      <trkpt lat="44.6035" lon="0.79665">
        <ele>149.14</ele>
        <time>2014-08-15T08:01:37Z</time>
      </trkpt>
      <trkpt lat="44.60356" lon="0.7967">
        <ele>148.66</ele>
        <time>2014-08-15T08:01:38Z</time>
      </trkpt>
      <trkpt lat="44.60414" lon="0.79723">
        <ele>147.22</ele>
        <time>2014-08-15T08:01:51Z</time>
      </trkpt>
      <trkpt lat="44.60432" lon="0.79737">
        <ele>147.22</ele>
        <time>2014-08-15T08:01:58Z</time>
      </trkpt>
      <trkpt lat="44.60434" lon="0.79737">
        <ele>147.22</ele>
        <time>2014-08-15T08:01:59Z</time>
      </trkpt>
      <trkpt lat="44.60435" lon="0.79736">
        <ele>147.22</ele>
        <time>2014-08-15T08:02:00Z</time>
      </trkpt>
      <trkpt lat="44.60436" lon="0.79735">
        <ele>147.22</ele>
        <time>2014-08-15T08:02:01Z</time>
      </trkpt>
      <trkpt lat="44.60438" lon="0.79734">
        <ele>147.7</ele>
        <time>2014-08-15T08:02:02Z</time>
      </trkpt>
      <trkpt lat="44.60439" lon="0.79733">
        <ele>147.7</ele>
        <time>2014-08-15T08:02:03Z</time>
      </trkpt>
      <trkpt lat="44.60441" lon="0.79731">
        <ele>148.18</ele>
        <time>2014-08-15T08:02:04Z</time>
      </trkpt>
      <trkpt lat="44.60454" lon="0.79727">
        <ele>149.62</ele>
        <time>2014-08-15T08:02:13Z</time>
      </trkpt>
      <trkpt lat="44.60456" lon="0.79727">
        <ele>149.62</ele>
        <time>2014-08-15T08:02:14Z</time>
      </trkpt>
      <trkpt lat="44.60457" lon="0.79728">
        <ele>149.62</ele>
        <time>2014-08-15T08:02:15Z</time>
      </trkpt>
      <trkpt lat="44.60459" lon="0.79728">
        <ele>150.1</ele>
        <time>2014-08-15T08:02:16Z</time>
      </trkpt>
      <trkpt lat="44.6046" lon="0.79728">
        <ele>150.1</ele>
        <time>2014-08-15T08:02:17Z</time>
      </trkpt>
      <trkpt lat="44.60462" lon="0.79729">
        <ele>150.1</ele>
        <time>2014-08-15T08:02:18Z</time>
      </trkpt>
      <trkpt lat="44.60463" lon="0.7973">
        <ele>150.1</ele>
        <time>2014-08-15T08:02:19Z</time>
      </trkpt>
      <trkpt lat="44.60464" lon="0.7973">
        <ele>150.1</ele>
        <time>2014-08-15T08:02:20Z</time>
      </trkpt>
      <trkpt lat="44.60466" lon="0.79731">
        <ele>150.58</ele>
        <time>2014-08-15T08:02:21Z</time>
      </trkpt>
      <trkpt lat="44.60487" lon="0.79744">
        <ele>149.62</ele>
        <time>2014-08-15T08:02:34Z</time>
      </trkpt>
      <trkpt lat="44.6051" lon="0.79759">
        <ele>151.54</ele>
        <time>2014-08-15T08:02:49Z</time>
      </trkpt>
      <trkpt lat="44.60515" lon="0.7978">
        <ele>152.03</ele>
        <time>2014-08-15T08:03:00Z</time>
      </trkpt>
      <trkpt lat="44.60503" lon="0.7982">
        <ele>154.91</ele>
        <time>2014-08-15T08:03:13Z</time>
      </trkpt>
      <trkpt lat="44.60527" lon="0.79849">
        <ele>156.35</ele>
        <time>2014-08-15T08:03:25Z</time>
      </trkpt>
      <trkpt lat="44.60547" lon="0.79869">
        <ele>156.83</ele>
        <time>2014-08-15T08:03:37Z</time>
      </trkpt>
      <trkpt lat="44.60567" lon="0.7989">
        <ele>159.72</ele>
        <time>2014-08-15T08:03:53Z</time>
      </trkpt>
      <trkpt lat="44.60571" lon="0.79895">
        <ele>160.68</ele>
        <time>2014-08-15T08:03:57Z</time>
      </trkpt>
      <trkpt lat="44.60573" lon="0.79897">
        <ele>161.16</ele>
        <time>2014-08-15T08:03:59Z</time>
      </trkpt>
      <trkpt lat="44.60589" lon="0.79912">
        <ele>165</ele>
        <time>2014-08-15T08:04:12Z</time>
      </trkpt>
      <trkpt lat="44.60607" lon="0.79927">
        <ele>170.29</ele>
        <time>2014-08-15T08:04:28Z</time>
      </trkpt>
      <trkpt lat="44.60613" lon="0.79931">
        <ele>172.21</ele>
        <time>2014-08-15T08:04:33Z</time>
      </trkpt>
      <trkpt lat="44.60614" lon="0.79931">
        <ele>172.21</ele>
        <time>2014-08-15T08:04:34Z</time>
      </trkpt>
      <trkpt lat="44.60616" lon="0.79931">
        <ele>172.21</ele>
        <time>2014-08-15T08:04:35Z</time>
      </trkpt>
      <trkpt lat="44.60617" lon="0.7993">
        <ele>172.69</ele>
        <time>2014-08-15T08:04:36Z</time>
      </trkpt>
      <trkpt lat="44.60619" lon="0.7993">
        <ele>172.69</ele>
        <time>2014-08-15T08:04:37Z</time>
      </trkpt>
      <trkpt lat="44.60635" lon="0.79931">
        <ele>175.1</ele>
        <time>2014-08-15T08:04:48Z</time>
      </trkpt>
      <trkpt lat="44.60668" lon="0.79941">
        <ele>177.98</ele>
        <time>2014-08-15T08:05:03Z</time>
      </trkpt>
      <trkpt lat="44.60693" lon="0.7993">
        <ele>178.94</ele>
        <time>2014-08-15T08:05:12Z</time>
      </trkpt>
      <trkpt lat="44.60722" lon="0.79899">
        <ele>178.94</ele>
        <time>2014-08-15T08:05:21Z</time>
      </trkpt>
      <trkpt lat="44.60725" lon="0.79902">
        <ele>178.94</ele>
        <time>2014-08-15T08:05:22Z</time>
      </trkpt>
      <trkpt lat="44.60728" lon="0.79905">
        <ele>178.46</ele>
        <time>2014-08-15T08:05:23Z</time>
      </trkpt>
      <trkpt lat="44.60735" lon="0.79912">
        <ele>177.98</ele>
        <time>2014-08-15T08:05:25Z</time>
      </trkpt>
      <trkpt lat="44.6074" lon="0.79916">
        <ele>177.5</ele>
        <time>2014-08-15T08:05:26Z</time>
      </trkpt>
      <trkpt lat="44.60799" lon="0.79978">
        <ele>171.73</ele>
        <time>2014-08-15T08:05:37Z</time>
      </trkpt>
      <trkpt lat="44.60808" lon="0.79989">
        <ele>169.81</ele>
        <time>2014-08-15T08:05:39Z</time>
      </trkpt>
      <trkpt lat="44.60818" lon="0.80006">
        <ele>167.89</ele>
        <time>2014-08-15T08:05:42Z</time>
      </trkpt>
      <trkpt lat="44.60834" lon="0.80021">
        <ele>166.45</ele>
        <time>2014-08-15T08:05:47Z</time>
      </trkpt>
      <trkpt lat="44.60849" lon="0.8003">
        <ele>166.45</ele>
        <time>2014-08-15T08:05:51Z</time>
      </trkpt>
      <trkpt lat="44.6086" lon="0.80035">
        <ele>165.96</ele>
        <time>2014-08-15T08:05:54Z</time>
      </trkpt>
      <trkpt lat="44.60901" lon="0.80098">
        <ele>162.6</ele>
        <time>2014-08-15T08:06:03Z</time>
      </trkpt>
      <trkpt lat="44.6092" lon="0.80126">
        <ele>160.2</ele>
        <time>2014-08-15T08:06:07Z</time>
      </trkpt>
      <trkpt lat="44.6093" lon="0.80157">
        <ele>159.72</ele>
        <time>2014-08-15T08:06:11Z</time>
      </trkpt>
      <trkpt lat="44.60933" lon="0.80192">
        <ele>159.72</ele>
        <time>2014-08-15T08:06:15Z</time>
      </trkpt>
      <trkpt lat="44.60934" lon="0.8022">
        <ele>158.75</ele>
        <time>2014-08-15T08:06:18Z</time>
      </trkpt>
      <trkpt lat="44.60937" lon="0.80238">
        <ele>157.79</ele>
        <time>2014-08-15T08:06:20Z</time>
      </trkpt>
      <trkpt lat="44.6093" lon="0.80269">
        <ele>153.95</ele>
        <time>2014-08-15T08:06:27Z</time>
      </trkpt>
      <trkpt lat="44.60934" lon="0.80308">
        <ele>152.03</ele>
        <time>2014-08-15T08:06:31Z</time>
      </trkpt>
      <trkpt lat="44.60955" lon="0.80341">
        <ele>148.18</ele>
        <time>2014-08-15T08:06:37Z</time>
      </trkpt>
      <trkpt lat="44.6096" lon="0.8034">
        <ele>147.7</ele>
        <time>2014-08-15T08:06:38Z</time>
      </trkpt>
      <trkpt lat="44.60984" lon="0.80358">
        <ele>145.78</ele>
        <time>2014-08-15T08:06:47Z</time>
      </trkpt>
      <trkpt lat="44.60992" lon="0.80416">
        <ele>142.89</ele>
        <time>2014-08-15T08:07:00Z</time>
      </trkpt>
      <trkpt lat="44.60997" lon="0.80423">
        <ele>142.89</ele>
        <time>2014-08-15T08:07:04Z</time>
      </trkpt>
      <trkpt lat="44.61017" lon="0.80447">
        <ele>143.85</ele>
        <time>2014-08-15T08:07:17Z</time>
      </trkpt>
      <trkpt lat="44.61027" lon="0.80462">
        <ele>147.22</ele>
        <time>2014-08-15T08:07:27Z</time>
      </trkpt>
      <trkpt lat="44.6103" lon="0.8047">
        <ele>147.7</ele>
        <time>2014-08-15T08:07:31Z</time>
      </trkpt>
      <trkpt lat="44.61049" lon="0.80504">
        <ele>150.58</ele>
        <time>2014-08-15T08:07:45Z</time>
      </trkpt>
      <trkpt lat="44.61052" lon="0.8051">
        <ele>151.54</ele>
        <time>2014-08-15T08:07:48Z</time>
      </trkpt>
      <trkpt lat="44.61077" lon="0.80552">
        <ele>153.47</ele>
        <time>2014-08-15T08:08:03Z</time>
      </trkpt>
      <trkpt lat="44.61081" lon="0.80562">
        <ele>154.43</ele>
        <time>2014-08-15T08:08:07Z</time>
      </trkpt>
      <trkpt lat="44.611" lon="0.80592">
        <ele>156.35</ele>
        <time>2014-08-15T08:08:18Z</time>
      </trkpt>
      <trkpt lat="44.61133" lon="0.80634">
        <ele>158.75</ele>
        <time>2014-08-15T08:08:32Z</time>
      </trkpt>
      <trkpt lat="44.61182" lon="0.80687">
        <ele>156.35</ele>
        <time>2014-08-15T08:08:44Z</time>
      </trkpt>
      <trkpt lat="44.61248" lon="0.80761">
        <ele>148.66</ele>
        <time>2014-08-15T08:08:54Z</time>
      </trkpt>
      <trkpt lat="44.6128" lon="0.80789">
        <ele>144.34</ele>
        <time>2014-08-15T08:08:58Z</time>
      </trkpt>
      <trkpt lat="44.61288" lon="0.80792">
        <ele>143.37</ele>
        <time>2014-08-15T08:08:59Z</time>
      </trkpt>
      <trkpt lat="44.61296" lon="0.80793">
        <ele>142.41</ele>
        <time>2014-08-15T08:09:00Z</time>
      </trkpt>
      <trkpt lat="44.61305" lon="0.80793">
        <ele>140.97</ele>
        <time>2014-08-15T08:09:01Z</time>
      </trkpt>
      <trkpt lat="44.61313" lon="0.80789">
        <ele>140.01</ele>
        <time>2014-08-15T08:09:02Z</time>
      </trkpt>
      <trkpt lat="44.61322" lon="0.80784">
        <ele>139.05</ele>
        <time>2014-08-15T08:09:03Z</time>
      </trkpt>
      <trkpt lat="44.61365" lon="0.80752">
        <ele>135.2</ele>
        <time>2014-08-15T08:09:08Z</time>
      </trkpt>
      <trkpt lat="44.61374" lon="0.80748">
        <ele>134.72</ele>
        <time>2014-08-15T08:09:09Z</time>
      </trkpt>
      <trkpt lat="44.61384" lon="0.80745">
        <ele>133.76</ele>
        <time>2014-08-15T08:09:10Z</time>
      </trkpt>
      <trkpt lat="44.61393" lon="0.80744">
        <ele>133.28</ele>
        <time>2014-08-15T08:09:11Z</time>
      </trkpt>
      <trkpt lat="44.61403" lon="0.80745">
        <ele>132.8</ele>
        <time>2014-08-15T08:09:12Z</time>
      </trkpt>
      <trkpt lat="44.61413" lon="0.80747">
        <ele>131.84</ele>
        <time>2014-08-15T08:09:13Z</time>
      </trkpt>
      <trkpt lat="44.61423" lon="0.80751">
        <ele>131.36</ele>
        <time>2014-08-15T08:09:14Z</time>
      </trkpt>
      <trkpt lat="44.61432" lon="0.80757">
        <ele>130.88</ele>
        <time>2014-08-15T08:09:15Z</time>
      </trkpt>
      <trkpt lat="44.6144" lon="0.80764">
        <ele>129.92</ele>
        <time>2014-08-15T08:09:16Z</time>
      </trkpt>
      <trkpt lat="44.61448" lon="0.80773">
        <ele>129.43</ele>
        <time>2014-08-15T08:09:17Z</time>
      </trkpt>
      <trkpt lat="44.61456" lon="0.80782">
        <ele>128.95</ele>
        <time>2014-08-15T08:09:18Z</time>
      </trkpt>
      <trkpt lat="44.61494" lon="0.80824">
        <ele>127.99</ele>
        <time>2014-08-15T08:09:23Z</time>
      </trkpt>
      <trkpt lat="44.615" lon="0.80832">
        <ele>127.99</ele>
        <time>2014-08-15T08:09:24Z</time>
      </trkpt>
      <trkpt lat="44.61575" lon="0.80957">
        <ele>122.71</ele>
        <time>2014-08-15T08:09:37Z</time>
      </trkpt>
      <trkpt lat="44.61581" lon="0.80963">
        <ele>122.71</ele>
        <time>2014-08-15T08:09:38Z</time>
      </trkpt>
      <trkpt lat="44.6162" lon="0.80983">
        <ele>124.15</ele>
        <time>2014-08-15T08:09:45Z</time>
      </trkpt>
      <trkpt lat="44.61624" lon="0.80984">
        <ele>124.63</ele>
        <time>2014-08-15T08:09:46Z</time>
      </trkpt>
      <trkpt lat="44.61629" lon="0.80985">
        <ele>125.11</ele>
        <time>2014-08-15T08:09:47Z</time>
      </trkpt>
      <trkpt lat="44.61632" lon="0.80987">
        <ele>125.11</ele>
        <time>2014-08-15T08:09:48Z</time>
      </trkpt>
      <trkpt lat="44.61635" lon="0.80988">
        <ele>125.59</ele>
        <time>2014-08-15T08:09:49Z</time>
      </trkpt>
      <trkpt lat="44.61669" lon="0.81026">
        <ele>131.84</ele>
        <time>2014-08-15T08:10:05Z</time>
      </trkpt>
      <trkpt lat="44.61703" lon="0.81061">
        <ele>138.09</ele>
        <time>2014-08-15T08:10:22Z</time>
      </trkpt>
      <trkpt lat="44.6174" lon="0.81092">
        <ele>142.89</ele>
        <time>2014-08-15T08:10:40Z</time>
      </trkpt>
      <trkpt lat="44.61769" lon="0.81095">
        <ele>147.22</ele>
        <time>2014-08-15T08:10:55Z</time>
      </trkpt>
      <trkpt lat="44.61794" lon="0.81079">
        <ele>152.99</ele>
        <time>2014-08-15T08:11:12Z</time>
      </trkpt>
      <trkpt lat="44.61819" lon="0.81063">
        <ele>157.79</ele>
        <time>2014-08-15T08:11:27Z</time>
      </trkpt>
      <trkpt lat="44.6185" lon="0.81059">
        <ele>160.2</ele>
        <time>2014-08-15T08:11:42Z</time>
      </trkpt>
      <trkpt lat="44.61893" lon="0.8107">
        <ele>159.24</ele>
        <time>2014-08-15T08:11:56Z</time>
      </trkpt>
      <trkpt lat="44.61935" lon="0.81058">
        <ele>159.72</ele>
        <time>2014-08-15T08:12:08Z</time>
      </trkpt>
      <trkpt lat="44.6194" lon="0.81061">
        <ele>159.72</ele>
        <time>2014-08-15T08:12:10Z</time>
      </trkpt>
      <trkpt lat="44.61941" lon="0.81064">
        <ele>159.72</ele>
        <time>2014-08-15T08:12:11Z</time>
      </trkpt>
      <trkpt lat="44.6194" lon="0.81067">
        <ele>159.72</ele>
        <time>2014-08-15T08:12:12Z</time>
      </trkpt>
      <trkpt lat="44.61939" lon="0.8107">
        <ele>159.72</ele>
        <time>2014-08-15T08:12:13Z</time>
      </trkpt>
      <trkpt lat="44.61938" lon="0.81073">
        <ele>159.72</ele>
        <time>2014-08-15T08:12:14Z</time>
      </trkpt>
      <trkpt lat="44.61938" lon="0.8108">
        <ele>160.2</ele>
        <time>2014-08-15T08:12:18Z</time>
      </trkpt>
      <trkpt lat="44.6194" lon="0.81082">
        <ele>160.2</ele>
        <time>2014-08-15T08:12:19Z</time>
      </trkpt>
      <trkpt lat="44.61941" lon="0.81084">
        <ele>160.2</ele>
        <time>2014-08-15T08:12:20Z</time>
      </trkpt>
      <trkpt lat="44.61977" lon="0.8111">
        <ele>160.68</ele>
        <time>2014-08-15T08:12:33Z</time>
      </trkpt>
      <trkpt lat="44.62025" lon="0.8113">
        <ele>162.6</ele>
        <time>2014-08-15T08:12:48Z</time>
      </trkpt>
      <trkpt lat="44.62065" lon="0.81132">
        <ele>164.52</ele>
        <time>2014-08-15T08:13:01Z</time>
      </trkpt>
      <trkpt lat="44.62115" lon="0.81138">
        <ele>165</ele>
        <time>2014-08-15T08:13:16Z</time>
      </trkpt>
      <trkpt lat="44.62163" lon="0.8113">
        <ele>165.96</ele>
        <time>2014-08-15T08:13:29Z</time>
      </trkpt>
      <trkpt lat="44.62176" lon="0.81126">
        <ele>165.96</ele>
        <time>2014-08-15T08:13:32Z</time>
      </trkpt>
      <trkpt lat="44.62193" lon="0.81123">
        <ele>165.48</ele>
        <time>2014-08-15T08:13:36Z</time>
      </trkpt>
      <trkpt lat="44.62237" lon="0.81132">
        <ele>165.48</ele>
        <time>2014-08-15T08:13:46Z</time>
      </trkpt>
      <trkpt lat="44.62255" lon="0.81132">
        <ele>165.48</ele>
        <time>2014-08-15T08:13:50Z</time>
      </trkpt>
      <trkpt lat="44.62279" lon="0.81133">
        <ele>165.48</ele>
        <time>2014-08-15T08:13:55Z</time>
      </trkpt>
      <trkpt lat="44.62288" lon="0.81135">
        <ele>165.96</ele>
        <time>2014-08-15T08:13:57Z</time>
      </trkpt>
      <trkpt lat="44.62337" lon="0.81143">
        <ele>166.93</ele>
        <time>2014-08-15T08:14:08Z</time>
      </trkpt>
      <trkpt lat="44.62364" lon="0.81145">
        <ele>167.41</ele>
        <time>2014-08-15T08:14:14Z</time>
      </trkpt>
      <trkpt lat="44.62373" lon="0.81147">
        <ele>167.89</ele>
        <time>2014-08-15T08:14:16Z</time>
      </trkpt>
      <trkpt lat="44.62418" lon="0.81154">
        <ele>167.89</ele>
        <time>2014-08-15T08:14:27Z</time>
      </trkpt>
      <trkpt lat="44.6244" lon="0.81153">
        <ele>166.93</ele>
        <time>2014-08-15T08:14:32Z</time>
      </trkpt>
      <trkpt lat="44.62451" lon="0.8115">
        <ele>166.45</ele>
        <time>2014-08-15T08:14:35Z</time>
      </trkpt>
      <trkpt lat="44.62453" lon="0.81153">
        <ele>165.96</ele>
        <time>2014-08-15T08:14:36Z</time>
      </trkpt>
      <trkpt lat="44.62456" lon="0.81156">
        <ele>165.96</ele>
        <time>2014-08-15T08:14:37Z</time>
      </trkpt>
      <trkpt lat="44.62458" lon="0.8116">
        <ele>165.96</ele>
        <time>2014-08-15T08:14:38Z</time>
      </trkpt>
      <trkpt lat="44.62473" lon="0.81243">
        <ele>165.48</ele>
        <time>2014-08-15T08:14:50Z</time>
      </trkpt>
      <trkpt lat="44.62515" lon="0.81325">
        <ele>164.04</ele>
        <time>2014-08-15T08:15:03Z</time>
      </trkpt>
      <trkpt lat="44.62546" lon="0.81379">
        <ele>162.6</ele>
        <time>2014-08-15T08:15:12Z</time>
      </trkpt>
      <trkpt lat="44.62583" lon="0.8143">
        <ele>162.6</ele>
        <time>2014-08-15T08:15:21Z</time>
      </trkpt>
      <trkpt lat="44.62634" lon="0.81509">
        <ele>164.04</ele>
        <time>2014-08-15T08:15:35Z</time>
      </trkpt>
      <trkpt lat="44.62671" lon="0.81616">
        <ele>165</ele>
        <time>2014-08-15T08:15:50Z</time>
      </trkpt>
      <trkpt lat="44.62696" lon="0.81688">
        <ele>165</ele>
        <time>2014-08-15T08:16:00Z</time>
      </trkpt>
      <trkpt lat="44.62749" lon="0.81773">
        <ele>161.16</ele>
        <time>2014-08-15T08:16:13Z</time>
      </trkpt>
      <trkpt lat="44.62837" lon="0.81879">
        <ele>159.72</ele>
        <time>2014-08-15T08:16:29Z</time>
      </trkpt>
      <trkpt lat="44.6291" lon="0.81995">
        <ele>158.75</ele>
        <time>2014-08-15T08:16:44Z</time>
      </trkpt>
      <trkpt lat="44.6298" lon="0.82127">
        <ele>159.24</ele>
        <time>2014-08-15T08:17:01Z</time>
      </trkpt>
      <trkpt lat="44.63035" lon="0.8225">
        <ele>161.16</ele>
        <time>2014-08-15T08:17:18Z</time>
      </trkpt>
      <trkpt lat="44.63062" lon="0.82331">
        <ele>162.6</ele>
        <time>2014-08-15T08:17:30Z</time>
      </trkpt>
      <trkpt lat="44.63066" lon="0.82349">
        <ele>163.56</ele>
        <time>2014-08-15T08:17:33Z</time>
      </trkpt>
      <trkpt lat="44.6309" lon="0.82438">
        <ele>164.04</ele>
        <time>2014-08-15T08:17:47Z</time>
      </trkpt>
      <trkpt lat="44.63117" lon="0.82523">
        <ele>165</ele>
        <time>2014-08-15T08:18:01Z</time>
      </trkpt>
      <trkpt lat="44.63157" lon="0.82609">
        <ele>165.48</ele>
        <time>2014-08-15T08:18:15Z</time>
      </trkpt>
      <trkpt lat="44.632" lon="0.82679">
        <ele>167.41</ele>
        <time>2014-08-15T08:18:27Z</time>
      </trkpt>
      <trkpt lat="44.63251" lon="0.82748">
        <ele>168.37</ele>
        <time>2014-08-15T08:18:40Z</time>
      </trkpt>
      <trkpt lat="44.63304" lon="0.82819">
        <ele>169.33</ele>
        <time>2014-08-15T08:18:54Z</time>
      </trkpt>
      <trkpt lat="44.63355" lon="0.829">
        <ele>169.33</ele>
        <time>2014-08-15T08:19:08Z</time>
      </trkpt>
      <trkpt lat="44.63385" lon="0.8296">
        <ele>170.29</ele>
        <time>2014-08-15T08:19:18Z</time>
      </trkpt>
      <trkpt lat="44.63385" lon="0.82966">
        <ele>170.29</ele>
        <time>2014-08-15T08:19:19Z</time>
      </trkpt>
      <trkpt lat="44.63384" lon="0.82971">
        <ele>170.29</ele>
        <time>2014-08-15T08:19:20Z</time>
      </trkpt>
      <trkpt lat="44.63378" lon="0.82977">
        <ele>169.81</ele>
        <time>2014-08-15T08:19:22Z</time>
      </trkpt>
      <trkpt lat="44.63337" lon="0.83011">
        <ele>168.85</ele>
        <time>2014-08-15T08:19:32Z</time>
      </trkpt>
      <trkpt lat="44.6333" lon="0.83039">
        <ele>167.89</ele>
        <time>2014-08-15T08:19:38Z</time>
      </trkpt>
      <trkpt lat="44.63344" lon="0.83088">
        <ele>167.41</ele>
        <time>2014-08-15T08:19:47Z</time>
      </trkpt>
      <trkpt lat="44.63341" lon="0.83104">
        <ele>166.45</ele>
        <time>2014-08-15T08:19:56Z</time>
      </trkpt>
      <trkpt lat="44.63326" lon="0.83122">
        <ele>165</ele>
        <time>2014-08-15T08:20:05Z</time>
      </trkpt>
      <trkpt lat="44.63318" lon="0.83129">
        <ele>165</ele>
        <time>2014-08-15T08:20:07Z</time>
      </trkpt>
      <trkpt lat="44.63304" lon="0.83149">
        <ele>164.04</ele>
        <time>2014-08-15T08:20:11Z</time>
      </trkpt>
      <trkpt lat="44.63284" lon="0.83181">
        <ele>162.12</ele>
        <time>2014-08-15T08:20:16Z</time>
      </trkpt>
      <trkpt lat="44.6327" lon="0.83191">
        <ele>161.16</ele>
        <time>2014-08-15T08:20:20Z</time>
      </trkpt>
      <trkpt lat="44.63233" lon="0.83204">
        <ele>157.79</ele>
        <time>2014-08-15T08:20:31Z</time>
      </trkpt>
      <trkpt lat="44.63168" lon="0.83254">
        <ele>153.47</ele>
        <time>2014-08-15T08:20:46Z</time>
      </trkpt>
      <trkpt lat="44.63129" lon="0.83311">
        <ele>151.54</ele>
        <time>2014-08-15T08:20:57Z</time>
      </trkpt>
      <trkpt lat="44.63105" lon="0.83378">
        <ele>152.03</ele>
        <time>2014-08-15T08:21:10Z</time>
      </trkpt>
      <trkpt lat="44.63088" lon="0.8343">
        <ele>155.39</ele>
        <time>2014-08-15T08:21:22Z</time>
      </trkpt>
      <trkpt lat="44.63065" lon="0.83527">
        <ele>154.91</ele>
        <time>2014-08-15T08:21:36Z</time>
      </trkpt>
      <trkpt lat="44.63057" lon="0.83627">
        <ele>154.43</ele>
        <time>2014-08-15T08:21:49Z</time>
      </trkpt>
      <trkpt lat="44.6305" lon="0.83757">
        <ele>148.66</ele>
        <time>2014-08-15T08:22:01Z</time>
      </trkpt>
      <trkpt lat="44.63043" lon="0.8381">
        <ele>146.74</ele>
        <time>2014-08-15T08:22:05Z</time>
      </trkpt>
      <trkpt lat="44.63039" lon="0.83821">
        <ele>146.26</ele>
        <time>2014-08-15T08:22:06Z</time>
      </trkpt>
      <trkpt lat="44.63035" lon="0.8383">
        <ele>145.78</ele>
        <time>2014-08-15T08:22:07Z</time>
      </trkpt>
      <trkpt lat="44.6303" lon="0.83839">
        <ele>145.78</ele>
        <time>2014-08-15T08:22:08Z</time>
      </trkpt>
      <trkpt lat="44.63025" lon="0.83847">
        <ele>145.78</ele>
        <time>2014-08-15T08:22:09Z</time>
      </trkpt>
      <trkpt lat="44.6302" lon="0.83854">
        <ele>145.78</ele>
        <time>2014-08-15T08:22:10Z</time>
      </trkpt>
      <trkpt lat="44.63017" lon="0.83862">
        <ele>146.26</ele>
        <time>2014-08-15T08:22:11Z</time>
      </trkpt>
      <trkpt lat="44.63015" lon="0.83869">
        <ele>146.74</ele>
        <time>2014-08-15T08:22:12Z</time>
      </trkpt>
      <trkpt lat="44.63014" lon="0.83877">
        <ele>147.22</ele>
        <time>2014-08-15T08:22:13Z</time>
      </trkpt>
      <trkpt lat="44.63013" lon="0.83884">
        <ele>147.7</ele>
        <time>2014-08-15T08:22:14Z</time>
      </trkpt>
      <trkpt lat="44.63013" lon="0.83891">
        <ele>148.18</ele>
        <time>2014-08-15T08:22:15Z</time>
      </trkpt>
      <trkpt lat="44.63013" lon="0.83919">
        <ele>149.62</ele>
        <time>2014-08-15T08:22:19Z</time>
      </trkpt>
      <trkpt lat="44.63005" lon="0.83999">
        <ele>149.62</ele>
        <time>2014-08-15T08:22:29Z</time>
      </trkpt>
      <trkpt lat="44.63004" lon="0.84009">
        <ele>150.1</ele>
        <time>2014-08-15T08:22:31Z</time>
      </trkpt>
      <trkpt lat="44.63003" lon="0.84015">
        <ele>150.1</ele>
        <time>2014-08-15T08:22:32Z</time>
      </trkpt>
      <trkpt lat="44.62992" lon="0.84068">
        <ele>151.06</ele>
        <time>2014-08-15T08:22:42Z</time>
      </trkpt>
      <trkpt lat="44.62989" lon="0.8407">
        <ele>150.58</ele>
        <time>2014-08-15T08:22:43Z</time>
      </trkpt>
      <trkpt lat="44.62985" lon="0.8407">
        <ele>150.58</ele>
        <time>2014-08-15T08:22:44Z</time>
      </trkpt>
      <trkpt lat="44.62924" lon="0.84058">
        <ele>145.78</ele>
        <time>2014-08-15T08:22:53Z</time>
      </trkpt>
      <trkpt lat="44.62815" lon="0.84026">
        <ele>141.45</ele>
        <time>2014-08-15T08:23:05Z</time>
      </trkpt>
      <trkpt lat="44.62754" lon="0.84008">
        <ele>146.26</ele>
        <time>2014-08-15T08:23:16Z</time>
      </trkpt>
      <trkpt lat="44.62705" lon="0.84008">
        <ele>152.51</ele>
        <time>2014-08-15T08:23:29Z</time>
      </trkpt>
      <trkpt lat="44.62702" lon="0.84011">
        <ele>152.99</ele>
        <time>2014-08-15T08:23:30Z</time>
      </trkpt>
      <trkpt lat="44.627" lon="0.84016">
        <ele>152.99</ele>
        <time>2014-08-15T08:23:31Z</time>
      </trkpt>
      <trkpt lat="44.627" lon="0.84021">
        <ele>153.47</ele>
        <time>2014-08-15T08:23:32Z</time>
      </trkpt>
      <trkpt lat="44.627" lon="0.84029">
        <ele>154.91</ele>
        <time>2014-08-15T08:23:34Z</time>
      </trkpt>
      <trkpt lat="44.62697" lon="0.84096">
        <ele>156.35</ele>
        <time>2014-08-15T08:23:48Z</time>
      </trkpt>
      <trkpt lat="44.62684" lon="0.84158">
        <ele>154.91</ele>
        <time>2014-08-15T08:24:01Z</time>
      </trkpt>
      <trkpt lat="44.62661" lon="0.8422">
        <ele>153.95</ele>
        <time>2014-08-15T08:24:14Z</time>
      </trkpt>
      <trkpt lat="44.62651" lon="0.84271">
        <ele>153.47</ele>
        <time>2014-08-15T08:24:23Z</time>
      </trkpt>
      <trkpt lat="44.62662" lon="0.84321">
        <ele>151.54</ele>
        <time>2014-08-15T08:24:33Z</time>
      </trkpt>
      <trkpt lat="44.62668" lon="0.84349">
        <ele>151.54</ele>
        <time>2014-08-15T08:24:39Z</time>
      </trkpt>
      <trkpt lat="44.62662" lon="0.84381">
        <ele>150.58</ele>
        <time>2014-08-15T08:24:45Z</time>
      </trkpt>
      <trkpt lat="44.6266" lon="0.84405">
        <ele>150.1</ele>
        <time>2014-08-15T08:24:49Z</time>
      </trkpt>
      <trkpt lat="44.62648" lon="0.84462">
        <ele>152.03</ele>
        <time>2014-08-15T08:25:00Z</time>
      </trkpt>
      <trkpt lat="44.62647" lon="0.8451">
        <ele>155.87</ele>
        <time>2014-08-15T08:25:11Z</time>
      </trkpt>
      <trkpt lat="44.62635" lon="0.84561">
        <ele>161.64</ele>
        <time>2014-08-15T08:25:24Z</time>
      </trkpt>
      <trkpt lat="44.62623" lon="0.84606">
        <ele>161.64</ele>
        <time>2014-08-15T08:25:34Z</time>
      </trkpt>
      <trkpt lat="44.62622" lon="0.84649">
        <ele>162.12</ele>
        <time>2014-08-15T08:25:44Z</time>
      </trkpt>
      <trkpt lat="44.62614" lon="0.847">
        <ele>163.56</ele>
        <time>2014-08-15T08:25:58Z</time>
      </trkpt>
      <trkpt lat="44.62611" lon="0.84731">
        <ele>163.08</ele>
        <time>2014-08-15T08:26:03Z</time>
      </trkpt>
      <trkpt lat="44.62608" lon="0.84792">
        <ele>161.64</ele>
        <time>2014-08-15T08:26:15Z</time>
      </trkpt>
      <trkpt lat="44.62621" lon="0.84837">
        <ele>161.16</ele>
        <time>2014-08-15T08:26:24Z</time>
      </trkpt>
      <trkpt lat="44.62626" lon="0.84879">
        <ele>163.08</ele>
        <time>2014-08-15T08:26:36Z</time>
      </trkpt>
      <trkpt lat="44.6263" lon="0.8489">
        <ele>163.08</ele>
        <time>2014-08-15T08:26:40Z</time>
      </trkpt>
      <trkpt lat="44.62643" lon="0.84947">
        <ele>162.6</ele>
        <time>2014-08-15T08:26:52Z</time>
      </trkpt>
      <trkpt lat="44.62641" lon="0.85005">
        <ele>165</ele>
        <time>2014-08-15T08:27:04Z</time>
      </trkpt>
      <trkpt lat="44.62641" lon="0.85061">
        <ele>167.41</ele>
        <time>2014-08-15T08:27:16Z</time>
      </trkpt>
      <trkpt lat="44.62635" lon="0.8511">
        <ele>165.96</ele>
        <time>2014-08-15T08:27:27Z</time>
      </trkpt>
      <trkpt lat="44.62633" lon="0.85115">
        <ele>166.45</ele>
        <time>2014-08-15T08:27:28Z</time>
      </trkpt>
      <trkpt lat="44.62627" lon="0.85136">
        <ele>166.45</ele>
        <time>2014-08-15T08:27:32Z</time>
      </trkpt>
      <trkpt lat="44.62623" lon="0.85152">
        <ele>166.45</ele>
        <time>2014-08-15T08:27:35Z</time>
      </trkpt>
      <trkpt lat="44.62618" lon="0.85176">
        <ele>166.45</ele>
        <time>2014-08-15T08:27:39Z</time>
      </trkpt>
      <trkpt lat="44.62595" lon="0.85226">
        <ele>166.93</ele>
        <time>2014-08-15T08:27:50Z</time>
      </trkpt>
      <trkpt lat="44.62583" lon="0.85247">
        <ele>167.89</ele>
        <time>2014-08-15T08:27:55Z</time>
      </trkpt>
      <trkpt lat="44.62569" lon="0.85256">
        <ele>168.37</ele>
        <time>2014-08-15T08:27:59Z</time>
      </trkpt>
      <trkpt lat="44.62531" lon="0.85271">
        <ele>167.89</ele>
        <time>2014-08-15T08:28:08Z</time>
      </trkpt>
      <trkpt lat="44.62513" lon="0.85335">
        <ele>165.48</ele>
        <time>2014-08-15T08:28:17Z</time>
      </trkpt>
      <trkpt lat="44.6252" lon="0.85376">
        <ele>161.16</ele>
        <time>2014-08-15T08:28:23Z</time>
      </trkpt>
      <trkpt lat="44.62544" lon="0.85399">
        <ele>155.87</ele>
        <time>2014-08-15T08:28:30Z</time>
      </trkpt>
      <trkpt lat="44.62549" lon="0.85422">
        <ele>152.03</ele>
        <time>2014-08-15T08:28:35Z</time>
      </trkpt>
      <trkpt lat="44.62533" lon="0.85456">
        <ele>143.85</ele>
        <time>2014-08-15T08:28:47Z</time>
      </trkpt>
      <trkpt lat="44.62517" lon="0.85482">
        <ele>138.57</ele>
        <time>2014-08-15T08:28:58Z</time>
      </trkpt>
      <trkpt lat="44.62512" lon="0.85484">
        <ele>138.09</ele>
        <time>2014-08-15T08:29:00Z</time>
      </trkpt>
      <trkpt lat="44.62503" lon="0.85494">
        <ele>136.16</ele>
        <time>2014-08-15T08:29:04Z</time>
      </trkpt>
      <trkpt lat="44.62492" lon="0.85503">
        <ele>132.32</ele>
        <time>2014-08-15T08:29:10Z</time>
      </trkpt>
      <trkpt lat="44.6249" lon="0.85529">
        <ele>126.07</ele>
        <time>2014-08-15T08:29:19Z</time>
      </trkpt>
      <trkpt lat="44.62487" lon="0.85544">
        <ele>124.15</ele>
        <time>2014-08-15T08:29:22Z</time>
      </trkpt>
      <trkpt lat="44.62485" lon="0.85558">
        <ele>123.19</ele>
        <time>2014-08-15T08:29:24Z</time>
      </trkpt>
      <trkpt lat="44.62491" lon="0.85585">
        <ele>119.34</ele>
        <time>2014-08-15T08:29:29Z</time>
      </trkpt>
      <trkpt lat="44.62485" lon="0.85618">
        <ele>124.15</ele>
        <time>2014-08-15T08:29:37Z</time>
      </trkpt>
      <trkpt lat="44.62467" lon="0.85628">
        <ele>127.03</ele>
        <time>2014-08-15T08:29:50Z</time>
      </trkpt>
      <trkpt lat="44.62457" lon="0.85633">
        <ele>133.28</ele>
        <time>2014-08-15T08:30:05Z</time>
      </trkpt>
      <trkpt lat="44.62452" lon="0.85636">
        <ele>135.68</ele>
        <time>2014-08-15T08:30:14Z</time>
      </trkpt>
      <trkpt lat="44.62447" lon="0.8563">
        <ele>137.13</ele>
        <time>2014-08-15T08:30:19Z</time>
      </trkpt>
      <trkpt lat="44.62438" lon="0.85655">
        <ele>138.09</ele>
        <time>2014-08-15T08:30:29Z</time>
      </trkpt>
      <trkpt lat="44.6241" lon="0.85688">
        <ele>136.16</ele>
        <time>2014-08-15T08:30:39Z</time>
      </trkpt>
      <trkpt lat="44.624" lon="0.85702">
        <ele>136.64</ele>
        <time>2014-08-15T08:30:43Z</time>
      </trkpt>
      <trkpt lat="44.62376" lon="0.85733">
        <ele>146.74</ele>
        <time>2014-08-15T08:30:51Z</time>
      </trkpt>
      <trkpt lat="44.6236" lon="0.85736">
        <ele>148.66</ele>
        <time>2014-08-15T08:30:58Z</time>
      </trkpt>
      <trkpt lat="44.62339" lon="0.85719">
        <ele>152.99</ele>
        <time>2014-08-15T08:31:12Z</time>
      </trkpt>
      <trkpt lat="44.62313" lon="0.85664">
        <ele>154.91</ele>
        <time>2014-08-15T08:31:28Z</time>
      </trkpt>
      <trkpt lat="44.62312" lon="0.85658">
        <ele>154.91</ele>
        <time>2014-08-15T08:31:29Z</time>
      </trkpt>
      <trkpt lat="44.6231" lon="0.85632">
        <ele>155.87</ele>
        <time>2014-08-15T08:31:33Z</time>
      </trkpt>
      <trkpt lat="44.62305" lon="0.85588">
        <ele>157.31</ele>
        <time>2014-08-15T08:31:38Z</time>
      </trkpt>
      <trkpt lat="44.62298" lon="0.85537">
        <ele>158.27</ele>
        <time>2014-08-15T08:31:44Z</time>
      </trkpt>
      <trkpt lat="44.62303" lon="0.85502">
        <ele>158.75</ele>
        <time>2014-08-15T08:31:50Z</time>
      </trkpt>
      <trkpt lat="44.62301" lon="0.85498">
        <ele>158.27</ele>
        <time>2014-08-15T08:31:52Z</time>
      </trkpt>
      <trkpt lat="44.62276" lon="0.85485">
        <ele>159.24</ele>
        <time>2014-08-15T08:32:05Z</time>
      </trkpt>
      <trkpt lat="44.62246" lon="0.85462">
        <ele>161.16</ele>
        <time>2014-08-15T08:32:19Z</time>
      </trkpt>
      <trkpt lat="44.62225" lon="0.85441">
        <ele>164.04</ele>
        <time>2014-08-15T08:32:28Z</time>
      </trkpt>
      <trkpt lat="44.62218" lon="0.85431">
        <ele>164.04</ele>
        <time>2014-08-15T08:32:30Z</time>
      </trkpt>
      <trkpt lat="44.62192" lon="0.8541">
        <ele>162.12</ele>
        <time>2014-08-15T08:32:34Z</time>
      </trkpt>
      <trkpt lat="44.62143" lon="0.85348">
        <ele>154.43</ele>
        <time>2014-08-15T08:32:46Z</time>
      </trkpt>
      <trkpt lat="44.62121" lon="0.8529">
        <ele>153.47</ele>
        <time>2014-08-15T08:32:56Z</time>
      </trkpt>
      <trkpt lat="44.62119" lon="0.85288">
        <ele>153.47</ele>
        <time>2014-08-15T08:32:57Z</time>
      </trkpt>
      <trkpt lat="44.62096" lon="0.85257">
        <ele>156.83</ele>
        <time>2014-08-15T08:33:09Z</time>
      </trkpt>
      <trkpt lat="44.62071" lon="0.85224">
        <ele>160.2</ele>
        <time>2014-08-15T08:33:23Z</time>
      </trkpt>
      <trkpt lat="44.6206" lon="0.8521">
        <ele>161.16</ele>
        <time>2014-08-15T08:33:31Z</time>
      </trkpt>
      <trkpt lat="44.62022" lon="0.85193">
        <ele>159.72</ele>
        <time>2014-08-15T08:33:43Z</time>
      </trkpt>
      <trkpt lat="44.61994" lon="0.85215">
        <ele>160.2</ele>
        <time>2014-08-15T08:33:52Z</time>
      </trkpt>
      <trkpt lat="44.61967" lon="0.8525">
        <ele>157.31</ele>
        <time>2014-08-15T08:34:04Z</time>
      </trkpt>
      <trkpt lat="44.61942" lon="0.85282">
        <ele>154.43</ele>
        <time>2014-08-15T08:34:14Z</time>
      </trkpt>
      <trkpt lat="44.6194" lon="0.85286">
        <ele>154.43</ele>
        <time>2014-08-15T08:34:15Z</time>
      </trkpt>
      <trkpt lat="44.61934" lon="0.85295">
        <ele>153.95</ele>
        <time>2014-08-15T08:34:17Z</time>
      </trkpt>
      <trkpt lat="44.61926" lon="0.85303">
        <ele>153.95</ele>
        <time>2014-08-15T08:34:19Z</time>
      </trkpt>
      <trkpt lat="44.6192" lon="0.85311">
        <ele>154.43</ele>
        <time>2014-08-15T08:34:21Z</time>
      </trkpt>
      <trkpt lat="44.61908" lon="0.85336">
        <ele>154.91</ele>
        <time>2014-08-15T08:34:25Z</time>
      </trkpt>
      <trkpt lat="44.61891" lon="0.8538">
        <ele>154.91</ele>
        <time>2014-08-15T08:34:34Z</time>
      </trkpt>
      <trkpt lat="44.6187" lon="0.85443">
        <ele>153.95</ele>
        <time>2014-08-15T08:34:41Z</time>
      </trkpt>
      <trkpt lat="44.61838" lon="0.85463">
        <ele>153.47</ele>
        <time>2014-08-15T08:34:50Z</time>
      </trkpt>
      <trkpt lat="44.61803" lon="0.85481">
        <ele>150.58</ele>
        <time>2014-08-15T08:34:59Z</time>
      </trkpt>
      <trkpt lat="44.61747" lon="0.85495">
        <ele>150.1</ele>
        <time>2014-08-15T08:35:13Z</time>
      </trkpt>
      <trkpt lat="44.61737" lon="0.85531">
        <ele>151.06</ele>
        <time>2014-08-15T08:35:23Z</time>
      </trkpt>
      <trkpt lat="44.6173" lon="0.85559">
        <ele>151.54</ele>
        <time>2014-08-15T08:35:34Z</time>
      </trkpt>
      <trkpt lat="44.61725" lon="0.85569">
        <ele>150.1</ele>
        <time>2014-08-15T08:35:41Z</time>
      </trkpt>
      <trkpt lat="44.61721" lon="0.85572">
        <ele>150.58</ele>
        <time>2014-08-15T08:35:44Z</time>
      </trkpt>
      <trkpt lat="44.61718" lon="0.85582">
        <ele>151.06</ele>
        <time>2014-08-15T08:35:50Z</time>
      </trkpt>
      <trkpt lat="44.61717" lon="0.85588">
        <ele>152.03</ele>
        <time>2014-08-15T08:35:53Z</time>
      </trkpt>
      <trkpt lat="44.61714" lon="0.85609">
        <ele>150.58</ele>
        <time>2014-08-15T08:36:07Z</time>
      </trkpt>
      <trkpt lat="44.61711" lon="0.85616">
        <ele>150.1</ele>
        <time>2014-08-15T08:36:12Z</time>
      </trkpt>
      <trkpt lat="44.6171" lon="0.85618">
        <ele>150.58</ele>
        <time>2014-08-15T08:36:13Z</time>
      </trkpt>
      <trkpt lat="44.6171" lon="0.8562">
        <ele>150.58</ele>
        <time>2014-08-15T08:36:14Z</time>
      </trkpt>
      <trkpt lat="44.6171" lon="0.85622">
        <ele>150.58</ele>
        <time>2014-08-15T08:36:15Z</time>
      </trkpt>
      <trkpt lat="44.6171" lon="0.85624">
        <ele>150.58</ele>
        <time>2014-08-15T08:36:16Z</time>
      </trkpt>
      <trkpt lat="44.61709" lon="0.85626">
        <ele>150.58</ele>
        <time>2014-08-15T08:36:17Z</time>
      </trkpt>
      <trkpt lat="44.61709" lon="0.85638">
        <ele>153.47</ele>
        <time>2014-08-15T08:36:29Z</time>
      </trkpt>
      <trkpt lat="44.61705" lon="0.85644">
        <ele>156.83</ele>
        <time>2014-08-15T08:36:34Z</time>
      </trkpt>
      <trkpt lat="44.61698" lon="0.85658">
        <ele>162.6</ele>
        <time>2014-08-15T08:36:47Z</time>
      </trkpt>
      <trkpt lat="44.61691" lon="0.85673">
        <ele>168.85</ele>
        <time>2014-08-15T08:36:59Z</time>
      </trkpt>
      <trkpt lat="44.61686" lon="0.85691">
        <ele>168.37</ele>
        <time>2014-08-15T08:37:10Z</time>
      </trkpt>
      <trkpt lat="44.61682" lon="0.85707">
        <ele>167.89</ele>
        <time>2014-08-15T08:37:22Z</time>
      </trkpt>
      <trkpt lat="44.61679" lon="0.85727">
        <ele>165</ele>
        <time>2014-08-15T08:37:30Z</time>
      </trkpt>
      <trkpt lat="44.61679" lon="0.85729">
        <ele>164.52</ele>
        <time>2014-08-15T08:37:31Z</time>
      </trkpt>
      <trkpt lat="44.61679" lon="0.85732">
        <ele>164.04</ele>
        <time>2014-08-15T08:37:32Z</time>
      </trkpt>
      <trkpt lat="44.61678" lon="0.85734">
        <ele>163.56</ele>
        <time>2014-08-15T08:37:33Z</time>
      </trkpt>
      <trkpt lat="44.61678" lon="0.85736">
        <ele>163.56</ele>
        <time>2014-08-15T08:37:34Z</time>
      </trkpt>
      <trkpt lat="44.61677" lon="0.85739">
        <ele>163.08</ele>
        <time>2014-08-15T08:37:35Z</time>
      </trkpt>
      <trkpt lat="44.61677" lon="0.85742">
        <ele>163.56</ele>
        <time>2014-08-15T08:37:36Z</time>
      </trkpt>
      <trkpt lat="44.61676" lon="0.85745">
        <ele>164.04</ele>
        <time>2014-08-15T08:37:37Z</time>
      </trkpt>
      <trkpt lat="44.61674" lon="0.85748">
        <ele>164.52</ele>
        <time>2014-08-15T08:37:38Z</time>
      </trkpt>
      <trkpt lat="44.61673" lon="0.8575">
        <ele>164.52</ele>
        <time>2014-08-15T08:37:39Z</time>
      </trkpt>
      <trkpt lat="44.61672" lon="0.85753">
        <ele>165</ele>
        <time>2014-08-15T08:37:40Z</time>
      </trkpt>
      <trkpt lat="44.61672" lon="0.85756">
        <ele>165.48</ele>
        <time>2014-08-15T08:37:41Z</time>
      </trkpt>
      <trkpt lat="44.61672" lon="0.85759">
        <ele>165.48</ele>
        <time>2014-08-15T08:37:42Z</time>
      </trkpt>
      <trkpt lat="44.61671" lon="0.85762">
        <ele>165.48</ele>
        <time>2014-08-15T08:37:43Z</time>
      </trkpt>
      <trkpt lat="44.6167" lon="0.85765">
        <ele>165.48</ele>
        <time>2014-08-15T08:37:44Z</time>
      </trkpt>
      <trkpt lat="44.61669" lon="0.85769">
        <ele>165.48</ele>
        <time>2014-08-15T08:37:45Z</time>
      </trkpt>
      <trkpt lat="44.61666" lon="0.85806">
        <ele>162.6</ele>
        <time>2014-08-15T08:37:57Z</time>
      </trkpt>
      <trkpt lat="44.61664" lon="0.85866">
        <ele>163.08</ele>
        <time>2014-08-15T08:38:11Z</time>
      </trkpt>
      <trkpt lat="44.61676" lon="0.85895">
        <ele>165</ele>
        <time>2014-08-15T08:38:19Z</time>
      </trkpt>
      <trkpt lat="44.61698" lon="0.85937">
        <ele>166.45</ele>
        <time>2014-08-15T08:38:30Z</time>
      </trkpt>
      <trkpt lat="44.61716" lon="0.85969">
        <ele>165.96</ele>
        <time>2014-08-15T08:38:39Z</time>
      </trkpt>
      <trkpt lat="44.61732" lon="0.86017">
        <ele>165.96</ele>
        <time>2014-08-15T08:38:48Z</time>
      </trkpt>
      <trkpt lat="44.61746" lon="0.86074">
        <ele>165.48</ele>
        <time>2014-08-15T08:38:55Z</time>
      </trkpt>
      <trkpt lat="44.61748" lon="0.86081">
        <ele>165.48</ele>
        <time>2014-08-15T08:38:56Z</time>
      </trkpt>
      <trkpt lat="44.61763" lon="0.86135">
        <ele>166.93</ele>
        <time>2014-08-15T08:39:08Z</time>
      </trkpt>
      <trkpt lat="44.6178" lon="0.86172">
        <ele>172.69</ele>
        <time>2014-08-15T08:39:21Z</time>
      </trkpt>
      <trkpt lat="44.61794" lon="0.86207">
        <ele>176.54</ele>
        <time>2014-08-15T08:39:35Z</time>
      </trkpt>
      <trkpt lat="44.61815" lon="0.86245">
        <ele>177.02</ele>
        <time>2014-08-15T08:39:48Z</time>
      </trkpt>
      <trkpt lat="44.61834" lon="0.86264">
        <ele>177.98</ele>
        <time>2014-08-15T08:39:55Z</time>
      </trkpt>
      <trkpt lat="44.61847" lon="0.86269">
        <ele>177.98</ele>
        <time>2014-08-15T08:39:58Z</time>
      </trkpt>
      <trkpt lat="44.61856" lon="0.86275">
        <ele>177.98</ele>
        <time>2014-08-15T08:40:00Z</time>
      </trkpt>
      <trkpt lat="44.61865" lon="0.86281">
        <ele>178.46</ele>
        <time>2014-08-15T08:40:02Z</time>
      </trkpt>
      <trkpt lat="44.61876" lon="0.86293">
        <ele>178.46</ele>
        <time>2014-08-15T08:40:05Z</time>
      </trkpt>
      <trkpt lat="44.61885" lon="0.86319">
        <ele>179.9</ele>
        <time>2014-08-15T08:40:10Z</time>
      </trkpt>
      <trkpt lat="44.61884" lon="0.86391">
        <ele>179.42</ele>
        <time>2014-08-15T08:40:25Z</time>
      </trkpt>
      <trkpt lat="44.61891" lon="0.86418">
        <ele>180.38</ele>
        <time>2014-08-15T08:40:31Z</time>
      </trkpt>
      <trkpt lat="44.6189" lon="0.86447">
        <ele>179.42</ele>
        <time>2014-08-15T08:40:36Z</time>
      </trkpt>
      <trkpt lat="44.61891" lon="0.86527">
        <ele>176.06</ele>
        <time>2014-08-15T08:40:51Z</time>
      </trkpt>
      <trkpt lat="44.6189" lon="0.86558">
        <ele>179.42</ele>
        <time>2014-08-15T08:41:03Z</time>
      </trkpt>
      <trkpt lat="44.6189" lon="0.8656">
        <ele>180.87</ele>
        <time>2014-08-15T08:41:13Z</time>
      </trkpt>
      <trkpt lat="44.61889" lon="0.86561">
        <ele>181.83</ele>
        <time>2014-08-15T08:41:29Z</time>
      </trkpt>
      <trkpt lat="44.6189" lon="0.8656">
        <ele>182.79</ele>
        <time>2014-08-15T08:41:46Z</time>
      </trkpt>
      <trkpt lat="44.6189" lon="0.86562">
        <ele>183.75</ele>
        <time>2014-08-15T08:42:11Z</time>
      </trkpt>
      <trkpt lat="44.61889" lon="0.86561">
        <ele>184.71</ele>
        <time>2014-08-15T08:42:31Z</time>
      </trkpt>
      <trkpt lat="44.61883" lon="0.86573">
        <ele>185.19</ele>
        <time>2014-08-15T08:42:38Z</time>
      </trkpt>
      <trkpt lat="44.61867" lon="0.86608">
        <ele>184.71</ele>
        <time>2014-08-15T08:42:50Z</time>
      </trkpt>
      <trkpt lat="44.61837" lon="0.86668">
        <ele>185.67</ele>
        <time>2014-08-15T08:43:01Z</time>
      </trkpt>
      <trkpt lat="44.61834" lon="0.86674">
        <ele>186.15</ele>
        <time>2014-08-15T08:43:02Z</time>
      </trkpt>
      <trkpt lat="44.61807" lon="0.86754">
        <ele>187.11</ele>
        <time>2014-08-15T08:43:15Z</time>
      </trkpt>
      <trkpt lat="44.61805" lon="0.86758">
        <ele>187.11</ele>
        <time>2014-08-15T08:43:16Z</time>
      </trkpt>
      <trkpt lat="44.61802" lon="0.86761">
        <ele>187.11</ele>
        <time>2014-08-15T08:43:17Z</time>
      </trkpt>
      <trkpt lat="44.61799" lon="0.86765">
        <ele>186.63</ele>
        <time>2014-08-15T08:43:18Z</time>
      </trkpt>
      <trkpt lat="44.61795" lon="0.86767">
        <ele>186.63</ele>
        <time>2014-08-15T08:43:19Z</time>
      </trkpt>
      <trkpt lat="44.61782" lon="0.86781">
        <ele>186.63</ele>
        <time>2014-08-15T08:43:23Z</time>
      </trkpt>
      <trkpt lat="44.61781" lon="0.86787">
        <ele>186.63</ele>
        <time>2014-08-15T08:43:24Z</time>
      </trkpt>
      <trkpt lat="44.61782" lon="0.86792">
        <ele>186.15</ele>
        <time>2014-08-15T08:43:25Z</time>
      </trkpt>
      <trkpt lat="44.61785" lon="0.86798">
        <ele>185.67</ele>
        <time>2014-08-15T08:43:26Z</time>
      </trkpt>
      <trkpt lat="44.61789" lon="0.86805">
        <ele>185.19</ele>
        <time>2014-08-15T08:43:27Z</time>
      </trkpt>
      <trkpt lat="44.61792" lon="0.86813">
        <ele>184.71</ele>
        <time>2014-08-15T08:43:28Z</time>
      </trkpt>
      <trkpt lat="44.61795" lon="0.86823">
        <ele>184.23</ele>
        <time>2014-08-15T08:43:29Z</time>
      </trkpt>
      <trkpt lat="44.61797" lon="0.86833">
        <ele>183.27</ele>
        <time>2014-08-15T08:43:30Z</time>
      </trkpt>
      <trkpt lat="44.61798" lon="0.86843">
        <ele>182.79</ele>
        <time>2014-08-15T08:43:31Z</time>
      </trkpt>
      <trkpt lat="44.61797" lon="0.86854">
        <ele>182.31</ele>
        <time>2014-08-15T08:43:32Z</time>
      </trkpt>
      <trkpt lat="44.61794" lon="0.86864">
        <ele>181.83</ele>
        <time>2014-08-15T08:43:33Z</time>
      </trkpt>
      <trkpt lat="44.61791" lon="0.86874">
        <ele>181.35</ele>
        <time>2014-08-15T08:43:34Z</time>
      </trkpt>
      <trkpt lat="44.61788" lon="0.86884">
        <ele>181.35</ele>
        <time>2014-08-15T08:43:35Z</time>
      </trkpt>
      <trkpt lat="44.61752" lon="0.87021">
        <ele>177.5</ele>
        <time>2014-08-15T08:43:47Z</time>
      </trkpt>
      <trkpt lat="44.61679" lon="0.87153">
        <ele>174.14</ele>
        <time>2014-08-15T08:44:01Z</time>
      </trkpt>
      <trkpt lat="44.61647" lon="0.87241">
        <ele>174.14</ele>
        <time>2014-08-15T08:44:12Z</time>
      </trkpt>
      <trkpt lat="44.61626" lon="0.87299">
        <ele>175.1</ele>
        <time>2014-08-15T08:44:21Z</time>
      </trkpt>
      <trkpt lat="44.61616" lon="0.87343">
        <ele>174.14</ele>
        <time>2014-08-15T08:44:27Z</time>
      </trkpt>
      <trkpt lat="44.61613" lon="0.87351">
        <ele>174.14</ele>
        <time>2014-08-15T08:44:28Z</time>
      </trkpt>
      <trkpt lat="44.61609" lon="0.87357">
        <ele>173.66</ele>
        <time>2014-08-15T08:44:29Z</time>
      </trkpt>
      <trkpt lat="44.61605" lon="0.87363">
        <ele>173.66</ele>
        <time>2014-08-15T08:44:30Z</time>
      </trkpt>
      <trkpt lat="44.61599" lon="0.87366">
        <ele>173.17</ele>
        <time>2014-08-15T08:44:31Z</time>
      </trkpt>
      <trkpt lat="44.61593" lon="0.87367">
        <ele>173.17</ele>
        <time>2014-08-15T08:44:32Z</time>
      </trkpt>
      <trkpt lat="44.61587" lon="0.87366">
        <ele>172.69</ele>
        <time>2014-08-15T08:44:33Z</time>
      </trkpt>
      <trkpt lat="44.61581" lon="0.87363">
        <ele>172.69</ele>
        <time>2014-08-15T08:44:34Z</time>
      </trkpt>
      <trkpt lat="44.61575" lon="0.87359">
        <ele>172.69</ele>
        <time>2014-08-15T08:44:35Z</time>
      </trkpt>
      <trkpt lat="44.6152" lon="0.87324">
        <ele>172.21</ele>
        <time>2014-08-15T08:44:44Z</time>
      </trkpt>
      <trkpt lat="44.61514" lon="0.87321">
        <ele>172.21</ele>
        <time>2014-08-15T08:44:45Z</time>
      </trkpt>
      <trkpt lat="44.61507" lon="0.87319">
        <ele>172.21</ele>
        <time>2014-08-15T08:44:46Z</time>
      </trkpt>
      <trkpt lat="44.61463" lon="0.87299">
        <ele>172.21</ele>
        <time>2014-08-15T08:44:53Z</time>
      </trkpt>
      <trkpt lat="44.61421" lon="0.87294">
        <ele>172.21</ele>
        <time>2014-08-15T08:45:00Z</time>
      </trkpt>
      <trkpt lat="44.61384" lon="0.87274">
        <ele>173.17</ele>
        <time>2014-08-15T08:45:07Z</time>
      </trkpt>
      <trkpt lat="44.61369" lon="0.87266">
        <ele>173.66</ele>
        <time>2014-08-15T08:45:10Z</time>
      </trkpt>
      <trkpt lat="44.61351" lon="0.87263">
        <ele>173.66</ele>
        <time>2014-08-15T08:45:13Z</time>
      </trkpt>
      <trkpt lat="44.61287" lon="0.87282">
        <ele>173.17</ele>
        <time>2014-08-15T08:45:24Z</time>
      </trkpt>
      <trkpt lat="44.61249" lon="0.87273">
        <ele>175.1</ele>
        <time>2014-08-15T08:45:32Z</time>
      </trkpt>
      <trkpt lat="44.61223" lon="0.87254">
        <ele>174.14</ele>
        <time>2014-08-15T08:45:38Z</time>
      </trkpt>
      <trkpt lat="44.61166" lon="0.87213">
        <ele>172.69</ele>
        <time>2014-08-15T08:45:51Z</time>
      </trkpt>
      <trkpt lat="44.61154" lon="0.87205">
        <ele>172.69</ele>
        <time>2014-08-15T08:45:54Z</time>
      </trkpt>
      <trkpt lat="44.61149" lon="0.87202">
        <ele>172.21</ele>
        <time>2014-08-15T08:45:55Z</time>
      </trkpt>
      <trkpt lat="44.61145" lon="0.872">
        <ele>172.21</ele>
        <time>2014-08-15T08:45:56Z</time>
      </trkpt>
      <trkpt lat="44.61133" lon="0.87195">
        <ele>171.73</ele>
        <time>2014-08-15T08:45:58Z</time>
      </trkpt>
      <trkpt lat="44.61089" lon="0.87172">
        <ele>166.93</ele>
        <time>2014-08-15T08:46:07Z</time>
      </trkpt>
      <trkpt lat="44.6105" lon="0.8715">
        <ele>162.6</ele>
        <time>2014-08-15T08:46:14Z</time>
      </trkpt>
      <trkpt lat="44.61039" lon="0.87155">
        <ele>161.64</ele>
        <time>2014-08-15T08:46:18Z</time>
      </trkpt>
      <trkpt lat="44.61031" lon="0.87173">
        <ele>161.16</ele>
        <time>2014-08-15T08:46:27Z</time>
      </trkpt>
      <trkpt lat="44.61001" lon="0.87231">
        <ele>160.2</ele>
        <time>2014-08-15T08:46:39Z</time>
      </trkpt>
      <trkpt lat="44.60974" lon="0.87283">
        <ele>161.64</ele>
        <time>2014-08-15T08:46:50Z</time>
      </trkpt>
      <trkpt lat="44.60957" lon="0.87306">
        <ele>160.68</ele>
        <time>2014-08-15T08:46:55Z</time>
      </trkpt>
      <trkpt lat="44.6091" lon="0.8738">
        <ele>160.2</ele>
        <time>2014-08-15T08:47:07Z</time>
      </trkpt>
      <trkpt lat="44.60898" lon="0.87393">
        <ele>159.72</ele>
        <time>2014-08-15T08:47:10Z</time>
      </trkpt>
      <trkpt lat="44.60884" lon="0.87412">
        <ele>160.2</ele>
        <time>2014-08-15T08:47:14Z</time>
      </trkpt>
      <trkpt lat="44.60877" lon="0.87424">
        <ele>160.2</ele>
        <time>2014-08-15T08:47:16Z</time>
      </trkpt>
      <trkpt lat="44.60865" lon="0.87451">
        <ele>160.2</ele>
        <time>2014-08-15T08:47:21Z</time>
      </trkpt>
      <trkpt lat="44.60867" lon="0.87495">
        <ele>160.68</ele>
        <time>2014-08-15T08:47:33Z</time>
      </trkpt>
      <trkpt lat="44.60859" lon="0.87543">
        <ele>160.68</ele>
        <time>2014-08-15T08:47:44Z</time>
      </trkpt>
      <trkpt lat="44.60838" lon="0.87567">
        <ele>163.56</ele>
        <time>2014-08-15T08:47:56Z</time>
      </trkpt>
      <trkpt lat="44.60804" lon="0.87594">
        <ele>166.45</ele>
        <time>2014-08-15T08:48:10Z</time>
      </trkpt>
      <trkpt lat="44.60776" lon="0.87606">
        <ele>169.33</ele>
        <time>2014-08-15T08:48:21Z</time>
      </trkpt>
      <trkpt lat="44.60755" lon="0.87604">
        <ele>169.33</ele>
        <time>2014-08-15T08:48:29Z</time>
      </trkpt>
      <trkpt lat="44.60723" lon="0.87645">
        <ele>168.85</ele>
        <time>2014-08-15T08:48:40Z</time>
      </trkpt>
      <trkpt lat="44.6072" lon="0.87652">
        <ele>168.37</ele>
        <time>2014-08-15T08:48:41Z</time>
      </trkpt>
      <trkpt lat="44.6071" lon="0.8768">
        <ele>167.89</ele>
        <time>2014-08-15T08:48:45Z</time>
      </trkpt>
      <trkpt lat="44.60708" lon="0.87688">
        <ele>167.89</ele>
        <time>2014-08-15T08:48:46Z</time>
      </trkpt>
      <trkpt lat="44.6069" lon="0.87744">
        <ele>170.29</ele>
        <time>2014-08-15T08:48:58Z</time>
      </trkpt>
      <trkpt lat="44.60669" lon="0.87782">
        <ele>173.17</ele>
        <time>2014-08-15T08:49:11Z</time>
      </trkpt>
      <trkpt lat="44.60641" lon="0.878">
        <ele>174.14</ele>
        <time>2014-08-15T08:49:23Z</time>
      </trkpt>
      <trkpt lat="44.60624" lon="0.87828">
        <ele>176.54</ele>
        <time>2014-08-15T08:49:34Z</time>
      </trkpt>
      <trkpt lat="44.60599" lon="0.87873">
        <ele>178.46</ele>
        <time>2014-08-15T08:49:48Z</time>
      </trkpt>
      <trkpt lat="44.60591" lon="0.87889">
        <ele>178.46</ele>
        <time>2014-08-15T08:49:58Z</time>
      </trkpt>
      <trkpt lat="44.60588" lon="0.8789">
        <ele>178.46</ele>
        <time>2014-08-15T08:50:29Z</time>
      </trkpt>
      <trkpt lat="44.60586" lon="0.8789">
        <ele>178.46</ele>
        <time>2014-08-15T08:51:02Z</time>
      </trkpt>
      <trkpt lat="44.60586" lon="0.87888">
        <ele>178.94</ele>
        <time>2014-08-15T08:51:28Z</time>
      </trkpt>
      <trkpt lat="44.60587" lon="0.87887">
        <ele>178.46</ele>
        <time>2014-08-15T08:52:01Z</time>
      </trkpt>
      <trkpt lat="44.60587" lon="0.87886">
        <ele>178.46</ele>
        <time>2014-08-15T08:52:37Z</time>
      </trkpt>
      <trkpt lat="44.60586" lon="0.87887">
        <ele>178.94</ele>
        <time>2014-08-15T08:53:07Z</time>
      </trkpt>
      <trkpt lat="44.60585" lon="0.87887">
        <ele>179.42</ele>
        <time>2014-08-15T08:53:40Z</time>
      </trkpt>
      <trkpt lat="44.60584" lon="0.87886">
        <ele>179.9</ele>
        <time>2014-08-15T08:54:11Z</time>
      </trkpt>
      <trkpt lat="44.60584" lon="0.87886">
        <ele>180.38</ele>
        <time>2014-08-15T08:54:45Z</time>
      </trkpt>
      <trkpt lat="44.60585" lon="0.87887">
        <ele>181.83</ele>
        <time>2014-08-15T08:55:12Z</time>
      </trkpt>
      <trkpt lat="44.60583" lon="0.87889">
        <ele>180.38</ele>
        <time>2014-08-15T08:55:30Z</time>
      </trkpt>
      <trkpt lat="44.60583" lon="0.8789">
        <ele>180.38</ele>
        <time>2014-08-15T08:55:41Z</time>
      </trkpt>
      <trkpt lat="44.60598" lon="0.87928">
        <ele>185.19</ele>
        <time>2014-08-15T08:55:54Z</time>
      </trkpt>
      <trkpt lat="44.60603" lon="0.87953">
        <ele>188.56</ele>
        <time>2014-08-15T08:55:59Z</time>
      </trkpt>
      <trkpt lat="44.6061" lon="0.8797">
        <ele>189.52</ele>
        <time>2014-08-15T08:56:02Z</time>
      </trkpt>
      <trkpt lat="44.60627" lon="0.8801">
        <ele>193.84</ele>
        <time>2014-08-15T08:56:12Z</time>
      </trkpt>
      <trkpt lat="44.60629" lon="0.88021">
        <ele>193.84</ele>
        <time>2014-08-15T08:56:15Z</time>
      </trkpt>
      <trkpt lat="44.60629" lon="0.88031">
        <ele>193.84</ele>
        <time>2014-08-15T08:56:18Z</time>
      </trkpt>
      <trkpt lat="44.60635" lon="0.88048">
        <ele>193.84</ele>
        <time>2014-08-15T08:56:24Z</time>
      </trkpt>
      <trkpt lat="44.60648" lon="0.88089">
        <ele>194.32</ele>
        <time>2014-08-15T08:56:36Z</time>
      </trkpt>
      <trkpt lat="44.60702" lon="0.88128">
        <ele>193.84</ele>
        <time>2014-08-15T08:56:45Z</time>
      </trkpt>
      <trkpt lat="44.60716" lon="0.88133">
        <ele>193.84</ele>
        <time>2014-08-15T08:56:49Z</time>
      </trkpt>
      <trkpt lat="44.60755" lon="0.88153">
        <ele>194.8</ele>
        <time>2014-08-15T08:57:00Z</time>
      </trkpt>
      <trkpt lat="44.60779" lon="0.88161">
        <ele>196.25</ele>
        <time>2014-08-15T08:57:06Z</time>
      </trkpt>
      <trkpt lat="44.6081" lon="0.8815">
        <ele>197.21</ele>
        <time>2014-08-15T08:57:15Z</time>
      </trkpt>
      <trkpt lat="44.60812" lon="0.88149">
        <ele>197.21</ele>
        <time>2014-08-15T08:57:16Z</time>
      </trkpt>
      <trkpt lat="44.6082" lon="0.88168">
        <ele>197.21</ele>
        <time>2014-08-15T08:57:23Z</time>
      </trkpt>
      <trkpt lat="44.6083" lon="0.88208">
        <ele>197.69</ele>
        <time>2014-08-15T08:57:34Z</time>
      </trkpt>
      <trkpt lat="44.60832" lon="0.88266">
        <ele>197.21</ele>
        <time>2014-08-15T08:57:47Z</time>
      </trkpt>
      <trkpt lat="44.60837" lon="0.88306">
        <ele>196.73</ele>
        <time>2014-08-15T08:57:57Z</time>
      </trkpt>
      <trkpt lat="44.6084" lon="0.88326">
        <ele>197.21</ele>
        <time>2014-08-15T08:58:03Z</time>
      </trkpt>
      <trkpt lat="44.60842" lon="0.88331">
        <ele>197.69</ele>
        <time>2014-08-15T08:58:05Z</time>
      </trkpt>
      <trkpt lat="44.60855" lon="0.88332">
        <ele>197.69</ele>
        <time>2014-08-15T08:58:12Z</time>
      </trkpt>
      <trkpt lat="44.60872" lon="0.88345">
        <ele>198.17</ele>
        <time>2014-08-15T08:58:20Z</time>
      </trkpt>
      <trkpt lat="44.60882" lon="0.88349">
        <ele>198.17</ele>
        <time>2014-08-15T08:58:23Z</time>
      </trkpt>
      <trkpt lat="44.60902" lon="0.88355">
        <ele>198.65</ele>
        <time>2014-08-15T08:58:30Z</time>
      </trkpt>
      <trkpt lat="44.60922" lon="0.88374">
        <ele>199.13</ele>
        <time>2014-08-15T08:58:38Z</time>
      </trkpt>
      <trkpt lat="44.60917" lon="0.88385">
        <ele>199.13</ele>
        <time>2014-08-15T08:58:40Z</time>
      </trkpt>
      <trkpt lat="44.60915" lon="0.88395">
        <ele>199.13</ele>
        <time>2014-08-15T08:58:43Z</time>
      </trkpt>
      <trkpt lat="44.6092" lon="0.88397">
        <ele>198.65</ele>
        <time>2014-08-15T08:58:46Z</time>
      </trkpt>
      <trkpt lat="44.6094" lon="0.88413">
        <ele>200.57</ele>
        <time>2014-08-15T08:58:54Z</time>
      </trkpt>
      <trkpt lat="44.60952" lon="0.8844">
        <ele>202.49</ele>
        <time>2014-08-15T08:59:00Z</time>
      </trkpt>
      <trkpt lat="44.60961" lon="0.88467">
        <ele>202.49</ele>
        <time>2014-08-15T08:59:06Z</time>
      </trkpt>
      <trkpt lat="44.60966" lon="0.88493">
        <ele>202.49</ele>
        <time>2014-08-15T08:59:12Z</time>
      </trkpt>
      <trkpt lat="44.6099" lon="0.8852">
        <ele>202.49</ele>
        <time>2014-08-15T08:59:15Z</time>
      </trkpt>
      <trkpt lat="44.61015" lon="0.88554">
        <ele>202.49</ele>
        <time>2014-08-15T08:59:20Z</time>
      </trkpt>
      <trkpt lat="44.61018" lon="0.8856">
        <ele>202.49</ele>
        <time>2014-08-15T08:59:21Z</time>
      </trkpt>
      <trkpt lat="44.61019" lon="0.88567">
        <ele>202.49</ele>
        <time>2014-08-15T08:59:22Z</time>
      </trkpt>
      <trkpt lat="44.61019" lon="0.88575">
        <ele>202.49</ele>
        <time>2014-08-15T08:59:23Z</time>
      </trkpt>
      <trkpt lat="44.61019" lon="0.88583">
        <ele>202.49</ele>
        <time>2014-08-15T08:59:24Z</time>
      </trkpt>
      <trkpt lat="44.61017" lon="0.88627">
        <ele>202.49</ele>
        <time>2014-08-15T08:59:29Z</time>
      </trkpt>
      <trkpt lat="44.61014" lon="0.88668">
        <ele>202.01</ele>
        <time>2014-08-15T08:59:33Z</time>
      </trkpt>
      <trkpt lat="44.61014" lon="0.88689">
        <ele>202.49</ele>
        <time>2014-08-15T08:59:35Z</time>
      </trkpt>
      <trkpt lat="44.60991" lon="0.88732">
        <ele>201.05</ele>
        <time>2014-08-15T08:59:42Z</time>
      </trkpt>
      <trkpt lat="44.60986" lon="0.88737">
        <ele>201.05</ele>
        <time>2014-08-15T08:59:43Z</time>
      </trkpt>
      <trkpt lat="44.60975" lon="0.88748">
        <ele>201.05</ele>
        <time>2014-08-15T08:59:45Z</time>
      </trkpt>
      <trkpt lat="44.60948" lon="0.88769">
        <ele>200.57</ele>
        <time>2014-08-15T08:59:50Z</time>
      </trkpt>
      <trkpt lat="44.60939" lon="0.88779">
        <ele>200.09</ele>
        <time>2014-08-15T08:59:52Z</time>
      </trkpt>
      <trkpt lat="44.60895" lon="0.88825">
        <ele>198.17</ele>
        <time>2014-08-15T09:00:02Z</time>
      </trkpt>
      <trkpt lat="44.60888" lon="0.88832">
        <ele>197.69</ele>
        <time>2014-08-15T09:00:04Z</time>
      </trkpt>
      <trkpt lat="44.60869" lon="0.88851">
        <ele>196.25</ele>
        <time>2014-08-15T09:00:10Z</time>
      </trkpt>
      <trkpt lat="44.60853" lon="0.88863">
        <ele>196.25</ele>
        <time>2014-08-15T09:00:14Z</time>
      </trkpt>
      <trkpt lat="44.60845" lon="0.88869">
        <ele>195.77</ele>
        <time>2014-08-15T09:00:16Z</time>
      </trkpt>
      <trkpt lat="44.60794" lon="0.88907">
        <ele>195.77</ele>
        <time>2014-08-15T09:00:27Z</time>
      </trkpt>
      <trkpt lat="44.60789" lon="0.8891">
        <ele>195.77</ele>
        <time>2014-08-15T09:00:28Z</time>
      </trkpt>
      <trkpt lat="44.60771" lon="0.88918">
        <ele>195.28</ele>
        <time>2014-08-15T09:00:32Z</time>
      </trkpt>
      <trkpt lat="44.60733" lon="0.8894">
        <ele>195.28</ele>
        <time>2014-08-15T09:00:39Z</time>
      </trkpt>
      <trkpt lat="44.60728" lon="0.88945">
        <ele>195.28</ele>
        <time>2014-08-15T09:00:40Z</time>
      </trkpt>
      <trkpt lat="44.60723" lon="0.88949">
        <ele>195.28</ele>
        <time>2014-08-15T09:00:41Z</time>
      </trkpt>
      <trkpt lat="44.60708" lon="0.88956">
        <ele>194.8</ele>
        <time>2014-08-15T09:00:43Z</time>
      </trkpt>
      <trkpt lat="44.60693" lon="0.88961">
        <ele>193.84</ele>
        <time>2014-08-15T09:00:45Z</time>
      </trkpt>
      <trkpt lat="44.60688" lon="0.88963">
        <ele>193.84</ele>
        <time>2014-08-15T09:00:46Z</time>
      </trkpt>
      <trkpt lat="44.60672" lon="0.88969">
        <ele>193.36</ele>
        <time>2014-08-15T09:00:49Z</time>
      </trkpt>
      <trkpt lat="44.60615" lon="0.88989">
        <ele>190.96</ele>
        <time>2014-08-15T09:00:58Z</time>
      </trkpt>
      <trkpt lat="44.60608" lon="0.88991">
        <ele>190.96</ele>
        <time>2014-08-15T09:00:59Z</time>
      </trkpt>
      <trkpt lat="44.60538" lon="0.89021">
        <ele>187.11</ele>
        <time>2014-08-15T09:01:09Z</time>
      </trkpt>
      <trkpt lat="44.60516" lon="0.8904">
        <ele>186.63</ele>
        <time>2014-08-15T09:01:13Z</time>
      </trkpt>
      <trkpt lat="44.60511" lon="0.89044">
        <ele>186.63</ele>
        <time>2014-08-15T09:01:14Z</time>
      </trkpt>
      <trkpt lat="44.60497" lon="0.89055">
        <ele>186.63</ele>
        <time>2014-08-15T09:01:17Z</time>
      </trkpt>
      <trkpt lat="44.60477" lon="0.89066">
        <ele>187.11</ele>
        <time>2014-08-15T09:01:21Z</time>
      </trkpt>
      <trkpt lat="44.60455" lon="0.89076">
        <ele>187.11</ele>
        <time>2014-08-15T09:01:25Z</time>
      </trkpt>
      <trkpt lat="44.60449" lon="0.8908">
        <ele>187.11</ele>
        <time>2014-08-15T09:01:26Z</time>
      </trkpt>
      <trkpt lat="44.60443" lon="0.89085">
        <ele>187.11</ele>
        <time>2014-08-15T09:01:27Z</time>
      </trkpt>
      <trkpt lat="44.60437" lon="0.89089">
        <ele>187.11</ele>
        <time>2014-08-15T09:01:28Z</time>
      </trkpt>
      <trkpt lat="44.6043" lon="0.89093">
        <ele>186.63</ele>
        <time>2014-08-15T09:01:29Z</time>
      </trkpt>
      <trkpt lat="44.60357" lon="0.89138">
        <ele>184.23</ele>
        <time>2014-08-15T09:01:40Z</time>
      </trkpt>
      <trkpt lat="44.60325" lon="0.89163">
        <ele>181.83</ele>
        <time>2014-08-15T09:01:45Z</time>
      </trkpt>
      <trkpt lat="44.60319" lon="0.8917">
        <ele>181.35</ele>
        <time>2014-08-15T09:01:46Z</time>
      </trkpt>
      <trkpt lat="44.60314" lon="0.89178">
        <ele>180.87</ele>
        <time>2014-08-15T09:01:47Z</time>
      </trkpt>
      <trkpt lat="44.60282" lon="0.89222">
        <ele>180.38</ele>
        <time>2014-08-15T09:01:53Z</time>
      </trkpt>
      <trkpt lat="44.60276" lon="0.89225">
        <ele>180.38</ele>
        <time>2014-08-15T09:01:54Z</time>
      </trkpt>
      <trkpt lat="44.6027" lon="0.89228">
        <ele>180.38</ele>
        <time>2014-08-15T09:01:55Z</time>
      </trkpt>
      <trkpt lat="44.60208" lon="0.89255">
        <ele>178.94</ele>
        <time>2014-08-15T09:02:06Z</time>
      </trkpt>
      <trkpt lat="44.60203" lon="0.89259">
        <ele>178.94</ele>
        <time>2014-08-15T09:02:07Z</time>
      </trkpt>
      <trkpt lat="44.60178" lon="0.8928">
        <ele>178.46</ele>
        <time>2014-08-15T09:02:11Z</time>
      </trkpt>
      <trkpt lat="44.6016" lon="0.89298">
        <ele>177.98</ele>
        <time>2014-08-15T09:02:14Z</time>
      </trkpt>
      <trkpt lat="44.60154" lon="0.89301">
        <ele>177.98</ele>
        <time>2014-08-15T09:02:15Z</time>
      </trkpt>
      <trkpt lat="44.60147" lon="0.89303">
        <ele>177.5</ele>
        <time>2014-08-15T09:02:16Z</time>
      </trkpt>
      <trkpt lat="44.60141" lon="0.89304">
        <ele>177.5</ele>
        <time>2014-08-15T09:02:17Z</time>
      </trkpt>
      <trkpt lat="44.60135" lon="0.89308">
        <ele>177.5</ele>
        <time>2014-08-15T09:02:18Z</time>
      </trkpt>
      <trkpt lat="44.60131" lon="0.89313">
        <ele>177.5</ele>
        <time>2014-08-15T09:02:19Z</time>
      </trkpt>
      <trkpt lat="44.60127" lon="0.89319">
        <ele>177.98</ele>
        <time>2014-08-15T09:02:20Z</time>
      </trkpt>
      <trkpt lat="44.60121" lon="0.8933">
        <ele>177.98</ele>
        <time>2014-08-15T09:02:22Z</time>
      </trkpt>
      <trkpt lat="44.6012" lon="0.89337">
        <ele>177.98</ele>
        <time>2014-08-15T09:02:23Z</time>
      </trkpt>
      <trkpt lat="44.60112" lon="0.89371">
        <ele>177.5</ele>
        <time>2014-08-15T09:02:29Z</time>
      </trkpt>
      <trkpt lat="44.60109" lon="0.89384">
        <ele>177.5</ele>
        <time>2014-08-15T09:02:31Z</time>
      </trkpt>
      <trkpt lat="44.60089" lon="0.89444">
        <ele>177.02</ele>
        <time>2014-08-15T09:02:41Z</time>
      </trkpt>
      <trkpt lat="44.60086" lon="0.89448">
        <ele>177.02</ele>
        <time>2014-08-15T09:02:42Z</time>
      </trkpt>
      <trkpt lat="44.60065" lon="0.89493">
        <ele>177.02</ele>
        <time>2014-08-15T09:02:52Z</time>
      </trkpt>
      <trkpt lat="44.60056" lon="0.89504">
        <ele>176.54</ele>
        <time>2014-08-15T09:02:55Z</time>
      </trkpt>
      <trkpt lat="44.60053" lon="0.89501">
        <ele>176.54</ele>
        <time>2014-08-15T09:02:56Z</time>
      </trkpt>
      <trkpt lat="44.60037" lon="0.89483">
        <ele>177.02</ele>
        <time>2014-08-15T09:03:00Z</time>
      </trkpt>
      <trkpt lat="44.60033" lon="0.89481">
        <ele>177.02</ele>
        <time>2014-08-15T09:03:01Z</time>
      </trkpt>
      <trkpt lat="44.59985" lon="0.8947">
        <ele>177.02</ele>
        <time>2014-08-15T09:03:13Z</time>
      </trkpt>
      <trkpt lat="44.59948" lon="0.89432">
        <ele>179.9</ele>
        <time>2014-08-15T09:03:24Z</time>
      </trkpt>
      <trkpt lat="44.59941" lon="0.89424">
        <ele>180.38</ele>
        <time>2014-08-15T09:03:26Z</time>
      </trkpt>
      <trkpt lat="44.59887" lon="0.89363">
        <ele>176.54</ele>
        <time>2014-08-15T09:03:37Z</time>
      </trkpt>
      <trkpt lat="44.59848" lon="0.89319">
        <ele>173.17</ele>
        <time>2014-08-15T09:03:44Z</time>
      </trkpt>
      <trkpt lat="44.59783" lon="0.89238">
        <ele>170.77</ele>
        <time>2014-08-15T09:03:57Z</time>
      </trkpt>
      <trkpt lat="44.5975" lon="0.8919">
        <ele>170.29</ele>
        <time>2014-08-15T09:04:05Z</time>
      </trkpt>
      <trkpt lat="44.59745" lon="0.89185">
        <ele>170.29</ele>
        <time>2014-08-15T09:04:06Z</time>
      </trkpt>
      <trkpt lat="44.59687" lon="0.89135">
        <ele>172.21</ele>
        <time>2014-08-15T09:04:19Z</time>
      </trkpt>
      <trkpt lat="44.59647" lon="0.891">
        <ele>177.98</ele>
        <time>2014-08-15T09:04:33Z</time>
      </trkpt>
      <trkpt lat="44.59629" lon="0.89064">
        <ele>182.79</ele>
        <time>2014-08-15T09:04:46Z</time>
      </trkpt>
      <trkpt lat="44.59614" lon="0.89032">
        <ele>183.27</ele>
        <time>2014-08-15T09:04:56Z</time>
      </trkpt>
      <trkpt lat="44.5959" lon="0.88984">
        <ele>182.31</ele>
        <time>2014-08-15T09:05:08Z</time>
      </trkpt>
      <trkpt lat="44.59563" lon="0.8893">
        <ele>179.42</ele>
        <time>2014-08-15T09:05:22Z</time>
      </trkpt>
      <trkpt lat="44.59561" lon="0.88925">
        <ele>178.94</ele>
        <time>2014-08-15T09:05:23Z</time>
      </trkpt>
      <trkpt lat="44.59515" lon="0.88854">
        <ele>172.21</ele>
        <time>2014-08-15T09:05:35Z</time>
      </trkpt>
      <trkpt lat="44.59512" lon="0.88848">
        <ele>171.73</ele>
        <time>2014-08-15T09:05:36Z</time>
      </trkpt>
      <trkpt lat="44.59495" lon="0.88826">
        <ele>169.33</ele>
        <time>2014-08-15T09:05:40Z</time>
      </trkpt>
      <trkpt lat="44.59464" lon="0.88781">
        <ele>162.6</ele>
        <time>2014-08-15T09:05:47Z</time>
      </trkpt>
      <trkpt lat="44.59436" lon="0.88758">
        <ele>160.68</ele>
        <time>2014-08-15T09:05:59Z</time>
      </trkpt>
      <trkpt lat="44.59427" lon="0.88741">
        <ele>160.2</ele>
        <time>2014-08-15T09:06:06Z</time>
      </trkpt>
      <trkpt lat="44.59404" lon="0.88697">
        <ele>159.72</ele>
        <time>2014-08-15T09:06:18Z</time>
      </trkpt>
      <trkpt lat="44.59384" lon="0.88654">
        <ele>160.2</ele>
        <time>2014-08-15T09:06:30Z</time>
      </trkpt>
      <trkpt lat="44.5937" lon="0.88618">
        <ele>160.68</ele>
        <time>2014-08-15T09:06:37Z</time>
      </trkpt>
      <trkpt lat="44.59352" lon="0.88579">
        <ele>160.68</ele>
        <time>2014-08-15T09:06:45Z</time>
      </trkpt>
      <trkpt lat="44.59349" lon="0.88568">
        <ele>161.16</ele>
        <time>2014-08-15T09:06:56Z</time>
      </trkpt>
      <trkpt lat="44.59341" lon="0.88567">
        <ele>166.93</ele>
        <time>2014-08-15T09:07:22Z</time>
      </trkpt>
      <trkpt lat="44.5934" lon="0.88567">
        <ele>167.41</ele>
        <time>2014-08-15T09:07:29Z</time>
      </trkpt>
      <trkpt lat="44.59339" lon="0.8856">
        <ele>167.41</ele>
        <time>2014-08-15T09:07:32Z</time>
      </trkpt>
      <trkpt lat="44.59336" lon="0.88515">
        <ele>166.93</ele>
        <time>2014-08-15T09:07:39Z</time>
      </trkpt>
      <trkpt lat="44.59318" lon="0.88406">
        <ele>161.16</ele>
        <time>2014-08-15T09:07:49Z</time>
      </trkpt>
      <trkpt lat="44.59315" lon="0.88397">
        <ele>161.16</ele>
        <time>2014-08-15T09:07:50Z</time>
      </trkpt>
      <trkpt lat="44.59309" lon="0.88379">
        <ele>160.68</ele>
        <time>2014-08-15T09:07:52Z</time>
      </trkpt>
      <trkpt lat="44.59305" lon="0.88372">
        <ele>160.68</ele>
        <time>2014-08-15T09:07:53Z</time>
      </trkpt>
      <trkpt lat="44.593" lon="0.88367">
        <ele>160.68</ele>
        <time>2014-08-15T09:07:54Z</time>
      </trkpt>
      <trkpt lat="44.59295" lon="0.88363">
        <ele>160.68</ele>
        <time>2014-08-15T09:07:55Z</time>
      </trkpt>
      <trkpt lat="44.5929" lon="0.88359">
        <ele>160.68</ele>
        <time>2014-08-15T09:07:56Z</time>
      </trkpt>
      <trkpt lat="44.59285" lon="0.88355">
        <ele>160.68</ele>
        <time>2014-08-15T09:07:57Z</time>
      </trkpt>
      <trkpt lat="44.59257" lon="0.88321">
        <ele>159.72</ele>
        <time>2014-08-15T09:08:04Z</time>
      </trkpt>
      <trkpt lat="44.59232" lon="0.88308">
        <ele>160.68</ele>
        <time>2014-08-15T09:08:09Z</time>
      </trkpt>
      <trkpt lat="44.59219" lon="0.88305">
        <ele>161.16</ele>
        <time>2014-08-15T09:08:12Z</time>
      </trkpt>
      <trkpt lat="44.59206" lon="0.88303">
        <ele>162.12</ele>
        <time>2014-08-15T09:08:15Z</time>
      </trkpt>
      <trkpt lat="44.59143" lon="0.88293">
        <ele>164.04</ele>
        <time>2014-08-15T09:08:27Z</time>
      </trkpt>
      <trkpt lat="44.59109" lon="0.88281">
        <ele>162.6</ele>
        <time>2014-08-15T09:08:33Z</time>
      </trkpt>
      <trkpt lat="44.59062" lon="0.88262">
        <ele>163.56</ele>
        <time>2014-08-15T09:08:43Z</time>
      </trkpt>
      <trkpt lat="44.59034" lon="0.88246">
        <ele>166.45</ele>
        <time>2014-08-15T09:08:52Z</time>
      </trkpt>
      <trkpt lat="44.59021" lon="0.88214">
        <ele>167.41</ele>
        <time>2014-08-15T09:09:01Z</time>
      </trkpt>
      <trkpt lat="44.59" lon="0.88188">
        <ele>169.81</ele>
        <time>2014-08-15T09:09:12Z</time>
      </trkpt>
      <trkpt lat="44.5899" lon="0.88178">
        <ele>169.81</ele>
        <time>2014-08-15T09:09:17Z</time>
      </trkpt>
      <trkpt lat="44.58989" lon="0.88175">
        <ele>169.81</ele>
        <time>2014-08-15T09:09:18Z</time>
      </trkpt>
      <trkpt lat="44.58989" lon="0.88172">
        <ele>169.33</ele>
        <time>2014-08-15T09:09:19Z</time>
      </trkpt>
      <trkpt lat="44.58989" lon="0.88169">
        <ele>169.33</ele>
        <time>2014-08-15T09:09:20Z</time>
      </trkpt>
      <trkpt lat="44.5899" lon="0.88167">
        <ele>169.33</ele>
        <time>2014-08-15T09:09:21Z</time>
      </trkpt>
      <trkpt lat="44.58992" lon="0.88165">
        <ele>169.33</ele>
        <time>2014-08-15T09:09:22Z</time>
      </trkpt>
      <trkpt lat="44.58993" lon="0.88164">
        <ele>169.33</ele>
        <time>2014-08-15T09:09:23Z</time>
      </trkpt>
      <trkpt lat="44.58994" lon="0.88162">
        <ele>169.33</ele>
        <time>2014-08-15T09:09:24Z</time>
      </trkpt>
      <trkpt lat="44.59017" lon="0.88145">
        <ele>169.81</ele>
        <time>2014-08-15T09:09:38Z</time>
      </trkpt>
      <trkpt lat="44.59038" lon="0.88129">
        <ele>169.81</ele>
        <time>2014-08-15T09:09:52Z</time>
      </trkpt>
      <trkpt lat="44.59066" lon="0.88155">
        <ele>170.77</ele>
        <time>2014-08-15T09:10:04Z</time>
      </trkpt>
      <trkpt lat="44.59093" lon="0.8815">
        <ele>170.29</ele>
        <time>2014-08-15T09:10:13Z</time>
      </trkpt>
      <trkpt lat="44.59115" lon="0.88129">
        <ele>172.21</ele>
        <time>2014-08-15T09:10:24Z</time>
      </trkpt>
      <trkpt lat="44.59132" lon="0.88094">
        <ele>176.06</ele>
        <time>2014-08-15T09:10:37Z</time>
      </trkpt>
      <trkpt lat="44.59148" lon="0.88063">
        <ele>180.38</ele>
        <time>2014-08-15T09:10:51Z</time>
      </trkpt>
      <trkpt lat="44.59171" lon="0.88034">
        <ele>183.75</ele>
        <time>2014-08-15T09:11:05Z</time>
      </trkpt>
      <trkpt lat="44.59173" lon="0.8803">
        <ele>184.71</ele>
        <time>2014-08-15T09:11:07Z</time>
      </trkpt>
      <trkpt lat="44.59174" lon="0.88028">
        <ele>184.71</ele>
        <time>2014-08-15T09:11:08Z</time>
      </trkpt>
      <trkpt lat="44.59193" lon="0.88004">
        <ele>190</ele>
        <time>2014-08-15T09:11:21Z</time>
      </trkpt>
      <trkpt lat="44.59215" lon="0.87974">
        <ele>192.88</ele>
        <time>2014-08-15T09:11:34Z</time>
      </trkpt>
      <trkpt lat="44.59228" lon="0.87954">
        <ele>193.36</ele>
        <time>2014-08-15T09:11:41Z</time>
      </trkpt>
      <trkpt lat="44.5923" lon="0.87951">
        <ele>193.36</ele>
        <time>2014-08-15T09:11:42Z</time>
      </trkpt>
      <trkpt lat="44.59231" lon="0.87948">
        <ele>193.36</ele>
        <time>2014-08-15T09:11:43Z</time>
      </trkpt>
      <trkpt lat="44.59248" lon="0.87915">
        <ele>192.4</ele>
        <time>2014-08-15T09:11:55Z</time>
      </trkpt>
      <trkpt lat="44.59268" lon="0.87893">
        <ele>195.28</ele>
        <time>2014-08-15T09:12:08Z</time>
      </trkpt>
      <trkpt lat="44.59287" lon="0.8787">
        <ele>197.21</ele>
        <time>2014-08-15T09:12:22Z</time>
      </trkpt>
      <trkpt lat="44.59318" lon="0.87848">
        <ele>201.53</ele>
        <time>2014-08-15T09:12:36Z</time>
      </trkpt>
      <trkpt lat="44.59361" lon="0.87825">
        <ele>204.9</ele>
        <time>2014-08-15T09:12:48Z</time>
      </trkpt>
      <trkpt lat="44.59372" lon="0.87815">
        <ele>205.38</ele>
        <time>2014-08-15T09:12:51Z</time>
      </trkpt>
      <trkpt lat="44.59375" lon="0.8781">
        <ele>205.38</ele>
        <time>2014-08-15T09:12:52Z</time>
      </trkpt>
      <trkpt lat="44.59391" lon="0.87785">
        <ele>205.86</ele>
        <time>2014-08-15T09:12:56Z</time>
      </trkpt>
      <trkpt lat="44.59406" lon="0.87756">
        <ele>206.34</ele>
        <time>2014-08-15T09:13:00Z</time>
      </trkpt>
      <trkpt lat="44.59416" lon="0.87742">
        <ele>206.82</ele>
        <time>2014-08-15T09:13:02Z</time>
      </trkpt>
      <trkpt lat="44.59425" lon="0.8773">
        <ele>206.82</ele>
        <time>2014-08-15T09:13:04Z</time>
      </trkpt>
      <trkpt lat="44.59429" lon="0.87723">
        <ele>206.34</ele>
        <time>2014-08-15T09:13:05Z</time>
      </trkpt>
      <trkpt lat="44.59473" lon="0.87641">
        <ele>204.9</ele>
        <time>2014-08-15T09:13:15Z</time>
      </trkpt>
      <trkpt lat="44.5948" lon="0.87633">
        <ele>204.9</ele>
        <time>2014-08-15T09:13:18Z</time>
      </trkpt>
      <trkpt lat="44.59482" lon="0.87633">
        <ele>204.9</ele>
        <time>2014-08-15T09:13:19Z</time>
      </trkpt>
      <trkpt lat="44.59485" lon="0.87633">
        <ele>204.9</ele>
        <time>2014-08-15T09:13:20Z</time>
      </trkpt>
      <trkpt lat="44.59487" lon="0.87635">
        <ele>204.42</ele>
        <time>2014-08-15T09:13:21Z</time>
      </trkpt>
      <trkpt lat="44.5949" lon="0.87638">
        <ele>204.42</ele>
        <time>2014-08-15T09:13:22Z</time>
      </trkpt>
      <trkpt lat="44.59494" lon="0.8764">
        <ele>203.94</ele>
        <time>2014-08-15T09:13:23Z</time>
      </trkpt>
      <trkpt lat="44.59498" lon="0.87642">
        <ele>203.94</ele>
        <time>2014-08-15T09:13:24Z</time>
      </trkpt>
      <trkpt lat="44.59502" lon="0.87644">
        <ele>203.94</ele>
        <time>2014-08-15T09:13:25Z</time>
      </trkpt>
      <trkpt lat="44.59505" lon="0.87647">
        <ele>203.94</ele>
        <time>2014-08-15T09:13:26Z</time>
      </trkpt>
      <trkpt lat="44.59507" lon="0.87651">
        <ele>203.94</ele>
        <time>2014-08-15T09:13:27Z</time>
      </trkpt>
      <trkpt lat="44.5951" lon="0.87656">
        <ele>203.94</ele>
        <time>2014-08-15T09:13:28Z</time>
      </trkpt>
      <trkpt lat="44.59514" lon="0.8766">
        <ele>203.94</ele>
        <time>2014-08-15T09:13:29Z</time>
      </trkpt>
      <trkpt lat="44.59518" lon="0.87664">
        <ele>203.94</ele>
        <time>2014-08-15T09:13:30Z</time>
      </trkpt>
      <trkpt lat="44.59525" lon="0.87673">
        <ele>203.94</ele>
        <time>2014-08-15T09:13:32Z</time>
      </trkpt>
      <trkpt lat="44.59529" lon="0.87677">
        <ele>203.94</ele>
        <time>2014-08-15T09:13:33Z</time>
      </trkpt>
      <trkpt lat="44.59534" lon="0.8768">
        <ele>203.46</ele>
        <time>2014-08-15T09:13:34Z</time>
      </trkpt>
      <trkpt lat="44.59538" lon="0.87684">
        <ele>203.46</ele>
        <time>2014-08-15T09:13:35Z</time>
      </trkpt>
      <trkpt lat="44.59542" lon="0.87689">
        <ele>203.46</ele>
        <time>2014-08-15T09:13:36Z</time>
      </trkpt>
      <trkpt lat="44.59546" lon="0.87693">
        <ele>203.46</ele>
        <time>2014-08-15T09:13:37Z</time>
      </trkpt>
      <trkpt lat="44.5955" lon="0.87697">
        <ele>203.46</ele>
        <time>2014-08-15T09:13:38Z</time>
      </trkpt>
      <trkpt lat="44.59563" lon="0.87708">
        <ele>203.94</ele>
        <time>2014-08-15T09:13:42Z</time>
      </trkpt>
      <trkpt lat="44.59566" lon="0.87706">
        <ele>203.94</ele>
        <time>2014-08-15T09:13:43Z</time>
      </trkpt>
      <trkpt lat="44.59569" lon="0.87703">
        <ele>203.94</ele>
        <time>2014-08-15T09:13:44Z</time>
      </trkpt>
      <trkpt lat="44.59571" lon="0.87698">
        <ele>204.42</ele>
        <time>2014-08-15T09:13:45Z</time>
      </trkpt>
      <trkpt lat="44.59573" lon="0.87693">
        <ele>204.42</ele>
        <time>2014-08-15T09:13:46Z</time>
      </trkpt>
      <trkpt lat="44.59575" lon="0.87687">
        <ele>204.9</ele>
        <time>2014-08-15T09:13:47Z</time>
      </trkpt>
      <trkpt lat="44.59577" lon="0.87681">
        <ele>205.38</ele>
        <time>2014-08-15T09:13:48Z</time>
      </trkpt>
      <trkpt lat="44.59591" lon="0.87637">
        <ele>207.3</ele>
        <time>2014-08-15T09:13:55Z</time>
      </trkpt>
      <trkpt lat="44.59626" lon="0.87544">
        <ele>204.42</ele>
        <time>2014-08-15T09:14:06Z</time>
      </trkpt>
      <trkpt lat="44.5963" lon="0.87535">
        <ele>203.46</ele>
        <time>2014-08-15T09:14:07Z</time>
      </trkpt>
      <trkpt lat="44.59635" lon="0.87528">
        <ele>202.98</ele>
        <time>2014-08-15T09:14:08Z</time>
      </trkpt>
      <trkpt lat="44.59641" lon="0.87522">
        <ele>202.49</ele>
        <time>2014-08-15T09:14:09Z</time>
      </trkpt>
      <trkpt lat="44.59647" lon="0.87516">
        <ele>202.49</ele>
        <time>2014-08-15T09:14:10Z</time>
      </trkpt>
      <trkpt lat="44.59658" lon="0.87505">
        <ele>201.53</ele>
        <time>2014-08-15T09:14:12Z</time>
      </trkpt>
      <trkpt lat="44.59664" lon="0.87498">
        <ele>201.05</ele>
        <time>2014-08-15T09:14:13Z</time>
      </trkpt>
      <trkpt lat="44.59741" lon="0.87391">
        <ele>195.28</ele>
        <time>2014-08-15T09:14:24Z</time>
      </trkpt>
      <trkpt lat="44.59792" lon="0.87307">
        <ele>190</ele>
        <time>2014-08-15T09:14:33Z</time>
      </trkpt>
      <trkpt lat="44.59855" lon="0.87214">
        <ele>178.46</ele>
        <time>2014-08-15T09:14:44Z</time>
      </trkpt>
      <trkpt lat="44.5986" lon="0.87207">
        <ele>177.98</ele>
        <time>2014-08-15T09:14:45Z</time>
      </trkpt>
      <trkpt lat="44.59865" lon="0.87201">
        <ele>177.02</ele>
        <time>2014-08-15T09:14:46Z</time>
      </trkpt>
      <trkpt lat="44.59872" lon="0.87195">
        <ele>176.54</ele>
        <time>2014-08-15T09:14:47Z</time>
      </trkpt>
      <trkpt lat="44.59878" lon="0.87192">
        <ele>176.06</ele>
        <time>2014-08-15T09:14:48Z</time>
      </trkpt>
      <trkpt lat="44.59885" lon="0.8719">
        <ele>175.58</ele>
        <time>2014-08-15T09:14:49Z</time>
      </trkpt>
      <trkpt lat="44.59893" lon="0.87191">
        <ele>175.58</ele>
        <time>2014-08-15T09:14:50Z</time>
      </trkpt>
      <trkpt lat="44.59899" lon="0.87193">
        <ele>175.1</ele>
        <time>2014-08-15T09:14:51Z</time>
      </trkpt>
      <trkpt lat="44.59906" lon="0.87196">
        <ele>174.62</ele>
        <time>2014-08-15T09:14:52Z</time>
      </trkpt>
      <trkpt lat="44.59912" lon="0.872">
        <ele>173.66</ele>
        <time>2014-08-15T09:14:53Z</time>
      </trkpt>
      <trkpt lat="44.59918" lon="0.87204">
        <ele>173.17</ele>
        <time>2014-08-15T09:14:54Z</time>
      </trkpt>
      <trkpt lat="44.5993" lon="0.87214">
        <ele>172.21</ele>
        <time>2014-08-15T09:14:56Z</time>
      </trkpt>
      <trkpt lat="44.59956" lon="0.87243">
        <ele>170.77</ele>
        <time>2014-08-15T09:15:01Z</time>
      </trkpt>
      <trkpt lat="44.59964" lon="0.87257">
        <ele>169.81</ele>
        <time>2014-08-15T09:15:03Z</time>
      </trkpt>
      <trkpt lat="44.59968" lon="0.87265">
        <ele>169.33</ele>
        <time>2014-08-15T09:15:04Z</time>
      </trkpt>
      <trkpt lat="44.59978" lon="0.8728">
        <ele>168.85</ele>
        <time>2014-08-15T09:15:06Z</time>
      </trkpt>
      <trkpt lat="44.59984" lon="0.87286">
        <ele>168.37</ele>
        <time>2014-08-15T09:15:07Z</time>
      </trkpt>
      <trkpt lat="44.59991" lon="0.87291">
        <ele>167.89</ele>
        <time>2014-08-15T09:15:08Z</time>
      </trkpt>
      <trkpt lat="44.6" lon="0.87294">
        <ele>166.93</ele>
        <time>2014-08-15T09:15:09Z</time>
      </trkpt>
      <trkpt lat="44.60009" lon="0.87297">
        <ele>165.96</ele>
        <time>2014-08-15T09:15:10Z</time>
      </trkpt>
      <trkpt lat="44.60016" lon="0.87298">
        <ele>165</ele>
        <time>2014-08-15T09:15:11Z</time>
      </trkpt>
      <trkpt lat="44.60022" lon="0.87298">
        <ele>164.04</ele>
        <time>2014-08-15T09:15:12Z</time>
      </trkpt>
      <trkpt lat="44.60026" lon="0.87295">
        <ele>163.56</ele>
        <time>2014-08-15T09:15:13Z</time>
      </trkpt>
      <trkpt lat="44.60029" lon="0.87291">
        <ele>162.6</ele>
        <time>2014-08-15T09:15:14Z</time>
      </trkpt>
      <trkpt lat="44.6003" lon="0.87285">
        <ele>161.64</ele>
        <time>2014-08-15T09:15:15Z</time>
      </trkpt>
      <trkpt lat="44.60031" lon="0.87278">
        <ele>161.16</ele>
        <time>2014-08-15T09:15:16Z</time>
      </trkpt>
      <trkpt lat="44.60031" lon="0.87269">
        <ele>160.2</ele>
        <time>2014-08-15T09:15:17Z</time>
      </trkpt>
      <trkpt lat="44.60026" lon="0.87139">
        <ele>155.39</ele>
        <time>2014-08-15T09:15:30Z</time>
      </trkpt>
      <trkpt lat="44.60021" lon="0.87108">
        <ele>156.35</ele>
        <time>2014-08-15T09:15:34Z</time>
      </trkpt>
      <trkpt lat="44.60021" lon="0.87102">
        <ele>156.35</ele>
        <time>2014-08-15T09:15:35Z</time>
      </trkpt>
      <trkpt lat="44.60024" lon="0.87098">
        <ele>156.83</ele>
        <time>2014-08-15T09:15:36Z</time>
      </trkpt>
      <trkpt lat="44.60027" lon="0.87096">
        <ele>157.31</ele>
        <time>2014-08-15T09:15:37Z</time>
      </trkpt>
      <trkpt lat="44.60031" lon="0.87095">
        <ele>157.79</ele>
        <time>2014-08-15T09:15:38Z</time>
      </trkpt>
      <trkpt lat="44.60034" lon="0.87094">
        <ele>158.27</ele>
        <time>2014-08-15T09:15:39Z</time>
      </trkpt>
      <trkpt lat="44.60036" lon="0.87094">
        <ele>158.75</ele>
        <time>2014-08-15T09:15:40Z</time>
      </trkpt>
      <trkpt lat="44.60038" lon="0.87094">
        <ele>159.24</ele>
        <time>2014-08-15T09:15:41Z</time>
      </trkpt>
      <trkpt lat="44.60055" lon="0.87092">
        <ele>163.56</ele>
        <time>2014-08-15T09:15:53Z</time>
      </trkpt>
      <trkpt lat="44.60065" lon="0.8709">
        <ele>165.48</ele>
        <time>2014-08-15T09:16:00Z</time>
      </trkpt>
      <trkpt lat="44.60067" lon="0.8709">
        <ele>165.48</ele>
        <time>2014-08-15T09:16:01Z</time>
      </trkpt>
      <trkpt lat="44.60068" lon="0.87089">
        <ele>165.96</ele>
        <time>2014-08-15T09:16:02Z</time>
      </trkpt>
      <trkpt lat="44.60098" lon="0.8708">
        <ele>171.25</ele>
        <time>2014-08-15T09:16:17Z</time>
      </trkpt>
      <trkpt lat="44.60126" lon="0.87071">
        <ele>175.1</ele>
        <time>2014-08-15T09:16:30Z</time>
      </trkpt>
      <trkpt lat="44.6015" lon="0.87056">
        <ele>176.06</ele>
        <time>2014-08-15T09:16:43Z</time>
      </trkpt>
      <trkpt lat="44.60179" lon="0.87031">
        <ele>179.9</ele>
        <time>2014-08-15T09:16:55Z</time>
      </trkpt>
      <trkpt lat="44.60218" lon="0.87012">
        <ele>182.79</ele>
        <time>2014-08-15T09:17:07Z</time>
      </trkpt>
      <trkpt lat="44.60252" lon="0.86998">
        <ele>185.67</ele>
        <time>2014-08-15T09:17:18Z</time>
      </trkpt>
      <trkpt lat="44.60286" lon="0.86978">
        <ele>188.08</ele>
        <time>2014-08-15T09:17:30Z</time>
      </trkpt>
      <trkpt lat="44.60308" lon="0.86964">
        <ele>188.56</ele>
        <time>2014-08-15T09:17:38Z</time>
      </trkpt>
      <trkpt lat="44.60312" lon="0.86949">
        <ele>187.11</ele>
        <time>2014-08-15T09:17:41Z</time>
      </trkpt>
      <trkpt lat="44.60312" lon="0.86914">
        <ele>184.71</ele>
        <time>2014-08-15T09:17:46Z</time>
      </trkpt>
      <trkpt lat="44.60309" lon="0.86848">
        <ele>179.9</ele>
        <time>2014-08-15T09:17:52Z</time>
      </trkpt>
      <trkpt lat="44.60306" lon="0.86755">
        <ele>171.25</ele>
        <time>2014-08-15T09:18:00Z</time>
      </trkpt>
      <trkpt lat="44.60316" lon="0.86719">
        <ele>164.04</ele>
        <time>2014-08-15T09:18:07Z</time>
      </trkpt>
      <trkpt lat="44.60328" lon="0.86691">
        <ele>157.31</ele>
        <time>2014-08-15T09:18:18Z</time>
      </trkpt>
      <trkpt lat="44.60333" lon="0.86638">
        <ele>153.95</ele>
        <time>2014-08-15T09:18:31Z</time>
      </trkpt>
      <trkpt lat="44.60333" lon="0.86631">
        <ele>153.47</ele>
        <time>2014-08-15T09:18:32Z</time>
      </trkpt>
      <trkpt lat="44.60331" lon="0.86585">
        <ele>149.14</ele>
        <time>2014-08-15T09:18:38Z</time>
      </trkpt>
      <trkpt lat="44.60322" lon="0.86556">
        <ele>147.22</ele>
        <time>2014-08-15T09:18:42Z</time>
      </trkpt>
      <trkpt lat="44.60294" lon="0.8652">
        <ele>144.82</ele>
        <time>2014-08-15T09:18:49Z</time>
      </trkpt>
      <trkpt lat="44.60289" lon="0.86518">
        <ele>144.34</ele>
        <time>2014-08-15T09:18:50Z</time>
      </trkpt>
      <trkpt lat="44.60262" lon="0.86503">
        <ele>144.34</ele>
        <time>2014-08-15T09:18:57Z</time>
      </trkpt>
      <trkpt lat="44.6026" lon="0.86499">
        <ele>144.34</ele>
        <time>2014-08-15T09:18:58Z</time>
      </trkpt>
      <trkpt lat="44.60259" lon="0.86494">
        <ele>143.85</ele>
        <time>2014-08-15T09:18:59Z</time>
      </trkpt>
      <trkpt lat="44.60258" lon="0.86489">
        <ele>143.85</ele>
        <time>2014-08-15T09:19:00Z</time>
      </trkpt>
      <trkpt lat="44.60258" lon="0.86482">
        <ele>143.37</ele>
        <time>2014-08-15T09:19:01Z</time>
      </trkpt>
      <trkpt lat="44.60259" lon="0.86476">
        <ele>143.37</ele>
        <time>2014-08-15T09:19:02Z</time>
      </trkpt>
      <trkpt lat="44.60259" lon="0.8647">
        <ele>142.89</ele>
        <time>2014-08-15T09:19:03Z</time>
      </trkpt>
      <trkpt lat="44.6027" lon="0.86422">
        <ele>139.05</ele>
        <time>2014-08-15T09:19:13Z</time>
      </trkpt>
      <trkpt lat="44.60273" lon="0.86411">
        <ele>138.09</ele>
        <time>2014-08-15T09:19:15Z</time>
      </trkpt>
      <trkpt lat="44.60298" lon="0.86365">
        <ele>136.16</ele>
        <time>2014-08-15T09:19:24Z</time>
      </trkpt>
      <trkpt lat="44.603" lon="0.86355">
        <ele>135.68</ele>
        <time>2014-08-15T09:19:26Z</time>
      </trkpt>
      <trkpt lat="44.603" lon="0.8635">
        <ele>135.68</ele>
        <time>2014-08-15T09:19:27Z</time>
      </trkpt>
      <trkpt lat="44.60301" lon="0.86346">
        <ele>135.68</ele>
        <time>2014-08-15T09:19:28Z</time>
      </trkpt>
      <trkpt lat="44.60305" lon="0.8633">
        <ele>136.16</ele>
        <time>2014-08-15T09:19:32Z</time>
      </trkpt>
      <trkpt lat="44.60303" lon="0.86307">
        <ele>140.97</ele>
        <time>2014-08-15T09:19:43Z</time>
      </trkpt>
      <trkpt lat="44.60295" lon="0.86285">
        <ele>146.26</ele>
        <time>2014-08-15T09:19:54Z</time>
      </trkpt>
      <trkpt lat="44.60292" lon="0.86277">
        <ele>149.14</ele>
        <time>2014-08-15T09:19:58Z</time>
      </trkpt>
      <trkpt lat="44.60285" lon="0.86261">
        <ele>152.03</ele>
        <time>2014-08-15T09:20:05Z</time>
      </trkpt>
      <trkpt lat="44.6028" lon="0.86246">
        <ele>154.91</ele>
        <time>2014-08-15T09:20:12Z</time>
      </trkpt>
      <trkpt lat="44.60263" lon="0.86219">
        <ele>160.2</ele>
        <time>2014-08-15T09:20:26Z</time>
      </trkpt>
      <trkpt lat="44.60239" lon="0.86192">
        <ele>173.66</ele>
        <time>2014-08-15T09:20:37Z</time>
      </trkpt>
      <trkpt lat="44.60228" lon="0.8618">
        <ele>175.58</ele>
        <time>2014-08-15T09:20:42Z</time>
      </trkpt>
      <trkpt lat="44.60205" lon="0.86149">
        <ele>177.02</ele>
        <time>2014-08-15T09:20:53Z</time>
      </trkpt>
      <trkpt lat="44.602" lon="0.86138">
        <ele>177.02</ele>
        <time>2014-08-15T09:20:56Z</time>
      </trkpt>
      <trkpt lat="44.60188" lon="0.86133">
        <ele>177.98</ele>
        <time>2014-08-15T09:21:00Z</time>
      </trkpt>
      <trkpt lat="44.60145" lon="0.86144">
        <ele>181.83</ele>
        <time>2014-08-15T09:21:14Z</time>
      </trkpt>
      <trkpt lat="44.60093" lon="0.86161">
        <ele>186.63</ele>
        <time>2014-08-15T09:21:31Z</time>
      </trkpt>
      <trkpt lat="44.60063" lon="0.86175">
        <ele>187.59</ele>
        <time>2014-08-15T09:21:42Z</time>
      </trkpt>
      <trkpt lat="44.60019" lon="0.86171">
        <ele>189.04</ele>
        <time>2014-08-15T09:21:54Z</time>
      </trkpt>
      <trkpt lat="44.60012" lon="0.86168">
        <ele>189.52</ele>
        <time>2014-08-15T09:21:56Z</time>
      </trkpt>
      <trkpt lat="44.59994" lon="0.8617">
        <ele>190.48</ele>
        <time>2014-08-15T09:22:00Z</time>
      </trkpt>
      <trkpt lat="44.59949" lon="0.8618">
        <ele>192.4</ele>
        <time>2014-08-15T09:22:11Z</time>
      </trkpt>
      <trkpt lat="44.59931" lon="0.86183">
        <ele>192.4</ele>
        <time>2014-08-15T09:22:15Z</time>
      </trkpt>
      <trkpt lat="44.59911" lon="0.86181">
        <ele>191.92</ele>
        <time>2014-08-15T09:22:19Z</time>
      </trkpt>
      <trkpt lat="44.599" lon="0.8617">
        <ele>190.48</ele>
        <time>2014-08-15T09:22:23Z</time>
      </trkpt>
      <trkpt lat="44.59881" lon="0.86154">
        <ele>189.04</ele>
        <time>2014-08-15T09:22:30Z</time>
      </trkpt>
      <trkpt lat="44.5988" lon="0.86134">
        <ele>187.11</ele>
        <time>2014-08-15T09:22:34Z</time>
      </trkpt>
      <trkpt lat="44.59877" lon="0.86102">
        <ele>184.23</ele>
        <time>2014-08-15T09:22:39Z</time>
      </trkpt>
      <trkpt lat="44.59872" lon="0.86091">
        <ele>183.27</ele>
        <time>2014-08-15T09:22:41Z</time>
      </trkpt>
      <trkpt lat="44.59869" lon="0.86065">
        <ele>181.83</ele>
        <time>2014-08-15T09:22:45Z</time>
      </trkpt>
      <trkpt lat="44.59868" lon="0.86036">
        <ele>179.42</ele>
        <time>2014-08-15T09:22:49Z</time>
      </trkpt>
      <trkpt lat="44.59853" lon="0.8597">
        <ele>173.66</ele>
        <time>2014-08-15T09:23:00Z</time>
      </trkpt>
      <trkpt lat="44.59836" lon="0.8592">
        <ele>169.81</ele>
        <time>2014-08-15T09:23:09Z</time>
      </trkpt>
      <trkpt lat="44.59832" lon="0.85895">
        <ele>167.89</ele>
        <time>2014-08-15T09:23:13Z</time>
      </trkpt>
      <trkpt lat="44.5983" lon="0.85883">
        <ele>166.93</ele>
        <time>2014-08-15T09:23:15Z</time>
      </trkpt>
      <trkpt lat="44.59826" lon="0.85818">
        <ele>164.04</ele>
        <time>2014-08-15T09:23:26Z</time>
      </trkpt>
      <trkpt lat="44.59829" lon="0.85796">
        <ele>163.56</ele>
        <time>2014-08-15T09:23:30Z</time>
      </trkpt>
      <trkpt lat="44.59827" lon="0.85788">
        <ele>165</ele>
        <time>2014-08-15T09:23:32Z</time>
      </trkpt>
      <trkpt lat="44.59763" lon="0.85766">
        <ele>167.41</ele>
        <time>2014-08-15T09:23:46Z</time>
      </trkpt>
      <trkpt lat="44.59676" lon="0.85741">
        <ele>173.66</ele>
        <time>2014-08-15T09:24:02Z</time>
      </trkpt>
      <trkpt lat="44.59583" lon="0.85717">
        <ele>176.54</ele>
        <time>2014-08-15T09:24:18Z</time>
      </trkpt>
      <trkpt lat="44.59496" lon="0.85696">
        <ele>178.46</ele>
        <time>2014-08-15T09:24:33Z</time>
      </trkpt>
      <trkpt lat="44.59472" lon="0.8569">
        <ele>179.42</ele>
        <time>2014-08-15T09:24:40Z</time>
      </trkpt>
      <trkpt lat="44.59467" lon="0.85689">
        <ele>179.42</ele>
        <time>2014-08-15T09:24:41Z</time>
      </trkpt>
      <trkpt lat="44.59459" lon="0.85688">
        <ele>179.9</ele>
        <time>2014-08-15T09:24:43Z</time>
      </trkpt>
      <trkpt lat="44.59454" lon="0.85687">
        <ele>180.38</ele>
        <time>2014-08-15T09:24:44Z</time>
      </trkpt>
      <trkpt lat="44.5945" lon="0.85686">
        <ele>180.38</ele>
        <time>2014-08-15T09:24:45Z</time>
      </trkpt>
      <trkpt lat="44.59388" lon="0.85664">
        <ele>182.31</ele>
        <time>2014-08-15T09:24:59Z</time>
      </trkpt>
      <trkpt lat="44.59379" lon="0.8566">
        <ele>182.31</ele>
        <time>2014-08-15T09:25:01Z</time>
      </trkpt>
      <trkpt lat="44.59305" lon="0.85622">
        <ele>181.35</ele>
        <time>2014-08-15T09:25:16Z</time>
      </trkpt>
      <trkpt lat="44.59211" lon="0.85572">
        <ele>180.38</ele>
        <time>2014-08-15T09:25:33Z</time>
      </trkpt>
      <trkpt lat="44.59168" lon="0.85557">
        <ele>180.38</ele>
        <time>2014-08-15T09:25:42Z</time>
      </trkpt>
      <trkpt lat="44.59166" lon="0.85559">
        <ele>180.38</ele>
        <time>2014-08-15T09:25:43Z</time>
      </trkpt>
      <trkpt lat="44.59162" lon="0.85583">
        <ele>181.35</ele>
        <time>2014-08-15T09:25:48Z</time>
      </trkpt>
      <trkpt lat="44.59158" lon="0.85615">
        <ele>181.83</ele>
        <time>2014-08-15T09:25:54Z</time>
      </trkpt>
      <trkpt lat="44.59119" lon="0.85609">
        <ele>181.35</ele>
        <time>2014-08-15T09:26:04Z</time>
      </trkpt>
      <trkpt lat="44.5907" lon="0.85596">
        <ele>182.79</ele>
        <time>2014-08-15T09:26:17Z</time>
      </trkpt>
      <trkpt lat="44.59045" lon="0.85589">
        <ele>183.27</ele>
        <time>2014-08-15T09:26:24Z</time>
      </trkpt>
      <trkpt lat="44.59008" lon="0.8558">
        <ele>181.83</ele>
        <time>2014-08-15T09:26:33Z</time>
      </trkpt>
      <trkpt lat="44.58995" lon="0.85577">
        <ele>181.35</ele>
        <time>2014-08-15T09:26:36Z</time>
      </trkpt>
      <trkpt lat="44.58948" lon="0.85565">
        <ele>178.94</ele>
        <time>2014-08-15T09:26:46Z</time>
      </trkpt>
      <trkpt lat="44.58943" lon="0.85563">
        <ele>178.94</ele>
        <time>2014-08-15T09:26:47Z</time>
      </trkpt>
      <trkpt lat="44.58939" lon="0.85562">
        <ele>178.46</ele>
        <time>2014-08-15T09:26:48Z</time>
      </trkpt>
      <trkpt lat="44.58934" lon="0.85562">
        <ele>178.46</ele>
        <time>2014-08-15T09:26:49Z</time>
      </trkpt>
      <trkpt lat="44.58929" lon="0.85561">
        <ele>178.46</ele>
        <time>2014-08-15T09:26:50Z</time>
      </trkpt>
      <trkpt lat="44.58923" lon="0.8556">
        <ele>178.46</ele>
        <time>2014-08-15T09:26:51Z</time>
      </trkpt>
      <trkpt lat="44.58918" lon="0.85557">
        <ele>178.46</ele>
        <time>2014-08-15T09:26:52Z</time>
      </trkpt>
      <trkpt lat="44.58912" lon="0.85555">
        <ele>177.98</ele>
        <time>2014-08-15T09:26:53Z</time>
      </trkpt>
      <trkpt lat="44.58906" lon="0.85553">
        <ele>177.98</ele>
        <time>2014-08-15T09:26:54Z</time>
      </trkpt>
      <trkpt lat="44.58829" lon="0.85534">
        <ele>177.02</ele>
        <time>2014-08-15T09:27:06Z</time>
      </trkpt>
      <trkpt lat="44.58761" lon="0.85522">
        <ele>178.94</ele>
        <time>2014-08-15T09:27:17Z</time>
      </trkpt>
      <trkpt lat="44.58719" lon="0.85513">
        <ele>179.9</ele>
        <time>2014-08-15T09:27:24Z</time>
      </trkpt>
      <trkpt lat="44.58713" lon="0.85512">
        <ele>179.9</ele>
        <time>2014-08-15T09:27:25Z</time>
      </trkpt>
      <trkpt lat="44.58649" lon="0.85496">
        <ele>180.87</ele>
        <time>2014-08-15T09:27:37Z</time>
      </trkpt>
      <trkpt lat="44.58597" lon="0.85482">
        <ele>181.83</ele>
        <time>2014-08-15T09:27:48Z</time>
      </trkpt>
      <trkpt lat="44.5856" lon="0.85473">
        <ele>183.75</ele>
        <time>2014-08-15T09:27:56Z</time>
      </trkpt>
      <trkpt lat="44.58512" lon="0.85482">
        <ele>187.59</ele>
        <time>2014-08-15T09:28:08Z</time>
      </trkpt>
      <trkpt lat="44.58479" lon="0.85508">
        <ele>191.44</ele>
        <time>2014-08-15T09:28:17Z</time>
      </trkpt>
      <trkpt lat="44.5845" lon="0.85529">
        <ele>193.36</ele>
        <time>2014-08-15T09:28:24Z</time>
      </trkpt>
      <trkpt lat="44.58435" lon="0.85537">
        <ele>193.84</ele>
        <time>2014-08-15T09:28:27Z</time>
      </trkpt>
      <trkpt lat="44.5843" lon="0.85539">
        <ele>194.32</ele>
        <time>2014-08-15T09:28:28Z</time>
      </trkpt>
      <trkpt lat="44.58414" lon="0.85547">
        <ele>195.77</ele>
        <time>2014-08-15T09:28:31Z</time>
      </trkpt>
      <trkpt lat="44.58408" lon="0.85548">
        <ele>195.77</ele>
        <time>2014-08-15T09:28:32Z</time>
      </trkpt>
      <trkpt lat="44.58331" lon="0.85573">
        <ele>196.73</ele>
        <time>2014-08-15T09:28:45Z</time>
      </trkpt>
      <trkpt lat="44.58306" lon="0.85582">
        <ele>196.25</ele>
        <time>2014-08-15T09:28:49Z</time>
      </trkpt>
      <trkpt lat="44.583" lon="0.85584">
        <ele>195.77</ele>
        <time>2014-08-15T09:28:50Z</time>
      </trkpt>
      <trkpt lat="44.58252" lon="0.85602">
        <ele>194.8</ele>
        <time>2014-08-15T09:28:59Z</time>
      </trkpt>
      <trkpt lat="44.58227" lon="0.85629">
        <ele>196.25</ele>
        <time>2014-08-15T09:29:06Z</time>
      </trkpt>
      <trkpt lat="44.58214" lon="0.85652">
        <ele>197.21</ele>
        <time>2014-08-15T09:29:10Z</time>
      </trkpt>
      <trkpt lat="44.58211" lon="0.85658">
        <ele>197.21</ele>
        <time>2014-08-15T09:29:11Z</time>
      </trkpt>
      <trkpt lat="44.58168" lon="0.8574">
        <ele>200.09</ele>
        <time>2014-08-15T09:29:22Z</time>
      </trkpt>
      <trkpt lat="44.58154" lon="0.8576">
        <ele>200.57</ele>
        <time>2014-08-15T09:29:25Z</time>
      </trkpt>
      <trkpt lat="44.58148" lon="0.85764">
        <ele>200.57</ele>
        <time>2014-08-15T09:29:26Z</time>
      </trkpt>
      <trkpt lat="44.58143" lon="0.85769">
        <ele>200.57</ele>
        <time>2014-08-15T09:29:27Z</time>
      </trkpt>
      <trkpt lat="44.58127" lon="0.85778">
        <ele>200.57</ele>
        <time>2014-08-15T09:29:30Z</time>
      </trkpt>
      <trkpt lat="44.58122" lon="0.85782">
        <ele>200.09</ele>
        <time>2014-08-15T09:29:31Z</time>
      </trkpt>
      <trkpt lat="44.58044" lon="0.8582">
        <ele>195.28</ele>
        <time>2014-08-15T09:29:45Z</time>
      </trkpt>
      <trkpt lat="44.57959" lon="0.85864">
        <ele>188.56</ele>
        <time>2014-08-15T09:29:59Z</time>
      </trkpt>
      <trkpt lat="44.57937" lon="0.85876">
        <ele>187.11</ele>
        <time>2014-08-15T09:30:03Z</time>
      </trkpt>
      <trkpt lat="44.57869" lon="0.85906">
        <ele>185.19</ele>
        <time>2014-08-15T09:30:15Z</time>
      </trkpt>
      <trkpt lat="44.57867" lon="0.85904">
        <ele>184.71</ele>
        <time>2014-08-15T09:30:16Z</time>
      </trkpt>
      <trkpt lat="44.57864" lon="0.85902">
        <ele>184.71</ele>
        <time>2014-08-15T09:30:17Z</time>
      </trkpt>
      <trkpt lat="44.57861" lon="0.859">
        <ele>184.71</ele>
        <time>2014-08-15T09:30:18Z</time>
      </trkpt>
      <trkpt lat="44.57858" lon="0.85899">
        <ele>184.71</ele>
        <time>2014-08-15T09:30:19Z</time>
      </trkpt>
      <trkpt lat="44.57856" lon="0.85899">
        <ele>184.71</ele>
        <time>2014-08-15T09:30:20Z</time>
      </trkpt>
      <trkpt lat="44.57853" lon="0.85901">
        <ele>185.19</ele>
        <time>2014-08-15T09:30:21Z</time>
      </trkpt>
      <trkpt lat="44.57834" lon="0.85894">
        <ele>185.19</ele>
        <time>2014-08-15T09:30:27Z</time>
      </trkpt>
      <trkpt lat="44.57817" lon="0.85875">
        <ele>183.27</ele>
        <time>2014-08-15T09:30:31Z</time>
      </trkpt>
      <trkpt lat="44.57809" lon="0.85861">
        <ele>181.83</ele>
        <time>2014-08-15T09:30:33Z</time>
      </trkpt>
      <trkpt lat="44.57802" lon="0.85845">
        <ele>180.38</ele>
        <time>2014-08-15T09:30:35Z</time>
      </trkpt>
      <trkpt lat="44.57785" lon="0.85814">
        <ele>177.98</ele>
        <time>2014-08-15T09:30:39Z</time>
      </trkpt>
      <trkpt lat="44.57739" lon="0.85692">
        <ele>173.17</ele>
        <time>2014-08-15T09:30:54Z</time>
      </trkpt>
      <trkpt lat="44.57729" lon="0.85667">
        <ele>172.21</ele>
        <time>2014-08-15T09:30:58Z</time>
      </trkpt>
      <trkpt lat="44.5772" lon="0.8563">
        <ele>171.25</ele>
        <time>2014-08-15T09:31:03Z</time>
      </trkpt>
      <trkpt lat="44.57709" lon="0.85575">
        <ele>170.29</ele>
        <time>2014-08-15T09:31:13Z</time>
      </trkpt>
      <trkpt lat="44.57717" lon="0.85525">
        <ele>173.66</ele>
        <time>2014-08-15T09:31:23Z</time>
      </trkpt>
      <trkpt lat="44.57716" lon="0.85489">
        <ele>176.54</ele>
        <time>2014-08-15T09:31:32Z</time>
      </trkpt>
      <trkpt lat="44.57692" lon="0.85456">
        <ele>179.42</ele>
        <time>2014-08-15T09:31:44Z</time>
      </trkpt>
      <trkpt lat="44.57668" lon="0.85441">
        <ele>181.83</ele>
        <time>2014-08-15T09:31:55Z</time>
      </trkpt>
      <trkpt lat="44.57652" lon="0.85421">
        <ele>184.71</ele>
        <time>2014-08-15T09:32:04Z</time>
      </trkpt>
      <trkpt lat="44.57651" lon="0.8542">
        <ele>185.19</ele>
        <time>2014-08-15T09:32:05Z</time>
      </trkpt>
      <trkpt lat="44.57649" lon="0.8542">
        <ele>185.19</ele>
        <time>2014-08-15T09:32:06Z</time>
      </trkpt>
      <trkpt lat="44.57647" lon="0.85421">
        <ele>185.67</ele>
        <time>2014-08-15T09:32:07Z</time>
      </trkpt>
      <trkpt lat="44.57646" lon="0.85423">
        <ele>186.15</ele>
        <time>2014-08-15T09:32:08Z</time>
      </trkpt>
      <trkpt lat="44.57646" lon="0.85425">
        <ele>186.15</ele>
        <time>2014-08-15T09:32:09Z</time>
      </trkpt>
      <trkpt lat="44.57645" lon="0.85428">
        <ele>186.15</ele>
        <time>2014-08-15T09:32:10Z</time>
      </trkpt>
      <trkpt lat="44.57644" lon="0.85431">
        <ele>186.15</ele>
        <time>2014-08-15T09:32:11Z</time>
      </trkpt>
      <trkpt lat="44.57643" lon="0.85435">
        <ele>186.63</ele>
        <time>2014-08-15T09:32:12Z</time>
      </trkpt>
      <trkpt lat="44.57622" lon="0.8548">
        <ele>190</ele>
        <time>2014-08-15T09:32:23Z</time>
      </trkpt>
      <trkpt lat="44.576" lon="0.85526">
        <ele>190.96</ele>
        <time>2014-08-15T09:32:35Z</time>
      </trkpt>
      <trkpt lat="44.5756" lon="0.85586">
        <ele>190.96</ele>
        <time>2014-08-15T09:32:49Z</time>
      </trkpt>
      <trkpt lat="44.57526" lon="0.85623">
        <ele>192.88</ele>
        <time>2014-08-15T09:32:59Z</time>
      </trkpt>
      <trkpt lat="44.57522" lon="0.85627">
        <ele>192.88</ele>
        <time>2014-08-15T09:33:00Z</time>
      </trkpt>
      <trkpt lat="44.57494" lon="0.85664">
        <ele>194.32</ele>
        <time>2014-08-15T09:33:09Z</time>
      </trkpt>
      <trkpt lat="44.57446" lon="0.85762">
        <ele>195.28</ele>
        <time>2014-08-15T09:33:28Z</time>
      </trkpt>
      <trkpt lat="44.574" lon="0.85859">
        <ele>194.32</ele>
        <time>2014-08-15T09:33:45Z</time>
      </trkpt>
      <trkpt lat="44.57386" lon="0.85887">
        <ele>193.84</ele>
        <time>2014-08-15T09:33:50Z</time>
      </trkpt>
      <trkpt lat="44.57381" lon="0.859">
        <ele>193.84</ele>
        <time>2014-08-15T09:33:52Z</time>
      </trkpt>
      <trkpt lat="44.57379" lon="0.85906">
        <ele>193.84</ele>
        <time>2014-08-15T09:33:53Z</time>
      </trkpt>
      <trkpt lat="44.57371" lon="0.85931">
        <ele>194.8</ele>
        <time>2014-08-15T09:33:57Z</time>
      </trkpt>
      <trkpt lat="44.57368" lon="0.85937">
        <ele>194.8</ele>
        <time>2014-08-15T09:33:58Z</time>
      </trkpt>
      <trkpt lat="44.57366" lon="0.85943">
        <ele>195.28</ele>
        <time>2014-08-15T09:33:59Z</time>
      </trkpt>
      <trkpt lat="44.57331" lon="0.86018">
        <ele>200.09</ele>
        <time>2014-08-15T09:34:12Z</time>
      </trkpt>
      <trkpt lat="44.57326" lon="0.86031">
        <ele>200.57</ele>
        <time>2014-08-15T09:34:14Z</time>
      </trkpt>
      <trkpt lat="44.57324" lon="0.86037">
        <ele>200.57</ele>
        <time>2014-08-15T09:34:15Z</time>
      </trkpt>
      <trkpt lat="44.57322" lon="0.86049">
        <ele>201.53</ele>
        <time>2014-08-15T09:34:17Z</time>
      </trkpt>
      <trkpt lat="44.57314" lon="0.86102">
        <ele>201.53</ele>
        <time>2014-08-15T09:34:26Z</time>
      </trkpt>
      <trkpt lat="44.57312" lon="0.86127">
        <ele>202.49</ele>
        <time>2014-08-15T09:34:30Z</time>
      </trkpt>
      <trkpt lat="44.57312" lon="0.86133">
        <ele>202.98</ele>
        <time>2014-08-15T09:34:31Z</time>
      </trkpt>
      <trkpt lat="44.57312" lon="0.86139">
        <ele>202.98</ele>
        <time>2014-08-15T09:34:32Z</time>
      </trkpt>
      <trkpt lat="44.57311" lon="0.86151">
        <ele>203.94</ele>
        <time>2014-08-15T09:34:34Z</time>
      </trkpt>
      <trkpt lat="44.57312" lon="0.86157">
        <ele>204.42</ele>
        <time>2014-08-15T09:34:35Z</time>
      </trkpt>
      <trkpt lat="44.57319" lon="0.86209">
        <ele>204.42</ele>
        <time>2014-08-15T09:34:44Z</time>
      </trkpt>
      <trkpt lat="44.57321" lon="0.86244">
        <ele>204.9</ele>
        <time>2014-08-15T09:34:50Z</time>
      </trkpt>
      <trkpt lat="44.57322" lon="0.8625">
        <ele>205.38</ele>
        <time>2014-08-15T09:34:51Z</time>
      </trkpt>
      <trkpt lat="44.57324" lon="0.86273">
        <ele>205.38</ele>
        <time>2014-08-15T09:34:55Z</time>
      </trkpt>
      <trkpt lat="44.57324" lon="0.86279">
        <ele>205.86</ele>
        <time>2014-08-15T09:34:56Z</time>
      </trkpt>
      <trkpt lat="44.57332" lon="0.86324">
        <ele>205.86</ele>
        <time>2014-08-15T09:35:03Z</time>
      </trkpt>
      <trkpt lat="44.57333" lon="0.86331">
        <ele>205.86</ele>
        <time>2014-08-15T09:35:04Z</time>
      </trkpt>
      <trkpt lat="44.5734" lon="0.86394">
        <ele>206.34</ele>
        <time>2014-08-15T09:35:13Z</time>
      </trkpt>
      <trkpt lat="44.57342" lon="0.86401">
        <ele>205.86</ele>
        <time>2014-08-15T09:35:14Z</time>
      </trkpt>
      <trkpt lat="44.57345" lon="0.86408">
        <ele>205.38</ele>
        <time>2014-08-15T09:35:15Z</time>
      </trkpt>
      <trkpt lat="44.57355" lon="0.86436">
        <ele>203.94</ele>
        <time>2014-08-15T09:35:19Z</time>
      </trkpt>
      <trkpt lat="44.57356" lon="0.86443">
        <ele>203.94</ele>
        <time>2014-08-15T09:35:20Z</time>
      </trkpt>
      <trkpt lat="44.57355" lon="0.86451">
        <ele>203.94</ele>
        <time>2014-08-15T09:35:21Z</time>
      </trkpt>
      <trkpt lat="44.57334" lon="0.86553">
        <ele>203.46</ele>
        <time>2014-08-15T09:35:34Z</time>
      </trkpt>
      <trkpt lat="44.57331" lon="0.8656">
        <ele>203.46</ele>
        <time>2014-08-15T09:35:35Z</time>
      </trkpt>
      <trkpt lat="44.57328" lon="0.86567">
        <ele>203.46</ele>
        <time>2014-08-15T09:35:36Z</time>
      </trkpt>
      <trkpt lat="44.57286" lon="0.8667">
        <ele>206.34</ele>
        <time>2014-08-15T09:35:50Z</time>
      </trkpt>
      <trkpt lat="44.57241" lon="0.86773">
        <ele>205.86</ele>
        <time>2014-08-15T09:36:03Z</time>
      </trkpt>
      <trkpt lat="44.57237" lon="0.86787">
        <ele>205.38</ele>
        <time>2014-08-15T09:36:05Z</time>
      </trkpt>
      <trkpt lat="44.57236" lon="0.86795">
        <ele>205.38</ele>
        <time>2014-08-15T09:36:06Z</time>
      </trkpt>
      <trkpt lat="44.57232" lon="0.86811">
        <ele>204.9</ele>
        <time>2014-08-15T09:36:08Z</time>
      </trkpt>
      <trkpt lat="44.5723" lon="0.86818">
        <ele>204.9</ele>
        <time>2014-08-15T09:36:09Z</time>
      </trkpt>
      <trkpt lat="44.57227" lon="0.86825">
        <ele>204.42</ele>
        <time>2014-08-15T09:36:10Z</time>
      </trkpt>
      <trkpt lat="44.57207" lon="0.86882">
        <ele>203.46</ele>
        <time>2014-08-15T09:36:18Z</time>
      </trkpt>
      <trkpt lat="44.57204" lon="0.86887">
        <ele>203.46</ele>
        <time>2014-08-15T09:36:19Z</time>
      </trkpt>
      <trkpt lat="44.572" lon="0.86896">
        <ele>202.98</ele>
        <time>2014-08-15T09:36:21Z</time>
      </trkpt>
      <trkpt lat="44.572" lon="0.86899">
        <ele>202.98</ele>
        <time>2014-08-15T09:36:22Z</time>
      </trkpt>
      <trkpt lat="44.57199" lon="0.86901">
        <ele>202.98</ele>
        <time>2014-08-15T09:36:23Z</time>
      </trkpt>
      <trkpt lat="44.57199" lon="0.86903">
        <ele>202.49</ele>
        <time>2014-08-15T09:36:24Z</time>
      </trkpt>
      <trkpt lat="44.572" lon="0.86909">
        <ele>202.98</ele>
        <time>2014-08-15T09:36:29Z</time>
      </trkpt>
      <trkpt lat="44.57199" lon="0.86917">
        <ele>205.38</ele>
        <time>2014-08-15T09:36:34Z</time>
      </trkpt>
      <trkpt lat="44.57198" lon="0.86919">
        <ele>205.86</ele>
        <time>2014-08-15T09:36:35Z</time>
      </trkpt>
      <trkpt lat="44.57178" lon="0.86968">
        <ele>210.19</ele>
        <time>2014-08-15T09:36:46Z</time>
      </trkpt>
      <trkpt lat="44.57172" lon="0.86979">
        <ele>210.19</ele>
        <time>2014-08-15T09:36:48Z</time>
      </trkpt>
      <trkpt lat="44.57169" lon="0.86983">
        <ele>209.7</ele>
        <time>2014-08-15T09:36:49Z</time>
      </trkpt>
      <trkpt lat="44.57111" lon="0.87042">
        <ele>206.82</ele>
        <time>2014-08-15T09:37:02Z</time>
      </trkpt>
      <trkpt lat="44.57107" lon="0.87047">
        <ele>206.82</ele>
        <time>2014-08-15T09:37:03Z</time>
      </trkpt>
      <trkpt lat="44.57086" lon="0.87075">
        <ele>207.3</ele>
        <time>2014-08-15T09:37:08Z</time>
      </trkpt>
      <trkpt lat="44.57081" lon="0.8708">
        <ele>207.3</ele>
        <time>2014-08-15T09:37:09Z</time>
      </trkpt>
      <trkpt lat="44.5707" lon="0.87089">
        <ele>207.3</ele>
        <time>2014-08-15T09:37:11Z</time>
      </trkpt>
      <trkpt lat="44.57026" lon="0.87114">
        <ele>208.26</ele>
        <time>2014-08-15T09:37:19Z</time>
      </trkpt>
      <trkpt lat="44.56989" lon="0.8713">
        <ele>208.74</ele>
        <time>2014-08-15T09:37:25Z</time>
      </trkpt>
      <trkpt lat="44.56971" lon="0.87136">
        <ele>208.74</ele>
        <time>2014-08-15T09:37:28Z</time>
      </trkpt>
      <trkpt lat="44.56965" lon="0.87137">
        <ele>207.78</ele>
        <time>2014-08-15T09:37:29Z</time>
      </trkpt>
      <trkpt lat="44.56954" lon="0.87139">
        <ele>206.82</ele>
        <time>2014-08-15T09:37:31Z</time>
      </trkpt>
      <trkpt lat="44.56921" lon="0.87144">
        <ele>204.9</ele>
        <time>2014-08-15T09:37:37Z</time>
      </trkpt>
      <trkpt lat="44.56915" lon="0.87146">
        <ele>204.9</ele>
        <time>2014-08-15T09:37:38Z</time>
      </trkpt>
      <trkpt lat="44.56868" lon="0.87153">
        <ele>203.94</ele>
        <time>2014-08-15T09:37:46Z</time>
      </trkpt>
      <trkpt lat="44.56863" lon="0.87153">
        <ele>203.94</ele>
        <time>2014-08-15T09:37:47Z</time>
      </trkpt>
      <trkpt lat="44.56857" lon="0.87152">
        <ele>203.46</ele>
        <time>2014-08-15T09:37:48Z</time>
      </trkpt>
      <trkpt lat="44.56845" lon="0.87152">
        <ele>202.98</ele>
        <time>2014-08-15T09:37:50Z</time>
      </trkpt>
      <trkpt lat="44.56766" lon="0.87174">
        <ele>202.98</ele>
        <time>2014-08-15T09:38:04Z</time>
      </trkpt>
      <trkpt lat="44.56694" lon="0.8719">
        <ele>204.42</ele>
        <time>2014-08-15T09:38:18Z</time>
      </trkpt>
      <trkpt lat="44.5669" lon="0.87191">
        <ele>204.9</ele>
        <time>2014-08-15T09:38:19Z</time>
      </trkpt>
      <trkpt lat="44.56676" lon="0.87194">
        <ele>204.9</ele>
        <time>2014-08-15T09:38:22Z</time>
      </trkpt>
      <trkpt lat="44.56628" lon="0.87206">
        <ele>203.46</ele>
        <time>2014-08-15T09:38:29Z</time>
      </trkpt>
      <trkpt lat="44.56619" lon="0.87206">
        <ele>202.98</ele>
        <time>2014-08-15T09:38:30Z</time>
      </trkpt>
      <trkpt lat="44.56509" lon="0.87209">
        <ele>199.13</ele>
        <time>2014-08-15T09:38:43Z</time>
      </trkpt>
      <trkpt lat="44.56442" lon="0.87206">
        <ele>198.65</ele>
        <time>2014-08-15T09:38:53Z</time>
      </trkpt>
      <trkpt lat="44.56414" lon="0.87208">
        <ele>199.13</ele>
        <time>2014-08-15T09:38:58Z</time>
      </trkpt>
      <trkpt lat="44.56409" lon="0.87209">
        <ele>199.13</ele>
        <time>2014-08-15T09:38:59Z</time>
      </trkpt>
      <trkpt lat="44.56387" lon="0.87215">
        <ele>199.61</ele>
        <time>2014-08-15T09:39:03Z</time>
      </trkpt>
      <trkpt lat="44.56383" lon="0.87214">
        <ele>199.13</ele>
        <time>2014-08-15T09:39:04Z</time>
      </trkpt>
      <trkpt lat="44.5638" lon="0.87211">
        <ele>199.13</ele>
        <time>2014-08-15T09:39:05Z</time>
      </trkpt>
      <trkpt lat="44.56375" lon="0.87187">
        <ele>197.69</ele>
        <time>2014-08-15T09:39:10Z</time>
      </trkpt>
      <trkpt lat="44.56335" lon="0.87156">
        <ele>192.88</ele>
        <time>2014-08-15T09:39:20Z</time>
      </trkpt>
      <trkpt lat="44.56327" lon="0.87155">
        <ele>192.4</ele>
        <time>2014-08-15T09:39:22Z</time>
      </trkpt>
      <trkpt lat="44.56304" lon="0.87127">
        <ele>191.44</ele>
        <time>2014-08-15T09:39:30Z</time>
      </trkpt>
      <trkpt lat="44.563" lon="0.8709">
        <ele>190.96</ele>
        <time>2014-08-15T09:39:34Z</time>
      </trkpt>
      <trkpt lat="44.56294" lon="0.87027">
        <ele>189.04</ele>
        <time>2014-08-15T09:39:44Z</time>
      </trkpt>
      <trkpt lat="44.56292" lon="0.87006">
        <ele>189.04</ele>
        <time>2014-08-15T09:39:47Z</time>
      </trkpt>
      <trkpt lat="44.5629" lon="0.86984">
        <ele>189.04</ele>
        <time>2014-08-15T09:39:50Z</time>
      </trkpt>
      <trkpt lat="44.56287" lon="0.86954">
        <ele>188.56</ele>
        <time>2014-08-15T09:39:54Z</time>
      </trkpt>
      <trkpt lat="44.56279" lon="0.86912">
        <ele>187.59</ele>
        <time>2014-08-15T09:40:01Z</time>
      </trkpt>
      <trkpt lat="44.56278" lon="0.86886">
        <ele>187.59</ele>
        <time>2014-08-15T09:40:05Z</time>
      </trkpt>
      <trkpt lat="44.56286" lon="0.86875">
        <ele>188.08</ele>
        <time>2014-08-15T09:40:09Z</time>
      </trkpt>
      <trkpt lat="44.56292" lon="0.86871">
        <ele>188.08</ele>
        <time>2014-08-15T09:40:11Z</time>
      </trkpt>
      <trkpt lat="44.56305" lon="0.86866">
        <ele>189.52</ele>
        <time>2014-08-15T09:40:16Z</time>
      </trkpt>
      <trkpt lat="44.56309" lon="0.86832">
        <ele>190</ele>
        <time>2014-08-15T09:40:24Z</time>
      </trkpt>
      <trkpt lat="44.56327" lon="0.86817">
        <ele>187.59</ele>
        <time>2014-08-15T09:40:31Z</time>
      </trkpt>
      <trkpt lat="44.56332" lon="0.86799">
        <ele>186.15</ele>
        <time>2014-08-15T09:40:35Z</time>
      </trkpt>
      <trkpt lat="44.56331" lon="0.86749">
        <ele>180.87</ele>
        <time>2014-08-15T09:40:42Z</time>
      </trkpt>
      <trkpt lat="44.56323" lon="0.86676">
        <ele>178.46</ele>
        <time>2014-08-15T09:40:53Z</time>
      </trkpt>
      <trkpt lat="44.56314" lon="0.8666">
        <ele>179.42</ele>
        <time>2014-08-15T09:40:55Z</time>
      </trkpt>
      <trkpt lat="44.56303" lon="0.86621">
        <ele>179.42</ele>
        <time>2014-08-15T09:41:00Z</time>
      </trkpt>
      <trkpt lat="44.56315" lon="0.86584">
        <ele>181.83</ele>
        <time>2014-08-15T09:41:06Z</time>
      </trkpt>
      <trkpt lat="44.56346" lon="0.86527">
        <ele>181.83</ele>
        <time>2014-08-15T09:41:14Z</time>
      </trkpt>
      <trkpt lat="44.56353" lon="0.86514">
        <ele>181.83</ele>
        <time>2014-08-15T09:41:16Z</time>
      </trkpt>
      <trkpt lat="44.5637" lon="0.86465">
        <ele>181.83</ele>
        <time>2014-08-15T09:41:22Z</time>
      </trkpt>
      <trkpt lat="44.56376" lon="0.86422">
        <ele>180.87</ele>
        <time>2014-08-15T09:41:27Z</time>
      </trkpt>
      <trkpt lat="44.56365" lon="0.86376">
        <ele>177.98</ele>
        <time>2014-08-15T09:41:33Z</time>
      </trkpt>
      <trkpt lat="44.56358" lon="0.86342">
        <ele>176.06</ele>
        <time>2014-08-15T09:41:37Z</time>
      </trkpt>
      <trkpt lat="44.56349" lon="0.86282">
        <ele>173.66</ele>
        <time>2014-08-15T09:41:46Z</time>
      </trkpt>
      <trkpt lat="44.56348" lon="0.86268">
        <ele>173.17</ele>
        <time>2014-08-15T09:41:48Z</time>
      </trkpt>
      <trkpt lat="44.56344" lon="0.86241">
        <ele>172.21</ele>
        <time>2014-08-15T09:41:52Z</time>
      </trkpt>
      <trkpt lat="44.56331" lon="0.86212">
        <ele>169.81</ele>
        <time>2014-08-15T09:41:56Z</time>
      </trkpt>
      <trkpt lat="44.56284" lon="0.86153">
        <ele>165</ele>
        <time>2014-08-15T09:42:07Z</time>
      </trkpt>
      <trkpt lat="44.56283" lon="0.86151">
        <ele>164.52</ele>
        <time>2014-08-15T09:42:09Z</time>
      </trkpt>
      <trkpt lat="44.56286" lon="0.86145">
        <ele>165.96</ele>
        <time>2014-08-15T09:42:16Z</time>
      </trkpt>
      <trkpt lat="44.56288" lon="0.86144">
        <ele>165.96</ele>
        <time>2014-08-15T09:42:17Z</time>
      </trkpt>
      <trkpt lat="44.5629" lon="0.86144">
        <ele>165.48</ele>
        <time>2014-08-15T09:42:18Z</time>
      </trkpt>
      <trkpt lat="44.5632" lon="0.86138">
        <ele>165.48</ele>
        <time>2014-08-15T09:42:30Z</time>
      </trkpt>
      <trkpt lat="44.56367" lon="0.86131">
        <ele>164.04</ele>
        <time>2014-08-15T09:42:44Z</time>
      </trkpt>
      <trkpt lat="44.56401" lon="0.86127">
        <ele>165</ele>
        <time>2014-08-15T09:42:53Z</time>
      </trkpt>
      <trkpt lat="44.56406" lon="0.86126">
        <ele>165</ele>
        <time>2014-08-15T09:42:54Z</time>
      </trkpt>
      <trkpt lat="44.56424" lon="0.86124">
        <ele>165.96</ele>
        <time>2014-08-15T09:42:59Z</time>
      </trkpt>
      <trkpt lat="44.56428" lon="0.86124">
        <ele>165.96</ele>
        <time>2014-08-15T09:43:00Z</time>
      </trkpt>
      <trkpt lat="44.56483" lon="0.86117">
        <ele>165</ele>
        <time>2014-08-15T09:43:12Z</time>
      </trkpt>
      <trkpt lat="44.5654" lon="0.86108">
        <ele>165.96</ele>
        <time>2014-08-15T09:43:24Z</time>
      </trkpt>
      <trkpt lat="44.5655" lon="0.86104">
        <ele>166.45</ele>
        <time>2014-08-15T09:43:26Z</time>
      </trkpt>
      <trkpt lat="44.56554" lon="0.86101">
        <ele>167.41</ele>
        <time>2014-08-15T09:43:27Z</time>
      </trkpt>
      <trkpt lat="44.5657" lon="0.86085">
        <ele>169.81</ele>
        <time>2014-08-15T09:43:31Z</time>
      </trkpt>
      <trkpt lat="44.56574" lon="0.8608">
        <ele>170.29</ele>
        <time>2014-08-15T09:43:32Z</time>
      </trkpt>
      <trkpt lat="44.56577" lon="0.86074">
        <ele>171.25</ele>
        <time>2014-08-15T09:43:33Z</time>
      </trkpt>
      <trkpt lat="44.56579" lon="0.86068">
        <ele>171.73</ele>
        <time>2014-08-15T09:43:34Z</time>
      </trkpt>
      <trkpt lat="44.56582" lon="0.86062">
        <ele>171.73</ele>
        <time>2014-08-15T09:43:35Z</time>
      </trkpt>
      <trkpt lat="44.56584" lon="0.86056">
        <ele>172.21</ele>
        <time>2014-08-15T09:43:36Z</time>
      </trkpt>
      <trkpt lat="44.56586" lon="0.8605">
        <ele>172.69</ele>
        <time>2014-08-15T09:43:37Z</time>
      </trkpt>
      <trkpt lat="44.56597" lon="0.86013">
        <ele>175.1</ele>
        <time>2014-08-15T09:43:43Z</time>
      </trkpt>
      <trkpt lat="44.56608" lon="0.85932">
        <ele>174.14</ele>
        <time>2014-08-15T09:43:56Z</time>
      </trkpt>
      <trkpt lat="44.56613" lon="0.85885">
        <ele>173.66</ele>
        <time>2014-08-15T09:44:04Z</time>
      </trkpt>
      <trkpt lat="44.56613" lon="0.85867">
        <ele>172.69</ele>
        <time>2014-08-15T09:44:07Z</time>
      </trkpt>
      <trkpt lat="44.56613" lon="0.85861">
        <ele>172.69</ele>
        <time>2014-08-15T09:44:08Z</time>
      </trkpt>
      <trkpt lat="44.56612" lon="0.85855">
        <ele>172.69</ele>
        <time>2014-08-15T09:44:09Z</time>
      </trkpt>
      <trkpt lat="44.56612" lon="0.85849">
        <ele>172.69</ele>
        <time>2014-08-15T09:44:10Z</time>
      </trkpt>
      <trkpt lat="44.56611" lon="0.85844">
        <ele>173.17</ele>
        <time>2014-08-15T09:44:11Z</time>
      </trkpt>
      <trkpt lat="44.56609" lon="0.85785">
        <ele>172.21</ele>
        <time>2014-08-15T09:44:22Z</time>
      </trkpt>
      <trkpt lat="44.5661" lon="0.85749">
        <ele>170.29</ele>
        <time>2014-08-15T09:44:28Z</time>
      </trkpt>
      <trkpt lat="44.56608" lon="0.85743">
        <ele>169.81</ele>
        <time>2014-08-15T09:44:29Z</time>
      </trkpt>
      <trkpt lat="44.56608" lon="0.85737">
        <ele>169.33</ele>
        <time>2014-08-15T09:44:30Z</time>
      </trkpt>
      <trkpt lat="44.56608" lon="0.85731">
        <ele>169.33</ele>
        <time>2014-08-15T09:44:31Z</time>
      </trkpt>
      <trkpt lat="44.56609" lon="0.85724">
        <ele>169.33</ele>
        <time>2014-08-15T09:44:32Z</time>
      </trkpt>
      <trkpt lat="44.5661" lon="0.85718">
        <ele>169.33</ele>
        <time>2014-08-15T09:44:33Z</time>
      </trkpt>
      <trkpt lat="44.56612" lon="0.85711">
        <ele>169.33</ele>
        <time>2014-08-15T09:44:34Z</time>
      </trkpt>
      <trkpt lat="44.56615" lon="0.85698">
        <ele>169.33</ele>
        <time>2014-08-15T09:44:36Z</time>
      </trkpt>
      <trkpt lat="44.56641" lon="0.85612">
        <ele>172.69</ele>
        <time>2014-08-15T09:44:50Z</time>
      </trkpt>
      <trkpt lat="44.56663" lon="0.85514">
        <ele>175.58</ele>
        <time>2014-08-15T09:45:07Z</time>
      </trkpt>
      <trkpt lat="44.56667" lon="0.85508">
        <ele>176.54</ele>
        <time>2014-08-15T09:45:09Z</time>
      </trkpt>
      <trkpt lat="44.5667" lon="0.85506">
        <ele>177.02</ele>
        <time>2014-08-15T09:45:10Z</time>
      </trkpt>
      <trkpt lat="44.56673" lon="0.85504">
        <ele>177.5</ele>
        <time>2014-08-15T09:45:11Z</time>
      </trkpt>
      <trkpt lat="44.56698" lon="0.8549">
        <ele>181.83</ele>
        <time>2014-08-15T09:45:18Z</time>
      </trkpt>
      <trkpt lat="44.56706" lon="0.85484">
        <ele>183.27</ele>
        <time>2014-08-15T09:45:20Z</time>
      </trkpt>
      <trkpt lat="44.56709" lon="0.85481">
        <ele>184.23</ele>
        <time>2014-08-15T09:45:21Z</time>
      </trkpt>
      <trkpt lat="44.56713" lon="0.85478">
        <ele>185.19</ele>
        <time>2014-08-15T09:45:22Z</time>
      </trkpt>
      <trkpt lat="44.56716" lon="0.85475">
        <ele>185.67</ele>
        <time>2014-08-15T09:45:23Z</time>
      </trkpt>
      <trkpt lat="44.5672" lon="0.85473">
        <ele>186.63</ele>
        <time>2014-08-15T09:45:24Z</time>
      </trkpt>
      <trkpt lat="44.56749" lon="0.85458">
        <ele>191.44</ele>
        <time>2014-08-15T09:45:31Z</time>
      </trkpt>
      <trkpt lat="44.56789" lon="0.85436">
        <ele>195.77</ele>
        <time>2014-08-15T09:45:40Z</time>
      </trkpt>
      <trkpt lat="44.56804" lon="0.85434">
        <ele>196.25</ele>
        <time>2014-08-15T09:45:43Z</time>
      </trkpt>
      <trkpt lat="44.56808" lon="0.85435">
        <ele>196.25</ele>
        <time>2014-08-15T09:45:44Z</time>
      </trkpt>
      <trkpt lat="44.56828" lon="0.85439">
        <ele>197.21</ele>
        <time>2014-08-15T09:45:48Z</time>
      </trkpt>
      <trkpt lat="44.56848" lon="0.8544">
        <ele>195.77</ele>
        <time>2014-08-15T09:45:52Z</time>
      </trkpt>
      <trkpt lat="44.56853" lon="0.85439">
        <ele>195.77</ele>
        <time>2014-08-15T09:45:53Z</time>
      </trkpt>
      <trkpt lat="44.56886" lon="0.85433">
        <ele>193.36</ele>
        <time>2014-08-15T09:45:59Z</time>
      </trkpt>
      <trkpt lat="44.56913" lon="0.85436">
        <ele>191.44</ele>
        <time>2014-08-15T09:46:04Z</time>
      </trkpt>
      <trkpt lat="44.56934" lon="0.85437">
        <ele>191.44</ele>
        <time>2014-08-15T09:46:08Z</time>
      </trkpt>
      <trkpt lat="44.56999" lon="0.85443">
        <ele>189.52</ele>
        <time>2014-08-15T09:46:20Z</time>
      </trkpt>
      <trkpt lat="44.57029" lon="0.8544">
        <ele>188.08</ele>
        <time>2014-08-15T09:46:26Z</time>
      </trkpt>
      <trkpt lat="44.57053" lon="0.8544">
        <ele>185.67</ele>
        <time>2014-08-15T09:46:30Z</time>
      </trkpt>
      <trkpt lat="44.57064" lon="0.85441">
        <ele>185.19</ele>
        <time>2014-08-15T09:46:32Z</time>
      </trkpt>
      <trkpt lat="44.57074" lon="0.85445">
        <ele>184.23</ele>
        <time>2014-08-15T09:46:34Z</time>
      </trkpt>
      <trkpt lat="44.57102" lon="0.85462">
        <ele>184.23</ele>
        <time>2014-08-15T09:46:41Z</time>
      </trkpt>
      <trkpt lat="44.57103" lon="0.85472">
        <ele>183.75</ele>
        <time>2014-08-15T09:46:43Z</time>
      </trkpt>
      <trkpt lat="44.57118" lon="0.85477">
        <ele>184.23</ele>
        <time>2014-08-15T09:46:49Z</time>
      </trkpt>
      <trkpt lat="44.5717" lon="0.85453">
        <ele>186.63</ele>
        <time>2014-08-15T09:46:58Z</time>
      </trkpt>
      <trkpt lat="44.57183" lon="0.85453">
        <ele>187.11</ele>
        <time>2014-08-15T09:47:00Z</time>
      </trkpt>
      <trkpt lat="44.57201" lon="0.85452">
        <ele>188.56</ele>
        <time>2014-08-15T09:47:03Z</time>
      </trkpt>
      <trkpt lat="44.57242" lon="0.85451">
        <ele>192.88</ele>
        <time>2014-08-15T09:47:13Z</time>
      </trkpt>
      <trkpt lat="44.57272" lon="0.85448">
        <ele>199.13</ele>
        <time>2014-08-15T09:47:24Z</time>
      </trkpt>
      <trkpt lat="44.57308" lon="0.85449">
        <ele>199.13</ele>
        <time>2014-08-15T09:47:35Z</time>
      </trkpt>
      <trkpt lat="44.57327" lon="0.85455">
        <ele>199.61</ele>
        <time>2014-08-15T09:47:40Z</time>
      </trkpt>
      <trkpt lat="44.57347" lon="0.85423">
        <ele>200.57</ele>
        <time>2014-08-15T09:47:48Z</time>
      </trkpt>
      <trkpt lat="44.57338" lon="0.85396">
        <ele>197.21</ele>
        <time>2014-08-15T09:47:54Z</time>
      </trkpt>
      <trkpt lat="44.57344" lon="0.85389">
        <ele>195.28</ele>
        <time>2014-08-15T09:47:58Z</time>
      </trkpt>
      <trkpt lat="44.57347" lon="0.85381">
        <ele>194.32</ele>
        <time>2014-08-15T09:48:00Z</time>
      </trkpt>
      <trkpt lat="44.57384" lon="0.85339">
        <ele>199.61</ele>
        <time>2014-08-15T09:48:14Z</time>
      </trkpt>
      <trkpt lat="44.57398" lon="0.85318">
        <ele>202.98</ele>
        <time>2014-08-15T09:48:21Z</time>
      </trkpt>
      <trkpt lat="44.57399" lon="0.85309">
        <ele>203.46</ele>
        <time>2014-08-15T09:48:23Z</time>
      </trkpt>
      <trkpt lat="44.57398" lon="0.85306">
        <ele>203.46</ele>
        <time>2014-08-15T09:48:24Z</time>
      </trkpt>
      <trkpt lat="44.57396" lon="0.85305">
        <ele>203.94</ele>
        <time>2014-08-15T09:48:25Z</time>
      </trkpt>
      <trkpt lat="44.57394" lon="0.85303">
        <ele>204.42</ele>
        <time>2014-08-15T09:48:26Z</time>
      </trkpt>
      <trkpt lat="44.57368" lon="0.85272">
        <ele>198.17</ele>
        <time>2014-08-15T09:48:38Z</time>
      </trkpt>
      <trkpt lat="44.57359" lon="0.85256">
        <ele>195.28</ele>
        <time>2014-08-15T09:48:41Z</time>
      </trkpt>
      <trkpt lat="44.57357" lon="0.8525">
        <ele>194.8</ele>
        <time>2014-08-15T09:48:42Z</time>
      </trkpt>
      <trkpt lat="44.57338" lon="0.85199">
        <ele>190.48</ele>
        <time>2014-08-15T09:48:49Z</time>
      </trkpt>
      <trkpt lat="44.57335" lon="0.85192">
        <ele>190</ele>
        <time>2014-08-15T09:48:50Z</time>
      </trkpt>
      <trkpt lat="44.57283" lon="0.85074">
        <ele>181.83</ele>
        <time>2014-08-15T09:49:05Z</time>
      </trkpt>
      <trkpt lat="44.5727" lon="0.85041">
        <ele>179.9</ele>
        <time>2014-08-15T09:49:09Z</time>
      </trkpt>
      <trkpt lat="44.57262" lon="0.85006">
        <ele>178.46</ele>
        <time>2014-08-15T09:49:13Z</time>
      </trkpt>
      <trkpt lat="44.57246" lon="0.84948">
        <ele>176.54</ele>
        <time>2014-08-15T09:49:20Z</time>
      </trkpt>
      <trkpt lat="44.57246" lon="0.8494">
        <ele>176.54</ele>
        <time>2014-08-15T09:49:21Z</time>
      </trkpt>
      <trkpt lat="44.57246" lon="0.84934">
        <ele>176.54</ele>
        <time>2014-08-15T09:49:22Z</time>
      </trkpt>
      <trkpt lat="44.57245" lon="0.84929">
        <ele>176.54</ele>
        <time>2014-08-15T09:49:23Z</time>
      </trkpt>
      <trkpt lat="44.57243" lon="0.84926">
        <ele>176.54</ele>
        <time>2014-08-15T09:49:24Z</time>
      </trkpt>
      <trkpt lat="44.57241" lon="0.84922">
        <ele>176.54</ele>
        <time>2014-08-15T09:49:25Z</time>
      </trkpt>
      <trkpt lat="44.57238" lon="0.84919">
        <ele>176.54</ele>
        <time>2014-08-15T09:49:26Z</time>
      </trkpt>
      <trkpt lat="44.57209" lon="0.84921">
        <ele>177.02</ele>
        <time>2014-08-15T09:49:35Z</time>
      </trkpt>
      <trkpt lat="44.57205" lon="0.84922">
        <ele>177.02</ele>
        <time>2014-08-15T09:49:36Z</time>
      </trkpt>
      <trkpt lat="44.57197" lon="0.84922">
        <ele>177.02</ele>
        <time>2014-08-15T09:49:38Z</time>
      </trkpt>
      <trkpt lat="44.57181" lon="0.84914">
        <ele>176.54</ele>
        <time>2014-08-15T09:49:42Z</time>
      </trkpt>
      <trkpt lat="44.57162" lon="0.84903">
        <ele>176.06</ele>
        <time>2014-08-15T09:49:47Z</time>
      </trkpt>
      <trkpt lat="44.57143" lon="0.84908">
        <ele>176.06</ele>
        <time>2014-08-15T09:49:52Z</time>
      </trkpt>
      <trkpt lat="44.57126" lon="0.84909">
        <ele>175.58</ele>
        <time>2014-08-15T09:49:56Z</time>
      </trkpt>
      <trkpt lat="44.57103" lon="0.84908">
        <ele>175.1</ele>
        <time>2014-08-15T09:50:01Z</time>
      </trkpt>
      <trkpt lat="44.57082" lon="0.84911">
        <ele>175.1</ele>
        <time>2014-08-15T09:50:05Z</time>
      </trkpt>
      <trkpt lat="44.57071" lon="0.84912">
        <ele>175.1</ele>
        <time>2014-08-15T09:50:07Z</time>
      </trkpt>
      <trkpt lat="44.57042" lon="0.84896">
        <ele>172.69</ele>
        <time>2014-08-15T09:50:13Z</time>
      </trkpt>
      <trkpt lat="44.5702" lon="0.84884">
        <ele>171.73</ele>
        <time>2014-08-15T09:50:17Z</time>
      </trkpt>
      <trkpt lat="44.56987" lon="0.84874">
        <ele>168.85</ele>
        <time>2014-08-15T09:50:25Z</time>
      </trkpt>
      <trkpt lat="44.56986" lon="0.8487">
        <ele>168.37</ele>
        <time>2014-08-15T09:50:26Z</time>
      </trkpt>
      <trkpt lat="44.56981" lon="0.84862">
        <ele>166.93</ele>
        <time>2014-08-15T09:50:28Z</time>
      </trkpt>
      <trkpt lat="44.56957" lon="0.8486">
        <ele>162.6</ele>
        <time>2014-08-15T09:50:35Z</time>
      </trkpt>
      <trkpt lat="44.56938" lon="0.84847">
        <ele>158.75</ele>
        <time>2014-08-15T09:50:40Z</time>
      </trkpt>
      <trkpt lat="44.56918" lon="0.84764">
        <ele>154.43</ele>
        <time>2014-08-15T09:50:51Z</time>
      </trkpt>
      <trkpt lat="44.56903" lon="0.84733">
        <ele>152.99</ele>
        <time>2014-08-15T09:50:55Z</time>
      </trkpt>
      <trkpt lat="44.5689" lon="0.84714">
        <ele>152.51</ele>
        <time>2014-08-15T09:50:58Z</time>
      </trkpt>
      <trkpt lat="44.56878" lon="0.84683">
        <ele>151.54</ele>
        <time>2014-08-15T09:51:02Z</time>
      </trkpt>
      <trkpt lat="44.56847" lon="0.84643">
        <ele>149.14</ele>
        <time>2014-08-15T09:51:08Z</time>
      </trkpt>
      <trkpt lat="44.56817" lon="0.84629">
        <ele>148.18</ele>
        <time>2014-08-15T09:51:12Z</time>
      </trkpt>
      <trkpt lat="44.5678" lon="0.84595">
        <ele>146.26</ele>
        <time>2014-08-15T09:51:18Z</time>
      </trkpt>
      <trkpt lat="44.56775" lon="0.84588">
        <ele>146.26</ele>
        <time>2014-08-15T09:51:19Z</time>
      </trkpt>
      <trkpt lat="44.56769" lon="0.84582">
        <ele>146.26</ele>
        <time>2014-08-15T09:51:20Z</time>
      </trkpt>
      <trkpt lat="44.56765" lon="0.84576">
        <ele>146.26</ele>
        <time>2014-08-15T09:51:21Z</time>
      </trkpt>
      <trkpt lat="44.56763" lon="0.84568">
        <ele>146.26</ele>
        <time>2014-08-15T09:51:22Z</time>
      </trkpt>
      <trkpt lat="44.56751" lon="0.84488">
        <ele>142.41</ele>
        <time>2014-08-15T09:51:31Z</time>
      </trkpt>
      <trkpt lat="44.56751" lon="0.84478">
        <ele>142.41</ele>
        <time>2014-08-15T09:51:32Z</time>
      </trkpt>
      <trkpt lat="44.56753" lon="0.84469">
        <ele>142.41</ele>
        <time>2014-08-15T09:51:33Z</time>
      </trkpt>
      <trkpt lat="44.56755" lon="0.8446">
        <ele>141.93</ele>
        <time>2014-08-15T09:51:34Z</time>
      </trkpt>
      <trkpt lat="44.56758" lon="0.84451">
        <ele>141.93</ele>
        <time>2014-08-15T09:51:35Z</time>
      </trkpt>
      <trkpt lat="44.56788" lon="0.84365">
        <ele>139.53</ele>
        <time>2014-08-15T09:51:44Z</time>
      </trkpt>
      <trkpt lat="44.56789" lon="0.84355">
        <ele>139.05</ele>
        <time>2014-08-15T09:51:45Z</time>
      </trkpt>
      <trkpt lat="44.56789" lon="0.84345">
        <ele>138.57</ele>
        <time>2014-08-15T09:51:46Z</time>
      </trkpt>
      <trkpt lat="44.56788" lon="0.84337">
        <ele>138.09</ele>
        <time>2014-08-15T09:51:47Z</time>
      </trkpt>
      <trkpt lat="44.56786" lon="0.84329">
        <ele>137.61</ele>
        <time>2014-08-15T09:51:48Z</time>
      </trkpt>
      <trkpt lat="44.56783" lon="0.84321">
        <ele>137.13</ele>
        <time>2014-08-15T09:51:49Z</time>
      </trkpt>
      <trkpt lat="44.56781" lon="0.84314">
        <ele>136.64</ele>
        <time>2014-08-15T09:51:50Z</time>
      </trkpt>
      <trkpt lat="44.56777" lon="0.84307">
        <ele>136.64</ele>
        <time>2014-08-15T09:51:51Z</time>
      </trkpt>
      <trkpt lat="44.56774" lon="0.84299">
        <ele>136.16</ele>
        <time>2014-08-15T09:51:52Z</time>
      </trkpt>
      <trkpt lat="44.56763" lon="0.84275">
        <ele>135.2</ele>
        <time>2014-08-15T09:51:55Z</time>
      </trkpt>
      <trkpt lat="44.56739" lon="0.84236">
        <ele>133.28</ele>
        <time>2014-08-15T09:52:00Z</time>
      </trkpt>
      <trkpt lat="44.56734" lon="0.8423">
        <ele>133.28</ele>
        <time>2014-08-15T09:52:01Z</time>
      </trkpt>
      <trkpt lat="44.56696" lon="0.84199">
        <ele>133.28</ele>
        <time>2014-08-15T09:52:07Z</time>
      </trkpt>
      <trkpt lat="44.5669" lon="0.84196">
        <ele>132.8</ele>
        <time>2014-08-15T09:52:08Z</time>
      </trkpt>
      <trkpt lat="44.56684" lon="0.84194">
        <ele>132.8</ele>
        <time>2014-08-15T09:52:09Z</time>
      </trkpt>
      <trkpt lat="44.5661" lon="0.84185">
        <ele>133.28</ele>
        <time>2014-08-15T09:52:21Z</time>
      </trkpt>
      <trkpt lat="44.56532" lon="0.84158">
        <ele>134.72</ele>
        <time>2014-08-15T09:52:33Z</time>
      </trkpt>
      <trkpt lat="44.56518" lon="0.84154">
        <ele>134.72</ele>
        <time>2014-08-15T09:52:35Z</time>
      </trkpt>
      <trkpt lat="44.56512" lon="0.84153">
        <ele>134.72</ele>
        <time>2014-08-15T09:52:36Z</time>
      </trkpt>
      <trkpt lat="44.56505" lon="0.84153">
        <ele>134.24</ele>
        <time>2014-08-15T09:52:37Z</time>
      </trkpt>
      <trkpt lat="44.56499" lon="0.84152">
        <ele>134.24</ele>
        <time>2014-08-15T09:52:38Z</time>
      </trkpt>
      <trkpt lat="44.56493" lon="0.84148">
        <ele>133.76</ele>
        <time>2014-08-15T09:52:39Z</time>
      </trkpt>
      <trkpt lat="44.56487" lon="0.84143">
        <ele>133.76</ele>
        <time>2014-08-15T09:52:40Z</time>
      </trkpt>
      <trkpt lat="44.56481" lon="0.84136">
        <ele>133.76</ele>
        <time>2014-08-15T09:52:41Z</time>
      </trkpt>
      <trkpt lat="44.56475" lon="0.8413">
        <ele>133.28</ele>
        <time>2014-08-15T09:52:42Z</time>
      </trkpt>
      <trkpt lat="44.56458" lon="0.84111">
        <ele>132.32</ele>
        <time>2014-08-15T09:52:45Z</time>
      </trkpt>
      <trkpt lat="44.56451" lon="0.84107">
        <ele>131.84</ele>
        <time>2014-08-15T09:52:46Z</time>
      </trkpt>
      <trkpt lat="44.56423" lon="0.84093">
        <ele>129.43</ele>
        <time>2014-08-15T09:52:50Z</time>
      </trkpt>
      <trkpt lat="44.56417" lon="0.8409">
        <ele>128.95</ele>
        <time>2014-08-15T09:52:51Z</time>
      </trkpt>
      <trkpt lat="44.56362" lon="0.84052">
        <ele>123.19</ele>
        <time>2014-08-15T09:53:00Z</time>
      </trkpt>
      <trkpt lat="44.56355" lon="0.8405">
        <ele>122.71</ele>
        <time>2014-08-15T09:53:01Z</time>
      </trkpt>
      <trkpt lat="44.56349" lon="0.84049">
        <ele>122.22</ele>
        <time>2014-08-15T09:53:02Z</time>
      </trkpt>
      <trkpt lat="44.56342" lon="0.84049">
        <ele>121.74</ele>
        <time>2014-08-15T09:53:03Z</time>
      </trkpt>
      <trkpt lat="44.56336" lon="0.84049">
        <ele>121.26</ele>
        <time>2014-08-15T09:53:04Z</time>
      </trkpt>
      <trkpt lat="44.5633" lon="0.8405">
        <ele>120.78</ele>
        <time>2014-08-15T09:53:05Z</time>
      </trkpt>
      <trkpt lat="44.56324" lon="0.84051">
        <ele>120.3</ele>
        <time>2014-08-15T09:53:06Z</time>
      </trkpt>
      <trkpt lat="44.56267" lon="0.84068">
        <ele>115.98</ele>
        <time>2014-08-15T09:53:14Z</time>
      </trkpt>
      <trkpt lat="44.5626" lon="0.84071">
        <ele>115.01</ele>
        <time>2014-08-15T09:53:15Z</time>
      </trkpt>
      <trkpt lat="44.56254" lon="0.84073">
        <ele>115.01</ele>
        <time>2014-08-15T09:53:16Z</time>
      </trkpt>
      <trkpt lat="44.56183" lon="0.84123">
        <ele>114.53</ele>
        <time>2014-08-15T09:53:27Z</time>
      </trkpt>
      <trkpt lat="44.56146" lon="0.84146">
        <ele>114.05</ele>
        <time>2014-08-15T09:53:33Z</time>
      </trkpt>
      <trkpt lat="44.5614" lon="0.84148">
        <ele>113.57</ele>
        <time>2014-08-15T09:53:34Z</time>
      </trkpt>
      <trkpt lat="44.56134" lon="0.84148">
        <ele>113.57</ele>
        <time>2014-08-15T09:53:35Z</time>
      </trkpt>
      <trkpt lat="44.56114" lon="0.84147">
        <ele>112.61</ele>
        <time>2014-08-15T09:53:39Z</time>
      </trkpt>
      <trkpt lat="44.56087" lon="0.8414">
        <ele>111.17</ele>
        <time>2014-08-15T09:53:44Z</time>
      </trkpt>
      <trkpt lat="44.56064" lon="0.84121">
        <ele>108.77</ele>
        <time>2014-08-15T09:53:48Z</time>
      </trkpt>
      <trkpt lat="44.56043" lon="0.84105">
        <ele>107.32</ele>
        <time>2014-08-15T09:53:57Z</time>
      </trkpt>
      <trkpt lat="44.56016" lon="0.84084">
        <ele>106.36</ele>
        <time>2014-08-15T09:54:04Z</time>
      </trkpt>
      <trkpt lat="44.55976" lon="0.84056">
        <ele>103</ele>
        <time>2014-08-15T09:54:15Z</time>
      </trkpt>
      <trkpt lat="44.55967" lon="0.84054">
        <ele>102.52</ele>
        <time>2014-08-15T09:54:17Z</time>
      </trkpt>
      <trkpt lat="44.55938" lon="0.84039">
        <ele>101.56</ele>
        <time>2014-08-15T09:54:23Z</time>
      </trkpt>
      <trkpt lat="44.55911" lon="0.84029">
        <ele>101.08</ele>
        <time>2014-08-15T09:54:28Z</time>
      </trkpt>
      <trkpt lat="44.55902" lon="0.84026">
        <ele>100.6</ele>
        <time>2014-08-15T09:54:30Z</time>
      </trkpt>
      <trkpt lat="44.55892" lon="0.84023">
        <ele>100.6</ele>
        <time>2014-08-15T09:54:32Z</time>
      </trkpt>
      <trkpt lat="44.55873" lon="0.84012">
        <ele>99.63</ele>
        <time>2014-08-15T09:54:36Z</time>
      </trkpt>
      <trkpt lat="44.55852" lon="0.84009">
        <ele>98.67</ele>
        <time>2014-08-15T09:54:46Z</time>
      </trkpt>
      <trkpt lat="44.55838" lon="0.84009">
        <ele>97.23</ele>
        <time>2014-08-15T09:55:02Z</time>
      </trkpt>
      <trkpt lat="44.55829" lon="0.84007">
        <ele>97.71</ele>
        <time>2014-08-15T09:55:16Z</time>
      </trkpt>
      <trkpt lat="44.55828" lon="0.84005">
        <ele>96.75</ele>
        <time>2014-08-15T09:55:21Z</time>
      </trkpt>
      <trkpt lat="44.55834" lon="0.83996">
        <ele>99.15</ele>
        <time>2014-08-15T09:55:30Z</time>
      </trkpt>
      <trkpt lat="44.55838" lon="0.83983">
        <ele>109.25</ele>
        <time>2014-08-15T09:55:41Z</time>
      </trkpt>
      <trkpt lat="44.55843" lon="0.83974">
        <ele>118.38</ele>
        <time>2014-08-15T09:55:51Z</time>
      </trkpt>
      <trkpt lat="44.55848" lon="0.83965">
        <ele>131.36</ele>
        <time>2014-08-15T09:56:02Z</time>
      </trkpt>
      <trkpt lat="44.55858" lon="0.83945">
        <ele>142.41</ele>
        <time>2014-08-15T09:56:19Z</time>
      </trkpt>
      <trkpt lat="44.55865" lon="0.83923">
        <ele>152.03</ele>
        <time>2014-08-15T09:56:34Z</time>
      </trkpt>
      <trkpt lat="44.5587" lon="0.83911">
        <ele>158.27</ele>
        <time>2014-08-15T09:56:47Z</time>
      </trkpt>
      <trkpt lat="44.55873" lon="0.8391">
        <ele>158.27</ele>
        <time>2014-08-15T09:56:51Z</time>
      </trkpt>
      <trkpt lat="44.55888" lon="0.8389">
        <ele>158.75</ele>
        <time>2014-08-15T09:57:08Z</time>
      </trkpt>
      <trkpt lat="44.55901" lon="0.83864">
        <ele>159.24</ele>
        <time>2014-08-15T09:57:27Z</time>
      </trkpt>
      <trkpt lat="44.55908" lon="0.83846">
        <ele>157.79</ele>
        <time>2014-08-15T09:57:43Z</time>
      </trkpt>
      <trkpt lat="44.55927" lon="0.83816">
        <ele>158.27</ele>
        <time>2014-08-15T09:57:57Z</time>
      </trkpt>
      <trkpt lat="44.55951" lon="0.83778">
        <ele>160.68</ele>
        <time>2014-08-15T09:58:11Z</time>
      </trkpt>
      <trkpt lat="44.55981" lon="0.8373">
        <ele>162.12</ele>
        <time>2014-08-15T09:58:26Z</time>
      </trkpt>
      <trkpt lat="44.56013" lon="0.83675">
        <ele>165</ele>
        <time>2014-08-15T09:58:41Z</time>
      </trkpt>
      <trkpt lat="44.56017" lon="0.8367">
        <ele>165</ele>
        <time>2014-08-15T09:58:42Z</time>
      </trkpt>
      <trkpt lat="44.56046" lon="0.83639">
        <ele>161.64</ele>
        <time>2014-08-15T09:58:49Z</time>
      </trkpt>
      <trkpt lat="44.56068" lon="0.83621">
        <ele>159.72</ele>
        <time>2014-08-15T09:58:54Z</time>
      </trkpt>
      <trkpt lat="44.56072" lon="0.83617">
        <ele>159.24</ele>
        <time>2014-08-15T09:58:55Z</time>
      </trkpt>
      <trkpt lat="44.56122" lon="0.83574">
        <ele>155.87</ele>
        <time>2014-08-15T09:59:04Z</time>
      </trkpt>
      <trkpt lat="44.56127" lon="0.8357">
        <ele>155.87</ele>
        <time>2014-08-15T09:59:05Z</time>
      </trkpt>
      <trkpt lat="44.56154" lon="0.83545">
        <ele>158.27</ele>
        <time>2014-08-15T09:59:14Z</time>
      </trkpt>
      <trkpt lat="44.56163" lon="0.83541">
        <ele>158.27</ele>
        <time>2014-08-15T09:59:17Z</time>
      </trkpt>
      <trkpt lat="44.56166" lon="0.83542">
        <ele>158.27</ele>
        <time>2014-08-15T09:59:18Z</time>
      </trkpt>
      <trkpt lat="44.56168" lon="0.83544">
        <ele>157.31</ele>
        <time>2014-08-15T09:59:19Z</time>
      </trkpt>
      <trkpt lat="44.56171" lon="0.83546">
        <ele>156.83</ele>
        <time>2014-08-15T09:59:20Z</time>
      </trkpt>
      <trkpt lat="44.56173" lon="0.83548">
        <ele>156.35</ele>
        <time>2014-08-15T09:59:21Z</time>
      </trkpt>
      <trkpt lat="44.56176" lon="0.83549">
        <ele>155.87</ele>
        <time>2014-08-15T09:59:22Z</time>
      </trkpt>
      <trkpt lat="44.56178" lon="0.83551">
        <ele>155.87</ele>
        <time>2014-08-15T09:59:23Z</time>
      </trkpt>
      <trkpt lat="44.56208" lon="0.83568">
        <ele>158.75</ele>
        <time>2014-08-15T09:59:36Z</time>
      </trkpt>
      <trkpt lat="44.56245" lon="0.83576">
        <ele>161.16</ele>
        <time>2014-08-15T09:59:48Z</time>
      </trkpt>
      <trkpt lat="44.56291" lon="0.83582">
        <ele>163.56</ele>
        <time>2014-08-15T10:00:02Z</time>
      </trkpt>
      <trkpt lat="44.56345" lon="0.8356">
        <ele>164.04</ele>
        <time>2014-08-15T10:00:16Z</time>
      </trkpt>
      <trkpt lat="44.56381" lon="0.8354">
        <ele>168.85</ele>
        <time>2014-08-15T10:00:27Z</time>
      </trkpt>
      <trkpt lat="44.56411" lon="0.83504">
        <ele>175.58</ele>
        <time>2014-08-15T10:00:37Z</time>
      </trkpt>
      <trkpt lat="44.56415" lon="0.835">
        <ele>176.06</ele>
        <time>2014-08-15T10:00:38Z</time>
      </trkpt>
      <trkpt lat="44.5642" lon="0.83498">
        <ele>177.02</ele>
        <time>2014-08-15T10:00:39Z</time>
      </trkpt>
      <trkpt lat="44.56424" lon="0.83497">
        <ele>177.5</ele>
        <time>2014-08-15T10:00:40Z</time>
      </trkpt>
      <trkpt lat="44.56429" lon="0.83496">
        <ele>177.98</ele>
        <time>2014-08-15T10:00:41Z</time>
      </trkpt>
      <trkpt lat="44.56435" lon="0.83496">
        <ele>178.94</ele>
        <time>2014-08-15T10:00:42Z</time>
      </trkpt>
      <trkpt lat="44.5644" lon="0.83495">
        <ele>179.42</ele>
        <time>2014-08-15T10:00:43Z</time>
      </trkpt>
      <trkpt lat="44.5645" lon="0.83491">
        <ele>180.87</ele>
        <time>2014-08-15T10:00:45Z</time>
      </trkpt>
      <trkpt lat="44.56455" lon="0.83489">
        <ele>181.35</ele>
        <time>2014-08-15T10:00:46Z</time>
      </trkpt>
      <trkpt lat="44.5646" lon="0.83487">
        <ele>182.31</ele>
        <time>2014-08-15T10:00:47Z</time>
      </trkpt>
      <trkpt lat="44.56465" lon="0.83487">
        <ele>182.79</ele>
        <time>2014-08-15T10:00:48Z</time>
      </trkpt>
      <trkpt lat="44.56474" lon="0.83484">
        <ele>177.98</ele>
        <time>2014-08-15T10:00:49Z</time>
      </trkpt>
      <trkpt lat="44.5648" lon="0.83485">
        <ele>175.58</ele>
        <time>2014-08-15T10:00:50Z</time>
      </trkpt>
      <trkpt lat="44.56486" lon="0.83488">
        <ele>174.62</ele>
        <time>2014-08-15T10:00:51Z</time>
      </trkpt>
      <trkpt lat="44.56557" lon="0.8354">
        <ele>169.81</ele>
        <time>2014-08-15T10:01:04Z</time>
      </trkpt>
      <trkpt lat="44.566" lon="0.83568">
        <ele>162.6</ele>
        <time>2014-08-15T10:01:12Z</time>
      </trkpt>
      <trkpt lat="44.5662" lon="0.83579">
        <ele>161.64</ele>
        <time>2014-08-15T10:01:17Z</time>
      </trkpt>
      <trkpt lat="44.56625" lon="0.83582">
        <ele>161.64</ele>
        <time>2014-08-15T10:01:18Z</time>
      </trkpt>
      <trkpt lat="44.56629" lon="0.83584">
        <ele>161.16</ele>
        <time>2014-08-15T10:01:19Z</time>
      </trkpt>
      <trkpt lat="44.56668" lon="0.83598">
        <ele>159.72</ele>
        <time>2014-08-15T10:01:28Z</time>
      </trkpt>
      <trkpt lat="44.56672" lon="0.836">
        <ele>159.72</ele>
        <time>2014-08-15T10:01:29Z</time>
      </trkpt>
      <trkpt lat="44.56719" lon="0.83632">
        <ele>160.68</ele>
        <time>2014-08-15T10:01:42Z</time>
      </trkpt>
      <trkpt lat="44.56749" lon="0.83682">
        <ele>162.6</ele>
        <time>2014-08-15T10:01:54Z</time>
      </trkpt>
      <trkpt lat="44.56762" lon="0.83705">
        <ele>162.12</ele>
        <time>2014-08-15T10:01:59Z</time>
      </trkpt>
      <trkpt lat="44.56765" lon="0.8371">
        <ele>162.12</ele>
        <time>2014-08-15T10:02:00Z</time>
      </trkpt>
      <trkpt lat="44.56769" lon="0.83714">
        <ele>161.64</ele>
        <time>2014-08-15T10:02:01Z</time>
      </trkpt>
      <trkpt lat="44.56773" lon="0.83717">
        <ele>161.64</ele>
        <time>2014-08-15T10:02:02Z</time>
      </trkpt>
      <trkpt lat="44.56777" lon="0.83719">
        <ele>162.12</ele>
        <time>2014-08-15T10:02:03Z</time>
      </trkpt>
      <trkpt lat="44.5678" lon="0.83718">
        <ele>162.12</ele>
        <time>2014-08-15T10:02:04Z</time>
      </trkpt>
      <trkpt lat="44.56784" lon="0.83716">
        <ele>162.12</ele>
        <time>2014-08-15T10:02:05Z</time>
      </trkpt>
      <trkpt lat="44.56788" lon="0.83712">
        <ele>162.12</ele>
        <time>2014-08-15T10:02:06Z</time>
      </trkpt>
      <trkpt lat="44.56792" lon="0.8371">
        <ele>162.6</ele>
        <time>2014-08-15T10:02:07Z</time>
      </trkpt>
      <trkpt lat="44.56796" lon="0.83707">
        <ele>162.6</ele>
        <time>2014-08-15T10:02:08Z</time>
      </trkpt>
      <trkpt lat="44.5681" lon="0.837">
        <ele>164.04</ele>
        <time>2014-08-15T10:02:11Z</time>
      </trkpt>
      <trkpt lat="44.5685" lon="0.83667">
        <ele>167.41</ele>
        <time>2014-08-15T10:02:20Z</time>
      </trkpt>
      <trkpt lat="44.56854" lon="0.83663">
        <ele>168.37</ele>
        <time>2014-08-15T10:02:21Z</time>
      </trkpt>
      <trkpt lat="44.56887" lon="0.83629">
        <ele>172.21</ele>
        <time>2014-08-15T10:02:29Z</time>
      </trkpt>
      <trkpt lat="44.56891" lon="0.83627">
        <ele>172.69</ele>
        <time>2014-08-15T10:02:30Z</time>
      </trkpt>
      <trkpt lat="44.56895" lon="0.83626">
        <ele>172.69</ele>
        <time>2014-08-15T10:02:31Z</time>
      </trkpt>
      <trkpt lat="44.56898" lon="0.83628">
        <ele>172.21</ele>
        <time>2014-08-15T10:02:32Z</time>
      </trkpt>
      <trkpt lat="44.56902" lon="0.83632">
        <ele>170.77</ele>
        <time>2014-08-15T10:02:33Z</time>
      </trkpt>
      <trkpt lat="44.56906" lon="0.83636">
        <ele>169.81</ele>
        <time>2014-08-15T10:02:34Z</time>
      </trkpt>
      <trkpt lat="44.56908" lon="0.83641">
        <ele>169.33</ele>
        <time>2014-08-15T10:02:35Z</time>
      </trkpt>
      <trkpt lat="44.56924" lon="0.83675">
        <ele>164.52</ele>
        <time>2014-08-15T10:02:41Z</time>
      </trkpt>
      <trkpt lat="44.56927" lon="0.8368">
        <ele>164.52</ele>
        <time>2014-08-15T10:02:42Z</time>
      </trkpt>
      <trkpt lat="44.56929" lon="0.83686">
        <ele>164.04</ele>
        <time>2014-08-15T10:02:43Z</time>
      </trkpt>
      <trkpt lat="44.56932" lon="0.83691">
        <ele>164.04</ele>
        <time>2014-08-15T10:02:44Z</time>
      </trkpt>
      <trkpt lat="44.56935" lon="0.83696">
        <ele>164.04</ele>
        <time>2014-08-15T10:02:45Z</time>
      </trkpt>
      <trkpt lat="44.56959" lon="0.83743">
        <ele>162.6</ele>
        <time>2014-08-15T10:02:54Z</time>
      </trkpt>
      <trkpt lat="44.56961" lon="0.83749">
        <ele>162.6</ele>
        <time>2014-08-15T10:02:55Z</time>
      </trkpt>
      <trkpt lat="44.56963" lon="0.83755">
        <ele>162.12</ele>
        <time>2014-08-15T10:02:56Z</time>
      </trkpt>
      <trkpt lat="44.56964" lon="0.83761">
        <ele>162.12</ele>
        <time>2014-08-15T10:02:57Z</time>
      </trkpt>
      <trkpt lat="44.56964" lon="0.83767">
        <ele>162.12</ele>
        <time>2014-08-15T10:02:58Z</time>
      </trkpt>
      <trkpt lat="44.56961" lon="0.83773">
        <ele>161.64</ele>
        <time>2014-08-15T10:02:59Z</time>
      </trkpt>
      <trkpt lat="44.56958" lon="0.83778">
        <ele>161.64</ele>
        <time>2014-08-15T10:03:00Z</time>
      </trkpt>
      <trkpt lat="44.56954" lon="0.83783">
        <ele>161.64</ele>
        <time>2014-08-15T10:03:01Z</time>
      </trkpt>
      <trkpt lat="44.5695" lon="0.83786">
        <ele>162.12</ele>
        <time>2014-08-15T10:03:02Z</time>
      </trkpt>
      <trkpt lat="44.5694" lon="0.83793">
        <ele>161.64</ele>
        <time>2014-08-15T10:03:04Z</time>
      </trkpt>
      <trkpt lat="44.56908" lon="0.83817">
        <ele>160.2</ele>
        <time>2014-08-15T10:03:10Z</time>
      </trkpt>
      <trkpt lat="44.56902" lon="0.83823">
        <ele>160.2</ele>
        <time>2014-08-15T10:03:11Z</time>
      </trkpt>
      <trkpt lat="44.56898" lon="0.83831">
        <ele>159.72</ele>
        <time>2014-08-15T10:03:12Z</time>
      </trkpt>
      <trkpt lat="44.56893" lon="0.83839">
        <ele>159.24</ele>
        <time>2014-08-15T10:03:13Z</time>
      </trkpt>
      <trkpt lat="44.56889" lon="0.83848">
        <ele>158.75</ele>
        <time>2014-08-15T10:03:14Z</time>
      </trkpt>
      <trkpt lat="44.56886" lon="0.83857">
        <ele>158.75</ele>
        <time>2014-08-15T10:03:15Z</time>
      </trkpt>
      <trkpt lat="44.56883" lon="0.83867">
        <ele>158.27</ele>
        <time>2014-08-15T10:03:16Z</time>
      </trkpt>
      <trkpt lat="44.5688" lon="0.83877">
        <ele>158.27</ele>
        <time>2014-08-15T10:03:17Z</time>
      </trkpt>
      <trkpt lat="44.56875" lon="0.83933">
        <ele>156.83</ele>
        <time>2014-08-15T10:03:23Z</time>
      </trkpt>
      <trkpt lat="44.56876" lon="0.83941">
        <ele>156.83</ele>
        <time>2014-08-15T10:03:24Z</time>
      </trkpt>
      <trkpt lat="44.56878" lon="0.83949">
        <ele>156.83</ele>
        <time>2014-08-15T10:03:25Z</time>
      </trkpt>
      <trkpt lat="44.56881" lon="0.83956">
        <ele>156.83</ele>
        <time>2014-08-15T10:03:26Z</time>
      </trkpt>
      <trkpt lat="44.56884" lon="0.83963">
        <ele>156.83</ele>
        <time>2014-08-15T10:03:27Z</time>
      </trkpt>
      <trkpt lat="44.56886" lon="0.83971">
        <ele>156.83</ele>
        <time>2014-08-15T10:03:28Z</time>
      </trkpt>
      <trkpt lat="44.56892" lon="0.83985">
        <ele>157.31</ele>
        <time>2014-08-15T10:03:30Z</time>
      </trkpt>
      <trkpt lat="44.56896" lon="0.83992">
        <ele>157.79</ele>
        <time>2014-08-15T10:03:31Z</time>
      </trkpt>
      <trkpt lat="44.56906" lon="0.8401">
        <ele>158.27</ele>
        <time>2014-08-15T10:03:34Z</time>
      </trkpt>
      <trkpt lat="44.56951" lon="0.84121">
        <ele>156.35</ele>
        <time>2014-08-15T10:03:48Z</time>
      </trkpt>
      <trkpt lat="44.56964" lon="0.84159">
        <ele>156.35</ele>
        <time>2014-08-15T10:03:52Z</time>
      </trkpt>
      <trkpt lat="44.56969" lon="0.84165">
        <ele>156.35</ele>
        <time>2014-08-15T10:03:53Z</time>
      </trkpt>
      <trkpt lat="44.56975" lon="0.84169">
        <ele>156.35</ele>
        <time>2014-08-15T10:03:54Z</time>
      </trkpt>
      <trkpt lat="44.5698" lon="0.84172">
        <ele>156.83</ele>
        <time>2014-08-15T10:03:55Z</time>
      </trkpt>
      <trkpt lat="44.56986" lon="0.84174">
        <ele>157.31</ele>
        <time>2014-08-15T10:03:56Z</time>
      </trkpt>
      <trkpt lat="44.56991" lon="0.84175">
        <ele>157.79</ele>
        <time>2014-08-15T10:03:57Z</time>
      </trkpt>
      <trkpt lat="44.56996" lon="0.84175">
        <ele>157.79</ele>
        <time>2014-08-15T10:03:58Z</time>
      </trkpt>
      <trkpt lat="44.57011" lon="0.84174">
        <ele>159.24</ele>
        <time>2014-08-15T10:04:01Z</time>
      </trkpt>
      <trkpt lat="44.57035" lon="0.84168">
        <ele>161.16</ele>
        <time>2014-08-15T10:04:06Z</time>
      </trkpt>
      <trkpt lat="44.5704" lon="0.84166">
        <ele>161.64</ele>
        <time>2014-08-15T10:04:07Z</time>
      </trkpt>
      <trkpt lat="44.57081" lon="0.84158">
        <ele>160.68</ele>
        <time>2014-08-15T10:04:14Z</time>
      </trkpt>
      <trkpt lat="44.57087" lon="0.84159">
        <ele>160.68</ele>
        <time>2014-08-15T10:04:15Z</time>
      </trkpt>
      <trkpt lat="44.57092" lon="0.84163">
        <ele>160.68</ele>
        <time>2014-08-15T10:04:16Z</time>
      </trkpt>
      <trkpt lat="44.57097" lon="0.84169">
        <ele>161.16</ele>
        <time>2014-08-15T10:04:17Z</time>
      </trkpt>
      <trkpt lat="44.571" lon="0.84177">
        <ele>161.16</ele>
        <time>2014-08-15T10:04:18Z</time>
      </trkpt>
      <trkpt lat="44.57104" lon="0.84185">
        <ele>161.64</ele>
        <time>2014-08-15T10:04:19Z</time>
      </trkpt>
      <trkpt lat="44.57139" lon="0.84295">
        <ele>162.12</ele>
        <time>2014-08-15T10:04:32Z</time>
      </trkpt>
      <trkpt lat="44.5714" lon="0.84302">
        <ele>162.12</ele>
        <time>2014-08-15T10:04:33Z</time>
      </trkpt>
      <trkpt lat="44.57152" lon="0.84341">
        <ele>164.04</ele>
        <time>2014-08-15T10:04:39Z</time>
      </trkpt>
      <trkpt lat="44.57153" lon="0.84346">
        <ele>164.04</ele>
        <time>2014-08-15T10:04:40Z</time>
      </trkpt>
      <trkpt lat="44.5717" lon="0.84406">
        <ele>168.85</ele>
        <time>2014-08-15T10:04:54Z</time>
      </trkpt>
      <trkpt lat="44.57188" lon="0.84451">
        <ele>169.81</ele>
        <time>2014-08-15T10:05:07Z</time>
      </trkpt>
      <trkpt lat="44.57201" lon="0.84479">
        <ele>168.85</ele>
        <time>2014-08-15T10:05:15Z</time>
      </trkpt>
      <trkpt lat="44.57202" lon="0.84478">
        <ele>168.37</ele>
        <time>2014-08-15T10:05:16Z</time>
      </trkpt>
      <trkpt lat="44.57204" lon="0.84473">
        <ele>167.41</ele>
        <time>2014-08-15T10:05:18Z</time>
      </trkpt>
      <trkpt lat="44.57205" lon="0.84468">
        <ele>167.41</ele>
        <time>2014-08-15T10:05:19Z</time>
      </trkpt>
      <trkpt lat="44.57205" lon="0.84463">
        <ele>166.93</ele>
        <time>2014-08-15T10:05:20Z</time>
      </trkpt>
      <trkpt lat="44.57207" lon="0.84441">
        <ele>166.45</ele>
        <time>2014-08-15T10:05:24Z</time>
      </trkpt>
      <trkpt lat="44.57208" lon="0.84423">
        <ele>165.96</ele>
        <time>2014-08-15T10:05:27Z</time>
      </trkpt>
      <trkpt lat="44.57213" lon="0.84396">
        <ele>165.96</ele>
        <time>2014-08-15T10:05:31Z</time>
      </trkpt>
      <trkpt lat="44.57228" lon="0.84355">
        <ele>166.93</ele>
        <time>2014-08-15T10:05:37Z</time>
      </trkpt>
      <trkpt lat="44.57234" lon="0.84306">
        <ele>169.33</ele>
        <time>2014-08-15T10:05:43Z</time>
      </trkpt>
      <trkpt lat="44.5724" lon="0.84278">
        <ele>171.25</ele>
        <time>2014-08-15T10:05:48Z</time>
      </trkpt>
      <trkpt lat="44.57252" lon="0.84255">
        <ele>172.21</ele>
        <time>2014-08-15T10:05:53Z</time>
      </trkpt>
      <trkpt lat="44.57258" lon="0.84249">
        <ele>171.73</ele>
        <time>2014-08-15T10:05:55Z</time>
      </trkpt>
      <trkpt lat="44.57262" lon="0.84211">
        <ele>172.69</ele>
        <time>2014-08-15T10:06:03Z</time>
      </trkpt>
      <trkpt lat="44.57263" lon="0.84201">
        <ele>173.66</ele>
        <time>2014-08-15T10:06:05Z</time>
      </trkpt>
      <trkpt lat="44.57271" lon="0.84188">
        <ele>174.14</ele>
        <time>2014-08-15T10:06:08Z</time>
      </trkpt>
      <trkpt lat="44.57284" lon="0.84176">
        <ele>175.1</ele>
        <time>2014-08-15T10:06:11Z</time>
      </trkpt>
      <trkpt lat="44.57313" lon="0.8414">
        <ele>173.17</ele>
        <time>2014-08-15T10:06:18Z</time>
      </trkpt>
      <trkpt lat="44.57335" lon="0.84084">
        <ele>167.41</ele>
        <time>2014-08-15T10:06:25Z</time>
      </trkpt>
      <trkpt lat="44.57371" lon="0.84039">
        <ele>162.6</ele>
        <time>2014-08-15T10:06:33Z</time>
      </trkpt>
      <trkpt lat="44.57376" lon="0.84009">
        <ele>160.68</ele>
        <time>2014-08-15T10:06:37Z</time>
      </trkpt>
      <trkpt lat="44.57379" lon="0.83984">
        <ele>158.27</ele>
        <time>2014-08-15T10:06:40Z</time>
      </trkpt>
      <trkpt lat="44.57382" lon="0.83968">
        <ele>157.79</ele>
        <time>2014-08-15T10:06:42Z</time>
      </trkpt>
      <trkpt lat="44.57388" lon="0.83954">
        <ele>157.79</ele>
        <time>2014-08-15T10:06:44Z</time>
      </trkpt>
      <trkpt lat="44.57406" lon="0.839">
        <ele>155.87</ele>
        <time>2014-08-15T10:06:54Z</time>
      </trkpt>
      <trkpt lat="44.57421" lon="0.8388">
        <ele>157.31</ele>
        <time>2014-08-15T10:07:01Z</time>
      </trkpt>
      <trkpt lat="44.57425" lon="0.83878">
        <ele>157.31</ele>
        <time>2014-08-15T10:07:02Z</time>
      </trkpt>
      <trkpt lat="44.5743" lon="0.83877">
        <ele>156.83</ele>
        <time>2014-08-15T10:07:03Z</time>
      </trkpt>
      <trkpt lat="44.57434" lon="0.83875">
        <ele>156.83</ele>
        <time>2014-08-15T10:07:04Z</time>
      </trkpt>
      <trkpt lat="44.57438" lon="0.83874">
        <ele>156.83</ele>
        <time>2014-08-15T10:07:05Z</time>
      </trkpt>
      <trkpt lat="44.57452" lon="0.83857">
        <ele>157.31</ele>
        <time>2014-08-15T10:07:10Z</time>
      </trkpt>
      <trkpt lat="44.57465" lon="0.83816">
        <ele>160.2</ele>
        <time>2014-08-15T10:07:20Z</time>
      </trkpt>
      <trkpt lat="44.57479" lon="0.83794">
        <ele>162.6</ele>
        <time>2014-08-15T10:07:29Z</time>
      </trkpt>
      <trkpt lat="44.57512" lon="0.83761">
        <ele>176.06</ele>
        <time>2014-08-15T10:07:43Z</time>
      </trkpt>
      <trkpt lat="44.57546" lon="0.83741">
        <ele>181.35</ele>
        <time>2014-08-15T10:07:55Z</time>
      </trkpt>
      <trkpt lat="44.57573" lon="0.83729">
        <ele>181.35</ele>
        <time>2014-08-15T10:08:04Z</time>
      </trkpt>
      <trkpt lat="44.57605" lon="0.83715">
        <ele>179.42</ele>
        <time>2014-08-15T10:08:15Z</time>
      </trkpt>
      <trkpt lat="44.57615" lon="0.83718">
        <ele>178.94</ele>
        <time>2014-08-15T10:08:19Z</time>
      </trkpt>
      <trkpt lat="44.57625" lon="0.83716">
        <ele>179.9</ele>
        <time>2014-08-15T10:08:24Z</time>
      </trkpt>
      <trkpt lat="44.57661" lon="0.8372">
        <ele>181.35</ele>
        <time>2014-08-15T10:08:36Z</time>
      </trkpt>
      <trkpt lat="44.57694" lon="0.83729">
        <ele>187.11</ele>
        <time>2014-08-15T10:08:47Z</time>
      </trkpt>
      <trkpt lat="44.57729" lon="0.83735">
        <ele>187.59</ele>
        <time>2014-08-15T10:08:56Z</time>
      </trkpt>
      <trkpt lat="44.57752" lon="0.83732">
        <ele>187.59</ele>
        <time>2014-08-15T10:09:01Z</time>
      </trkpt>
      <trkpt lat="44.57766" lon="0.83728">
        <ele>188.08</ele>
        <time>2014-08-15T10:09:04Z</time>
      </trkpt>
      <trkpt lat="44.57786" lon="0.83728">
        <ele>187.11</ele>
        <time>2014-08-15T10:09:08Z</time>
      </trkpt>
      <trkpt lat="44.57799" lon="0.83735">
        <ele>183.27</ele>
        <time>2014-08-15T10:09:18Z</time>
      </trkpt>
      <trkpt lat="44.57809" lon="0.83734">
        <ele>176.06</ele>
        <time>2014-08-15T10:09:31Z</time>
      </trkpt>
      <trkpt lat="44.57812" lon="0.83734">
        <ele>176.06</ele>
        <time>2014-08-15T10:09:38Z</time>
      </trkpt>
      <trkpt lat="44.5782" lon="0.83732">
        <ele>177.98</ele>
        <time>2014-08-15T10:09:53Z</time>
      </trkpt>
      <trkpt lat="44.5782" lon="0.83732">
        <ele>174.14</ele>
        <time>2014-08-15T10:10:10Z</time>
      </trkpt>
      <trkpt lat="44.57821" lon="0.83732">
        <ele>172.21</ele>
        <time>2014-08-15T10:10:26Z</time>
      </trkpt>
      <trkpt lat="44.57821" lon="0.83733">
        <ele>170.77</ele>
        <time>2014-08-15T10:10:39Z</time>
      </trkpt>
      <trkpt lat="44.5782" lon="0.83734">
        <ele>167.89</ele>
        <time>2014-08-15T10:11:08Z</time>
      </trkpt>
      <trkpt lat="44.5782" lon="0.83734">
        <ele>168.37</ele>
        <time>2014-08-15T10:11:28Z</time>
      </trkpt>
      <trkpt lat="44.57823" lon="0.83734">
        <ele>169.81</ele>
        <time>2014-08-15T10:11:47Z</time>
      </trkpt>
      <trkpt lat="44.57823" lon="0.83734">
        <ele>170.77</ele>
        <time>2014-08-15T10:12:09Z</time>
      </trkpt>
      <trkpt lat="44.5783" lon="0.83724">
        <ele>171.73</ele>
        <time>2014-08-15T10:12:15Z</time>
      </trkpt>
      <trkpt lat="44.57862" lon="0.83702">
        <ele>175.1</ele>
        <time>2014-08-15T10:12:27Z</time>
      </trkpt>
      <trkpt lat="44.57894" lon="0.83709">
        <ele>176.06</ele>
        <time>2014-08-15T10:12:36Z</time>
      </trkpt>
      <trkpt lat="44.57926" lon="0.83709">
        <ele>178.46</ele>
        <time>2014-08-15T10:12:45Z</time>
      </trkpt>
      <trkpt lat="44.5795" lon="0.83711">
        <ele>180.38</ele>
        <time>2014-08-15T10:12:52Z</time>
      </trkpt>
      <trkpt lat="44.58" lon="0.83727">
        <ele>178.94</ele>
        <time>2014-08-15T10:13:02Z</time>
      </trkpt>
      <trkpt lat="44.58014" lon="0.83702">
        <ele>177.98</ele>
        <time>2014-08-15T10:13:11Z</time>
      </trkpt>
      <trkpt lat="44.58025" lon="0.83648">
        <ele>180.38</ele>
        <time>2014-08-15T10:13:22Z</time>
      </trkpt>
      <trkpt lat="44.58033" lon="0.83605">
        <ele>182.31</ele>
        <time>2014-08-15T10:13:30Z</time>
      </trkpt>
      <trkpt lat="44.58045" lon="0.83575">
        <ele>179.9</ele>
        <time>2014-08-15T10:13:35Z</time>
      </trkpt>
      <trkpt lat="44.58053" lon="0.83549">
        <ele>177.02</ele>
        <time>2014-08-15T10:13:39Z</time>
      </trkpt>
      <trkpt lat="44.58071" lon="0.83466">
        <ele>172.21</ele>
        <time>2014-08-15T10:13:53Z</time>
      </trkpt>
      <trkpt lat="44.58073" lon="0.83451">
        <ele>171.25</ele>
        <time>2014-08-15T10:13:56Z</time>
      </trkpt>
      <trkpt lat="44.5807" lon="0.83441">
        <ele>170.29</ele>
        <time>2014-08-15T10:13:59Z</time>
      </trkpt>
      <trkpt lat="44.58077" lon="0.83419">
        <ele>169.81</ele>
        <time>2014-08-15T10:14:06Z</time>
      </trkpt>
      <trkpt lat="44.58081" lon="0.83402">
        <ele>169.33</ele>
        <time>2014-08-15T10:14:10Z</time>
      </trkpt>
      <trkpt lat="44.58091" lon="0.83357">
        <ele>169.81</ele>
        <time>2014-08-15T10:14:20Z</time>
      </trkpt>
      <trkpt lat="44.58097" lon="0.83318">
        <ele>170.77</ele>
        <time>2014-08-15T10:14:30Z</time>
      </trkpt>
      <trkpt lat="44.58099" lon="0.83286">
        <ele>170.29</ele>
        <time>2014-08-15T10:14:39Z</time>
      </trkpt>
      <trkpt lat="44.58107" lon="0.8323">
        <ele>170.29</ele>
        <time>2014-08-15T10:14:50Z</time>
      </trkpt>
      <trkpt lat="44.58109" lon="0.83226">
        <ele>170.29</ele>
        <time>2014-08-15T10:14:51Z</time>
      </trkpt>
      <trkpt lat="44.58111" lon="0.83222">
        <ele>170.29</ele>
        <time>2014-08-15T10:14:52Z</time>
      </trkpt>
      <trkpt lat="44.58112" lon="0.83218">
        <ele>170.77</ele>
        <time>2014-08-15T10:14:53Z</time>
      </trkpt>
      <trkpt lat="44.58112" lon="0.83214">
        <ele>170.29</ele>
        <time>2014-08-15T10:14:54Z</time>
      </trkpt>
      <trkpt lat="44.58111" lon="0.8321">
        <ele>170.29</ele>
        <time>2014-08-15T10:14:55Z</time>
      </trkpt>
      <trkpt lat="44.58111" lon="0.83204">
        <ele>169.81</ele>
        <time>2014-08-15T10:14:56Z</time>
      </trkpt>
      <trkpt lat="44.58106" lon="0.83184">
        <ele>169.33</ele>
        <time>2014-08-15T10:14:59Z</time>
      </trkpt>
      <trkpt lat="44.58104" lon="0.83176">
        <ele>168.85</ele>
        <time>2014-08-15T10:15:00Z</time>
      </trkpt>
      <trkpt lat="44.58075" lon="0.83071">
        <ele>160.68</ele>
        <time>2014-08-15T10:15:13Z</time>
      </trkpt>
      <trkpt lat="44.58089" lon="0.8305">
        <ele>160.2</ele>
        <time>2014-08-15T10:15:20Z</time>
      </trkpt>
      <trkpt lat="44.58093" lon="0.83044">
        <ele>160.2</ele>
        <time>2014-08-15T10:15:21Z</time>
      </trkpt>
      <trkpt lat="44.58114" lon="0.83024">
        <ele>159.24</ele>
        <time>2014-08-15T10:15:25Z</time>
      </trkpt>
      <trkpt lat="44.5815" lon="0.82986">
        <ele>155.39</ele>
        <time>2014-08-15T10:15:33Z</time>
      </trkpt>
      <trkpt lat="44.58163" lon="0.82977">
        <ele>154.43</ele>
        <time>2014-08-15T10:15:36Z</time>
      </trkpt>
      <trkpt lat="44.58188" lon="0.82982">
        <ele>152.51</ele>
        <time>2014-08-15T10:15:46Z</time>
      </trkpt>
      <trkpt lat="44.58189" lon="0.82984">
        <ele>152.51</ele>
        <time>2014-08-15T10:15:47Z</time>
      </trkpt>
      <trkpt lat="44.58205" lon="0.83002">
        <ele>152.03</ele>
        <time>2014-08-15T10:16:00Z</time>
      </trkpt>
      <trkpt lat="44.58207" lon="0.83003">
        <ele>151.06</ele>
        <time>2014-08-15T10:16:16Z</time>
      </trkpt>
      <trkpt lat="44.58208" lon="0.83003">
        <ele>148.66</ele>
        <time>2014-08-15T10:16:33Z</time>
      </trkpt>
      <trkpt lat="44.58208" lon="0.83001">
        <ele>147.7</ele>
        <time>2014-08-15T10:16:51Z</time>
      </trkpt>
      <trkpt lat="44.58208" lon="0.83001">
        <ele>148.66</ele>
        <time>2014-08-15T10:17:13Z</time>
      </trkpt>
    </trkseg>
  </trk>
</gpx>